<?xml version="1.0" encoding="UTF-8" standalone="no" ?>
<gpx xmlns="http://www.topografix.com/GPX/1/1" xmlns:xsi="http://www.w3.org/2001/XMLSchema-instance" xsi:schemaLocation="http://www.topografix.com/GPX/1/1 http://www.topografix.com/GPX/1/1/gpx.xsd" version="1.1" creator="VisuGPX - https://www.visugpx.com">
  <metadata>
    <name>151_Circuit 66 km Les Herbiers_Les Herbiers édité par cth85.com</name>
    <desc><![CDATA[Cicuit de 66 km passant par:
Les Herbiers
D755 Les Landes Genusson via les peux et la belletière
Saint Symphorien
La Boissière de Montaigu
D62 Chavagnes en Paillers
D6, D62 La Rabatelière
D62 Chauché
D53 Mesnard la Barotière
 Les Herbiers]]></desc>
  </metadata>
  <trk>
    <name><![CDATA[66_151_cth85.com]]></name>
    <extensions>
      <line xmlns="http://www.topografix.com/GPX/gpx_style/0/2">
        <color>0000FF</color>
        <width>4</width>
      </line>
    </extensions>
    <trkseg>
      <trkpt lat="46.8635" lon="-1.00598">
        <ele>118.9</ele>
        <time>2024-11-07T08:32:07.000Z</time>
      </trkpt>
      <trkpt lat="46.86373" lon="-1.00574">
        <ele>119.3</ele>
        <time>2024-11-07T08:32:12.463Z</time>
      </trkpt>
      <trkpt lat="46.86383" lon="-1.00561">
        <ele>119.2</ele>
        <time>2024-11-07T08:32:14.559Z</time>
      </trkpt>
      <trkpt lat="46.8639" lon="-1.00556">
        <ele>119</ele>
        <time>2024-11-07T08:32:15.604Z</time>
      </trkpt>
      <trkpt lat="46.864" lon="-1.00556">
        <ele>119</ele>
        <time>2024-11-07T08:32:17.283Z</time>
      </trkpt>
      <trkpt lat="46.86414" lon="-1.0056">
        <ele>119.2</ele>
        <time>2024-11-07T08:32:20.037Z</time>
      </trkpt>
      <trkpt lat="46.86434" lon="-1.00561">
        <ele>118.6</ele>
        <time>2024-11-07T08:32:22.632Z</time>
      </trkpt>
      <trkpt lat="46.86456" lon="-1.0056">
        <ele>117.7</ele>
        <time>2024-11-07T08:32:25.261Z</time>
      </trkpt>
      <trkpt lat="46.86473" lon="-1.0056">
        <ele>117.2</ele>
        <time>2024-11-07T08:32:27.475Z</time>
      </trkpt>
      <trkpt lat="46.86495" lon="-1.00565">
        <ele>117.3</ele>
        <time>2024-11-07T08:32:31.380Z</time>
      </trkpt>
      <trkpt lat="46.86519" lon="-1.00576">
        <ele>115.2</ele>
        <time>2024-11-07T08:32:33.914Z</time>
      </trkpt>
      <trkpt lat="46.86537" lon="-1.00588">
        <ele>114.4</ele>
        <time>2024-11-07T08:32:36.285Z</time>
      </trkpt>
      <trkpt lat="46.86554" lon="-1.00601">
        <ele>114.7</ele>
        <time>2024-11-07T08:32:40.052Z</time>
      </trkpt>
      <trkpt lat="46.86569" lon="-1.00612">
        <ele>114.1</ele>
        <time>2024-11-07T08:32:42.133Z</time>
      </trkpt>
      <trkpt lat="46.86584" lon="-1.0062">
        <ele>113.3</ele>
        <time>2024-11-07T08:32:43.922Z</time>
      </trkpt>
      <trkpt lat="46.86609" lon="-1.0063">
        <ele>112.1</ele>
        <time>2024-11-07T08:32:46.902Z</time>
      </trkpt>
      <trkpt lat="46.86654" lon="-1.00642">
        <ele>111.1</ele>
        <time>2024-11-07T08:32:53.231Z</time>
      </trkpt>
      <trkpt lat="46.86704" lon="-1.00657">
        <ele>110</ele>
        <time>2024-11-07T08:33:00.312Z</time>
      </trkpt>
      <trkpt lat="46.86716" lon="-1.0067">
        <ele>110</ele>
        <time>2024-11-07T08:33:02.819Z</time>
      </trkpt>
      <trkpt lat="46.86728" lon="-1.00664">
        <ele>110</ele>
        <time>2024-11-07T08:33:04.949Z</time>
      </trkpt>
      <trkpt lat="46.8674" lon="-1.0066">
        <ele>110</ele>
        <time>2024-11-07T08:33:07.015Z</time>
      </trkpt>
      <trkpt lat="46.86828" lon="-1.00634">
        <ele>111</ele>
        <time>2024-11-07T08:33:23.841Z</time>
      </trkpt>
      <trkpt lat="46.86851" lon="-1.0063">
        <ele>111.3</ele>
        <time>2024-11-07T08:33:28.263Z</time>
      </trkpt>
      <trkpt lat="46.86871" lon="-1.00637">
        <ele>111.1</ele>
        <time>2024-11-07T08:33:31.420Z</time>
      </trkpt>
      <trkpt lat="46.86912" lon="-1.0065">
        <ele>111.2</ele>
        <time>2024-11-07T08:33:38.628Z</time>
      </trkpt>
      <trkpt lat="46.86936" lon="-1.00656">
        <ele>109.5</ele>
        <time>2024-11-07T08:33:41.081Z</time>
      </trkpt>
      <trkpt lat="46.86947" lon="-1.00652">
        <ele>108.8</ele>
        <time>2024-11-07T08:33:42.258Z</time>
      </trkpt>
      <trkpt lat="46.86951" lon="-1.00673">
        <ele>108.4</ele>
        <time>2024-11-07T08:33:44.239Z</time>
      </trkpt>
      <trkpt lat="46.86966" lon="-1.00763">
        <ele>106.9</ele>
        <time>2024-11-07T08:33:52.872Z</time>
      </trkpt>
      <trkpt lat="46.86981" lon="-1.00837">
        <ele>105</ele>
        <time>2024-11-07T08:33:59.407Z</time>
      </trkpt>
      <trkpt lat="46.86987" lon="-1.00862">
        <ele>104.5</ele>
        <time>2024-11-07T08:34:01.800Z</time>
      </trkpt>
      <trkpt lat="46.87009" lon="-1.00948">
        <ele>102.6</ele>
        <time>2024-11-07T08:34:09.922Z</time>
      </trkpt>
      <trkpt lat="46.87086" lon="-1.01203">
        <ele>102.3</ele>
        <time>2024-11-07T08:34:41.451Z</time>
      </trkpt>
      <trkpt lat="46.87116" lon="-1.01303">
        <ele>106.2</ele>
        <time>2024-11-07T08:35:03.955Z</time>
      </trkpt>
      <trkpt lat="46.87117" lon="-1.01311">
        <ele>106.2</ele>
        <time>2024-11-07T08:35:04.889Z</time>
      </trkpt>
      <trkpt lat="46.87119" lon="-1.01317">
        <ele>106.3</ele>
        <time>2024-11-07T08:35:05.847Z</time>
      </trkpt>
      <trkpt lat="46.87143" lon="-1.01312">
        <ele>107</ele>
        <time>2024-11-07T08:35:11.350Z</time>
      </trkpt>
      <trkpt lat="46.87145" lon="-1.01312">
        <ele>107.1</ele>
        <time>2024-11-07T08:35:11.936Z</time>
      </trkpt>
      <trkpt lat="46.87171" lon="-1.01309">
        <ele>107.1</ele>
        <time>2024-11-07T08:35:16.315Z</time>
      </trkpt>
      <trkpt lat="46.87184" lon="-1.01307">
        <ele>107.1</ele>
        <time>2024-11-07T08:35:18.510Z</time>
      </trkpt>
      <trkpt lat="46.87214" lon="-1.01301">
        <ele>107</ele>
        <time>2024-11-07T08:35:23.439Z</time>
      </trkpt>
      <trkpt lat="46.87234" lon="-1.01292">
        <ele>107.2</ele>
        <time>2024-11-07T08:35:27.298Z</time>
      </trkpt>
      <trkpt lat="46.87258" lon="-1.01282">
        <ele>107.4</ele>
        <time>2024-11-07T08:35:31.829Z</time>
      </trkpt>
      <trkpt lat="46.8728" lon="-1.01272">
        <ele>108.1</ele>
        <time>2024-11-07T08:35:37.149Z</time>
      </trkpt>
      <trkpt lat="46.87289" lon="-1.01272">
        <ele>108.3</ele>
        <time>2024-11-07T08:35:39.046Z</time>
      </trkpt>
      <trkpt lat="46.87295" lon="-1.01275">
        <ele>108.6</ele>
        <time>2024-11-07T08:35:40.841Z</time>
      </trkpt>
      <trkpt lat="46.87303" lon="-1.01285">
        <ele>108.9</ele>
        <time>2024-11-07T08:35:43.220Z</time>
      </trkpt>
      <trkpt lat="46.87307" lon="-1.01302">
        <ele>109.1</ele>
        <time>2024-11-07T08:35:45.649Z</time>
      </trkpt>
      <trkpt lat="46.87309" lon="-1.01312">
        <ele>109.5</ele>
        <time>2024-11-07T08:35:47.908Z</time>
      </trkpt>
      <trkpt lat="46.87314" lon="-1.01336">
        <ele>110.4</ele>
        <time>2024-11-07T08:35:53.094Z</time>
      </trkpt>
      <trkpt lat="46.87324" lon="-1.01387">
        <ele>112.6</ele>
        <time>2024-11-07T08:36:05.300Z</time>
      </trkpt>
      <trkpt lat="46.87325" lon="-1.01397">
        <ele>112.8</ele>
        <time>2024-11-07T08:36:06.869Z</time>
      </trkpt>
      <trkpt lat="46.87329" lon="-1.0141">
        <ele>113</ele>
        <time>2024-11-07T08:36:08.885Z</time>
      </trkpt>
      <trkpt lat="46.87338" lon="-1.01454">
        <ele>114.1</ele>
        <time>2024-11-07T08:36:16.539Z</time>
      </trkpt>
      <trkpt lat="46.87343" lon="-1.01481">
        <ele>114.2</ele>
        <time>2024-11-07T08:36:19.917Z</time>
      </trkpt>
      <trkpt lat="46.87336" lon="-1.01489">
        <ele>114</ele>
        <time>2024-11-07T08:36:21.139Z</time>
      </trkpt>
      <trkpt lat="46.87326" lon="-1.01494">
        <ele>114</ele>
        <time>2024-11-07T08:36:22.914Z</time>
      </trkpt>
      <trkpt lat="46.87283" lon="-1.0151">
        <ele>113.2</ele>
        <time>2024-11-07T08:36:29.252Z</time>
      </trkpt>
      <trkpt lat="46.87204" lon="-1.01532">
        <ele>111.1</ele>
        <time>2024-11-07T08:36:40.002Z</time>
      </trkpt>
      <trkpt lat="46.87215" lon="-1.01585">
        <ele>112.8</ele>
        <time>2024-11-07T08:36:50.404Z</time>
      </trkpt>
      <trkpt lat="46.87216" lon="-1.01635">
        <ele>113.9</ele>
        <time>2024-11-07T08:36:58.465Z</time>
      </trkpt>
      <trkpt lat="46.87213" lon="-1.01651">
        <ele>113.9</ele>
        <time>2024-11-07T08:37:00.370Z</time>
      </trkpt>
      <trkpt lat="46.87212" lon="-1.01656">
        <ele>113.8</ele>
        <time>2024-11-07T08:37:00.838Z</time>
      </trkpt>
      <trkpt lat="46.87215" lon="-1.01705">
        <ele>113.7</ele>
        <time>2024-11-07T08:37:06.330Z</time>
      </trkpt>
      <trkpt lat="46.87227" lon="-1.01797">
        <ele>112.3</ele>
        <time>2024-11-07T08:37:15.189Z</time>
      </trkpt>
      <trkpt lat="46.87228" lon="-1.01814">
        <ele>111.9</ele>
        <time>2024-11-07T08:37:16.652Z</time>
      </trkpt>
      <trkpt lat="46.87275" lon="-1.01851">
        <ele>110.1</ele>
        <time>2024-11-07T08:37:23.377Z</time>
      </trkpt>
      <trkpt lat="46.87393" lon="-1.0194">
        <ele>109</ele>
        <time>2024-11-07T08:37:44.025Z</time>
      </trkpt>
      <trkpt lat="46.87409" lon="-1.01951">
        <ele>108.9</ele>
        <time>2024-11-07T08:37:46.840Z</time>
      </trkpt>
      <trkpt lat="46.87456" lon="-1.01986">
        <ele>109.4</ele>
        <time>2024-11-07T08:37:56.559Z</time>
      </trkpt>
      <trkpt lat="46.87501" lon="-1.02019">
        <ele>111</ele>
        <time>2024-11-07T08:38:08.373Z</time>
      </trkpt>
      <trkpt lat="46.87593" lon="-1.02088">
        <ele>115.4</ele>
        <time>2024-11-07T08:38:35.965Z</time>
      </trkpt>
      <trkpt lat="46.87608" lon="-1.02099">
        <ele>116.4</ele>
        <time>2024-11-07T08:38:41.533Z</time>
      </trkpt>
      <trkpt lat="46.87634" lon="-1.02119">
        <ele>117</ele>
        <time>2024-11-07T08:38:47.603Z</time>
      </trkpt>
      <trkpt lat="46.87668" lon="-1.02141">
        <ele>118</ele>
        <time>2024-11-07T08:38:55.855Z</time>
      </trkpt>
      <trkpt lat="46.87674" lon="-1.02142">
        <ele>118</ele>
        <time>2024-11-07T08:38:56.869Z</time>
      </trkpt>
      <trkpt lat="46.87688" lon="-1.02142">
        <ele>118</ele>
        <time>2024-11-07T08:38:59.220Z</time>
      </trkpt>
      <trkpt lat="46.87691" lon="-1.02136">
        <ele>118</ele>
        <time>2024-11-07T08:39:00.073Z</time>
      </trkpt>
      <trkpt lat="46.87698" lon="-1.02133">
        <ele>118</ele>
        <time>2024-11-07T08:39:01.298Z</time>
      </trkpt>
      <trkpt lat="46.87704" lon="-1.02136">
        <ele>118</ele>
        <time>2024-11-07T08:39:02.363Z</time>
      </trkpt>
      <trkpt lat="46.87707" lon="-1.02142">
        <ele>118</ele>
        <time>2024-11-07T08:39:03.216Z</time>
      </trkpt>
      <trkpt lat="46.87708" lon="-1.02148">
        <ele>118</ele>
        <time>2024-11-07T08:39:03.925Z</time>
      </trkpt>
      <trkpt lat="46.87708" lon="-1.02156">
        <ele>118</ele>
        <time>2024-11-07T08:39:04.843Z</time>
      </trkpt>
      <trkpt lat="46.87715" lon="-1.02171">
        <ele>117.8</ele>
        <time>2024-11-07T08:39:06.646Z</time>
      </trkpt>
      <trkpt lat="46.87725" lon="-1.02185">
        <ele>117.3</ele>
        <time>2024-11-07T08:39:08.358Z</time>
      </trkpt>
      <trkpt lat="46.87737" lon="-1.02196">
        <ele>117</ele>
        <time>2024-11-07T08:39:10.329Z</time>
      </trkpt>
      <trkpt lat="46.87742" lon="-1.02203">
        <ele>116.9</ele>
        <time>2024-11-07T08:39:11.348Z</time>
      </trkpt>
      <trkpt lat="46.87759" lon="-1.02214">
        <ele>117.2</ele>
        <time>2024-11-07T08:39:15.017Z</time>
      </trkpt>
      <trkpt lat="46.87766" lon="-1.02219">
        <ele>117.5</ele>
        <time>2024-11-07T08:39:16.997Z</time>
      </trkpt>
      <trkpt lat="46.87806" lon="-1.02249">
        <ele>118</ele>
        <time>2024-11-07T08:39:25.419Z</time>
      </trkpt>
      <trkpt lat="46.87972" lon="-1.02376">
        <ele>119</ele>
        <time>2024-11-07T08:39:58.543Z</time>
      </trkpt>
      <trkpt lat="46.88075" lon="-1.02454">
        <ele>119.5</ele>
        <time>2024-11-07T08:40:18.845Z</time>
      </trkpt>
      <trkpt lat="46.88171" lon="-1.02526">
        <ele>121</ele>
        <time>2024-11-07T08:40:39.647Z</time>
      </trkpt>
      <trkpt lat="46.88173" lon="-1.02521">
        <ele>121</ele>
        <time>2024-11-07T08:40:40.312Z</time>
      </trkpt>
      <trkpt lat="46.8818" lon="-1.02515">
        <ele>121</ele>
        <time>2024-11-07T08:40:41.675Z</time>
      </trkpt>
      <trkpt lat="46.88188" lon="-1.02515">
        <ele>121</ele>
        <time>2024-11-07T08:40:43.018Z</time>
      </trkpt>
      <trkpt lat="46.88192" lon="-1.02518">
        <ele>121</ele>
        <time>2024-11-07T08:40:43.773Z</time>
      </trkpt>
      <trkpt lat="46.88197" lon="-1.0253">
        <ele>121</ele>
        <time>2024-11-07T08:40:45.386Z</time>
      </trkpt>
      <trkpt lat="46.88196" lon="-1.02544">
        <ele>121</ele>
        <time>2024-11-07T08:40:47.001Z</time>
      </trkpt>
      <trkpt lat="46.88244" lon="-1.0258">
        <ele>120.8</ele>
        <time>2024-11-07T08:40:55.749Z</time>
      </trkpt>
      <trkpt lat="46.88379" lon="-1.02683">
        <ele>123.1</ele>
        <time>2024-11-07T08:41:25.478Z</time>
      </trkpt>
      <trkpt lat="46.88439" lon="-1.02728">
        <ele>123.6</ele>
        <time>2024-11-07T08:41:37.648Z</time>
      </trkpt>
      <trkpt lat="46.88692" lon="-1.02919">
        <ele>126.8</ele>
        <time>2024-11-07T08:42:31.058Z</time>
      </trkpt>
      <trkpt lat="46.88723" lon="-1.02946">
        <ele>126.9</ele>
        <time>2024-11-07T08:42:37.279Z</time>
      </trkpt>
      <trkpt lat="46.8875" lon="-1.02974">
        <ele>125.9</ele>
        <time>2024-11-07T08:42:41.562Z</time>
      </trkpt>
      <trkpt lat="46.88769" lon="-1.03">
        <ele>125.7</ele>
        <time>2024-11-07T08:42:45.630Z</time>
      </trkpt>
      <trkpt lat="46.88785" lon="-1.03027">
        <ele>125.3</ele>
        <time>2024-11-07T08:42:49.168Z</time>
      </trkpt>
      <trkpt lat="46.88803" lon="-1.03063">
        <ele>124.5</ele>
        <time>2024-11-07T08:42:53.239Z</time>
      </trkpt>
      <trkpt lat="46.88819" lon="-1.03102">
        <ele>124.6</ele>
        <time>2024-11-07T08:42:58.623Z</time>
      </trkpt>
      <trkpt lat="46.88828" lon="-1.03131">
        <ele>124.7</ele>
        <time>2024-11-07T08:43:02.444Z</time>
      </trkpt>
      <trkpt lat="46.88831" lon="-1.0314">
        <ele>124.8</ele>
        <time>2024-11-07T08:43:03.773Z</time>
      </trkpt>
      <trkpt lat="46.88861" lon="-1.03123">
        <ele>124</ele>
        <time>2024-11-07T08:43:08.117Z</time>
      </trkpt>
      <trkpt lat="46.88873" lon="-1.03117">
        <ele>124</ele>
        <time>2024-11-07T08:43:10.247Z</time>
      </trkpt>
      <trkpt lat="46.88894" lon="-1.03109">
        <ele>124.1</ele>
        <time>2024-11-07T08:43:14.056Z</time>
      </trkpt>
      <trkpt lat="46.88908" lon="-1.03107">
        <ele>124</ele>
        <time>2024-11-07T08:43:16.267Z</time>
      </trkpt>
      <trkpt lat="46.88923" lon="-1.03109">
        <ele>124</ele>
        <time>2024-11-07T08:43:18.797Z</time>
      </trkpt>
      <trkpt lat="46.8894" lon="-1.03113">
        <ele>123.9</ele>
        <time>2024-11-07T08:43:21.535Z</time>
      </trkpt>
      <trkpt lat="46.88956" lon="-1.0312">
        <ele>123.7</ele>
        <time>2024-11-07T08:43:24.049Z</time>
      </trkpt>
      <trkpt lat="46.88965" lon="-1.03127">
        <ele>123.4</ele>
        <time>2024-11-07T08:43:25.376Z</time>
      </trkpt>
      <trkpt lat="46.8897" lon="-1.03129">
        <ele>123.4</ele>
        <time>2024-11-07T08:43:26.246Z</time>
      </trkpt>
      <trkpt lat="46.88978" lon="-1.03135">
        <ele>123.1</ele>
        <time>2024-11-07T08:43:27.382Z</time>
      </trkpt>
      <trkpt lat="46.89092" lon="-1.03221">
        <ele>122.3</ele>
        <time>2024-11-07T08:43:47.703Z</time>
      </trkpt>
      <trkpt lat="46.89147" lon="-1.03263">
        <ele>122.5</ele>
        <time>2024-11-07T08:43:58.448Z</time>
      </trkpt>
      <trkpt lat="46.8921" lon="-1.0331">
        <ele>123.8</ele>
        <time>2024-11-07T08:44:12.744Z</time>
      </trkpt>
      <trkpt lat="46.89261" lon="-1.03348">
        <ele>124.1</ele>
        <time>2024-11-07T08:44:22.854Z</time>
      </trkpt>
      <trkpt lat="46.89322" lon="-1.03394">
        <ele>125.4</ele>
        <time>2024-11-07T08:44:36.809Z</time>
      </trkpt>
      <trkpt lat="46.89371" lon="-1.03431">
        <ele>125.8</ele>
        <time>2024-11-07T08:44:46.746Z</time>
      </trkpt>
      <trkpt lat="46.89425" lon="-1.03472">
        <ele>126.3</ele>
        <time>2024-11-07T08:44:57.815Z</time>
      </trkpt>
      <trkpt lat="46.89494" lon="-1.03524">
        <ele>125.9</ele>
        <time>2024-11-07T08:45:10.235Z</time>
      </trkpt>
      <trkpt lat="46.89575" lon="-1.03585">
        <ele>126</ele>
        <time>2024-11-07T08:45:25.693Z</time>
      </trkpt>
      <trkpt lat="46.89602" lon="-1.03605">
        <ele>126.7</ele>
        <time>2024-11-07T08:45:32.133Z</time>
      </trkpt>
      <trkpt lat="46.89634" lon="-1.0363">
        <ele>126.3</ele>
        <time>2024-11-07T08:45:37.638Z</time>
      </trkpt>
      <trkpt lat="46.89786" lon="-1.03744">
        <ele>128.3</ele>
        <time>2024-11-07T08:46:09.836Z</time>
      </trkpt>
      <trkpt lat="46.89796" lon="-1.03751">
        <ele>128</ele>
        <time>2024-11-07T08:46:11.306Z</time>
      </trkpt>
      <trkpt lat="46.90071" lon="-1.03956">
        <ele>127.3</ele>
        <time>2024-11-07T08:47:02.032Z</time>
      </trkpt>
      <trkpt lat="46.90116" lon="-1.03991">
        <ele>127.3</ele>
        <time>2024-11-07T08:47:10.589Z</time>
      </trkpt>
      <trkpt lat="46.9013" lon="-1.04004">
        <ele>126.9</ele>
        <time>2024-11-07T08:47:12.841Z</time>
      </trkpt>
      <trkpt lat="46.90142" lon="-1.04019">
        <ele>126.3</ele>
        <time>2024-11-07T08:47:14.766Z</time>
      </trkpt>
      <trkpt lat="46.90158" lon="-1.04048">
        <ele>126</ele>
        <time>2024-11-07T08:47:18.606Z</time>
      </trkpt>
      <trkpt lat="46.90174" lon="-1.04034">
        <ele>125.7</ele>
        <time>2024-11-07T08:47:21.313Z</time>
      </trkpt>
      <trkpt lat="46.90179" lon="-1.04032">
        <ele>125.6</ele>
        <time>2024-11-07T08:47:22.046Z</time>
      </trkpt>
      <trkpt lat="46.90185" lon="-1.04035">
        <ele>125.3</ele>
        <time>2024-11-07T08:47:22.770Z</time>
      </trkpt>
      <trkpt lat="46.90281" lon="-1.04093">
        <ele>122.8</ele>
        <time>2024-11-07T08:47:36.883Z</time>
      </trkpt>
      <trkpt lat="46.90358" lon="-1.04132">
        <ele>125.1</ele>
        <time>2024-11-07T08:47:55.241Z</time>
      </trkpt>
      <trkpt lat="46.90372" lon="-1.04139">
        <ele>125.4</ele>
        <time>2024-11-07T08:47:58.294Z</time>
      </trkpt>
      <trkpt lat="46.90397" lon="-1.04151">
        <ele>126.3</ele>
        <time>2024-11-07T08:48:04.645Z</time>
      </trkpt>
      <trkpt lat="46.90454" lon="-1.04173">
        <ele>127.9</ele>
        <time>2024-11-07T08:48:17.765Z</time>
      </trkpt>
      <trkpt lat="46.90505" lon="-1.04187">
        <ele>128.4</ele>
        <time>2024-11-07T08:48:27.342Z</time>
      </trkpt>
      <trkpt lat="46.90559" lon="-1.04198">
        <ele>129</ele>
        <time>2024-11-07T08:48:37.545Z</time>
      </trkpt>
      <trkpt lat="46.90583" lon="-1.042">
        <ele>129.8</ele>
        <time>2024-11-07T08:48:43.286Z</time>
      </trkpt>
      <trkpt lat="46.90624" lon="-1.04204">
        <ele>129.7</ele>
        <time>2024-11-07T08:48:50.029Z</time>
      </trkpt>
      <trkpt lat="46.90654" lon="-1.04202">
        <ele>129.7</ele>
        <time>2024-11-07T08:48:55.072Z</time>
      </trkpt>
      <trkpt lat="46.90667" lon="-1.04202">
        <ele>129.7</ele>
        <time>2024-11-07T08:48:57.255Z</time>
      </trkpt>
      <trkpt lat="46.90707" lon="-1.04197">
        <ele>129.9</ele>
        <time>2024-11-07T08:49:04.329Z</time>
      </trkpt>
      <trkpt lat="46.90752" lon="-1.04188">
        <ele>129.9</ele>
        <time>2024-11-07T08:49:11.955Z</time>
      </trkpt>
      <trkpt lat="46.90759" lon="-1.04187">
        <ele>129.8</ele>
        <time>2024-11-07T08:49:12.993Z</time>
      </trkpt>
      <trkpt lat="46.90773" lon="-1.04181">
        <ele>129.6</ele>
        <time>2024-11-07T08:49:15.156Z</time>
      </trkpt>
      <trkpt lat="46.90797" lon="-1.04169">
        <ele>129.2</ele>
        <time>2024-11-07T08:49:18.849Z</time>
      </trkpt>
      <trkpt lat="46.90817" lon="-1.04154">
        <ele>129</ele>
        <time>2024-11-07T08:49:22.325Z</time>
      </trkpt>
      <trkpt lat="46.9091" lon="-1.04072">
        <ele>126.9</ele>
        <time>2024-11-07T08:49:37.665Z</time>
      </trkpt>
      <trkpt lat="46.90945" lon="-1.04054">
        <ele>126</ele>
        <time>2024-11-07T08:49:42.698Z</time>
      </trkpt>
      <trkpt lat="46.90967" lon="-1.0405">
        <ele>124.6</ele>
        <time>2024-11-07T08:49:44.981Z</time>
      </trkpt>
      <trkpt lat="46.90989" lon="-1.04051">
        <ele>123.6</ele>
        <time>2024-11-07T08:49:47.527Z</time>
      </trkpt>
      <trkpt lat="46.91013" lon="-1.04057">
        <ele>122.4</ele>
        <time>2024-11-07T08:49:50.270Z</time>
      </trkpt>
      <trkpt lat="46.91087" lon="-1.0409">
        <ele>119.5</ele>
        <time>2024-11-07T08:49:59.745Z</time>
      </trkpt>
      <trkpt lat="46.91157" lon="-1.04121">
        <ele>115.7</ele>
        <time>2024-11-07T08:50:07.836Z</time>
      </trkpt>
      <trkpt lat="46.91202" lon="-1.04148">
        <ele>117.4</ele>
        <time>2024-11-07T08:50:19.680Z</time>
      </trkpt>
      <trkpt lat="46.91218" lon="-1.04161">
        <ele>118.5</ele>
        <time>2024-11-07T08:50:25.794Z</time>
      </trkpt>
      <trkpt lat="46.91241" lon="-1.04183">
        <ele>120.2</ele>
        <time>2024-11-07T08:50:35.191Z</time>
      </trkpt>
      <trkpt lat="46.9126" lon="-1.04204">
        <ele>121.7</ele>
        <time>2024-11-07T08:50:43.458Z</time>
      </trkpt>
      <trkpt lat="46.91293" lon="-1.04247">
        <ele>124.4</ele>
        <time>2024-11-07T08:50:58.416Z</time>
      </trkpt>
      <trkpt lat="46.91323" lon="-1.04293">
        <ele>126.3</ele>
        <time>2024-11-07T08:51:10.180Z</time>
      </trkpt>
      <trkpt lat="46.91343" lon="-1.04332">
        <ele>131.6</ele>
        <time>2024-11-07T08:51:34.153Z</time>
      </trkpt>
      <trkpt lat="46.91357" lon="-1.04364">
        <ele>131.3</ele>
        <time>2024-11-07T08:51:38.075Z</time>
      </trkpt>
      <trkpt lat="46.91415" lon="-1.04494">
        <ele>134.8</ele>
        <time>2024-11-07T08:52:03.320Z</time>
      </trkpt>
      <trkpt lat="46.91427" lon="-1.04515">
        <ele>135.5</ele>
        <time>2024-11-07T08:52:08.011Z</time>
      </trkpt>
      <trkpt lat="46.91452" lon="-1.04553">
        <ele>135.1</ele>
        <time>2024-11-07T08:52:13.477Z</time>
      </trkpt>
      <trkpt lat="46.91484" lon="-1.04595">
        <ele>135.8</ele>
        <time>2024-11-07T08:52:21.973Z</time>
      </trkpt>
      <trkpt lat="46.91487" lon="-1.04607">
        <ele>135.6</ele>
        <time>2024-11-07T08:52:23.171Z</time>
      </trkpt>
      <trkpt lat="46.91475" lon="-1.04659">
        <ele>135.1</ele>
        <time>2024-11-07T08:52:28.747Z</time>
      </trkpt>
      <trkpt lat="46.91594" lon="-1.04719">
        <ele>140.3</ele>
        <time>2024-11-07T08:53:01.830Z</time>
      </trkpt>
      <trkpt lat="46.91622" lon="-1.04732">
        <ele>140.9</ele>
        <time>2024-11-07T08:53:07.900Z</time>
      </trkpt>
      <trkpt lat="46.9169" lon="-1.04772">
        <ele>143.5</ele>
        <time>2024-11-07T08:53:25.858Z</time>
      </trkpt>
      <trkpt lat="46.91797" lon="-1.04831">
        <ele>148.7</ele>
        <time>2024-11-07T08:53:57.496Z</time>
      </trkpt>
      <trkpt lat="46.91893" lon="-1.0488">
        <ele>151.6</ele>
        <time>2024-11-07T08:54:20.480Z</time>
      </trkpt>
      <trkpt lat="46.9206" lon="-1.0496">
        <ele>157.2</ele>
        <time>2024-11-07T08:55:01.757Z</time>
      </trkpt>
      <trkpt lat="46.92188" lon="-1.05024">
        <ele>161.9</ele>
        <time>2024-11-07T08:55:34.618Z</time>
      </trkpt>
      <trkpt lat="46.92638" lon="-1.05243">
        <ele>172.2</ele>
        <time>2024-11-07T08:57:13.998Z</time>
      </trkpt>
      <trkpt lat="46.92968" lon="-1.05405">
        <ele>177.8</ele>
        <time>2024-11-07T08:58:22.665Z</time>
      </trkpt>
      <trkpt lat="46.93078" lon="-1.05459">
        <ele>181.3</ele>
        <time>2024-11-07T08:58:49.389Z</time>
      </trkpt>
      <trkpt lat="46.931" lon="-1.0547">
        <ele>181.7</ele>
        <time>2024-11-07T08:58:54.030Z</time>
      </trkpt>
      <trkpt lat="46.93108" lon="-1.05474">
        <ele>181.8</ele>
        <time>2024-11-07T08:58:55.625Z</time>
      </trkpt>
      <trkpt lat="46.93146" lon="-1.05491">
        <ele>183.3</ele>
        <time>2024-11-07T08:59:05.629Z</time>
      </trkpt>
      <trkpt lat="46.93149" lon="-1.05482">
        <ele>183.4</ele>
        <time>2024-11-07T08:59:06.958Z</time>
      </trkpt>
      <trkpt lat="46.93154" lon="-1.05476">
        <ele>183.5</ele>
        <time>2024-11-07T08:59:08.225Z</time>
      </trkpt>
      <trkpt lat="46.9316" lon="-1.05472">
        <ele>183.8</ele>
        <time>2024-11-07T08:59:10.050Z</time>
      </trkpt>
      <trkpt lat="46.93166" lon="-1.05471">
        <ele>184</ele>
        <time>2024-11-07T08:59:11.489Z</time>
      </trkpt>
      <trkpt lat="46.93173" lon="-1.05472">
        <ele>184.2</ele>
        <time>2024-11-07T08:59:13.077Z</time>
      </trkpt>
      <trkpt lat="46.93179" lon="-1.05477">
        <ele>184.4</ele>
        <time>2024-11-07T08:59:14.646Z</time>
      </trkpt>
      <trkpt lat="46.93184" lon="-1.05484">
        <ele>184.4</ele>
        <time>2024-11-07T08:59:15.808Z</time>
      </trkpt>
      <trkpt lat="46.93187" lon="-1.05493">
        <ele>184.2</ele>
        <time>2024-11-07T08:59:16.699Z</time>
      </trkpt>
      <trkpt lat="46.93187" lon="-1.05503">
        <ele>183.9</ele>
        <time>2024-11-07T08:59:17.498Z</time>
      </trkpt>
      <trkpt lat="46.93186" lon="-1.05513">
        <ele>183.5</ele>
        <time>2024-11-07T08:59:18.232Z</time>
      </trkpt>
      <trkpt lat="46.9318" lon="-1.05526">
        <ele>183.1</ele>
        <time>2024-11-07T08:59:19.546Z</time>
      </trkpt>
      <trkpt lat="46.93169" lon="-1.05533">
        <ele>182.8</ele>
        <time>2024-11-07T08:59:21.163Z</time>
      </trkpt>
      <trkpt lat="46.93162" lon="-1.05533">
        <ele>182.4</ele>
        <time>2024-11-07T08:59:21.912Z</time>
      </trkpt>
      <trkpt lat="46.93155" lon="-1.05529">
        <ele>182.1</ele>
        <time>2024-11-07T08:59:22.816Z</time>
      </trkpt>
      <trkpt lat="46.9315" lon="-1.05523">
        <ele>182.1</ele>
        <time>2024-11-07T08:59:23.901Z</time>
      </trkpt>
      <trkpt lat="46.93116" lon="-1.05579">
        <ele>177.2</ele>
        <time>2024-11-07T08:59:29.057Z</time>
      </trkpt>
      <trkpt lat="46.93099" lon="-1.05612">
        <ele>174.5</ele>
        <time>2024-11-07T08:59:31.901Z</time>
      </trkpt>
      <trkpt lat="46.93085" lon="-1.05644">
        <ele>171.9</ele>
        <time>2024-11-07T08:59:34.516Z</time>
      </trkpt>
      <trkpt lat="46.93064" lon="-1.05715">
        <ele>170.3</ele>
        <time>2024-11-07T08:59:41.351Z</time>
      </trkpt>
      <trkpt lat="46.93053" lon="-1.05781">
        <ele>167.5</ele>
        <time>2024-11-07T08:59:46.211Z</time>
      </trkpt>
      <trkpt lat="46.93052" lon="-1.05812">
        <ele>164.5</ele>
        <time>2024-11-07T08:59:48.347Z</time>
      </trkpt>
      <trkpt lat="46.93051" lon="-1.05844">
        <ele>160.5</ele>
        <time>2024-11-07T08:59:50.551Z</time>
      </trkpt>
      <trkpt lat="46.93057" lon="-1.05909">
        <ele>160.8</ele>
        <time>2024-11-07T08:59:58.578Z</time>
      </trkpt>
      <trkpt lat="46.93064" lon="-1.05953">
        <ele>162.5</ele>
        <time>2024-11-07T09:00:08.229Z</time>
      </trkpt>
      <trkpt lat="46.93109" lon="-1.06154">
        <ele>157.5</ele>
        <time>2024-11-07T09:00:26.305Z</time>
      </trkpt>
      <trkpt lat="46.93335" lon="-1.0713">
        <ele>132.8</ele>
        <time>2024-11-07T09:01:54.053Z</time>
      </trkpt>
      <trkpt lat="46.93347" lon="-1.07172">
        <ele>130.8</ele>
        <time>2024-11-07T09:01:57.231Z</time>
      </trkpt>
      <trkpt lat="46.93365" lon="-1.0722">
        <ele>131</ele>
        <time>2024-11-07T09:02:03.844Z</time>
      </trkpt>
      <trkpt lat="46.93391" lon="-1.07276">
        <ele>132</ele>
        <time>2024-11-07T09:02:13.524Z</time>
      </trkpt>
      <trkpt lat="46.93416" lon="-1.07318">
        <ele>132.5</ele>
        <time>2024-11-07T09:02:20.803Z</time>
      </trkpt>
      <trkpt lat="46.93444" lon="-1.07357">
        <ele>133.1</ele>
        <time>2024-11-07T09:02:28.382Z</time>
      </trkpt>
      <trkpt lat="46.93484" lon="-1.07407">
        <ele>132.8</ele>
        <time>2024-11-07T09:02:36.755Z</time>
      </trkpt>
      <trkpt lat="46.93621" lon="-1.07553">
        <ele>128.1</ele>
        <time>2024-11-07T09:02:59.113Z</time>
      </trkpt>
      <trkpt lat="46.93658" lon="-1.07594">
        <ele>126.6</ele>
        <time>2024-11-07T09:03:05.021Z</time>
      </trkpt>
      <trkpt lat="46.93676" lon="-1.07618">
        <ele>126.3</ele>
        <time>2024-11-07T09:03:08.674Z</time>
      </trkpt>
      <trkpt lat="46.93703" lon="-1.07648">
        <ele>126.3</ele>
        <time>2024-11-07T09:03:14.365Z</time>
      </trkpt>
      <trkpt lat="46.93713" lon="-1.07657">
        <ele>126.7</ele>
        <time>2024-11-07T09:03:17.194Z</time>
      </trkpt>
      <trkpt lat="46.93722" lon="-1.07656">
        <ele>127</ele>
        <time>2024-11-07T09:03:19.348Z</time>
      </trkpt>
      <trkpt lat="46.9373" lon="-1.07658">
        <ele>127</ele>
        <time>2024-11-07T09:03:20.711Z</time>
      </trkpt>
      <trkpt lat="46.93738" lon="-1.07668">
        <ele>127</ele>
        <time>2024-11-07T09:03:22.477Z</time>
      </trkpt>
      <trkpt lat="46.93741" lon="-1.07675">
        <ele>127.1</ele>
        <time>2024-11-07T09:03:23.610Z</time>
      </trkpt>
      <trkpt lat="46.93743" lon="-1.07691">
        <ele>127.2</ele>
        <time>2024-11-07T09:03:25.647Z</time>
      </trkpt>
      <trkpt lat="46.9375" lon="-1.07712">
        <ele>126.4</ele>
        <time>2024-11-07T09:03:27.434Z</time>
      </trkpt>
      <trkpt lat="46.93773" lon="-1.0774">
        <ele>125.4</ele>
        <time>2024-11-07T09:03:31.210Z</time>
      </trkpt>
      <trkpt lat="46.93971" lon="-1.07929">
        <ele>126.4</ele>
        <time>2024-11-07T09:04:12.549Z</time>
      </trkpt>
      <trkpt lat="46.94014" lon="-1.07962">
        <ele>127.8</ele>
        <time>2024-11-07T09:04:23.562Z</time>
      </trkpt>
      <trkpt lat="46.94058" lon="-1.07985">
        <ele>128.1</ele>
        <time>2024-11-07T09:04:31.912Z</time>
      </trkpt>
      <trkpt lat="46.94074" lon="-1.07992">
        <ele>128.7</ele>
        <time>2024-11-07T09:04:36.026Z</time>
      </trkpt>
      <trkpt lat="46.94103" lon="-1.07999">
        <ele>129</ele>
        <time>2024-11-07T09:04:41.482Z</time>
      </trkpt>
      <trkpt lat="46.9414" lon="-1.08001">
        <ele>130</ele>
        <time>2024-11-07T09:04:49.710Z</time>
      </trkpt>
      <trkpt lat="46.9424" lon="-1.08003">
        <ele>130</ele>
        <time>2024-11-07T09:05:06.504Z</time>
      </trkpt>
      <trkpt lat="46.94509" lon="-1.08005">
        <ele>131</ele>
        <time>2024-11-07T09:05:53.320Z</time>
      </trkpt>
      <trkpt lat="46.948" lon="-1.08008">
        <ele>124.7</ele>
        <time>2024-11-07T09:06:33.656Z</time>
      </trkpt>
      <trkpt lat="46.94995" lon="-1.08006">
        <ele>123</ele>
        <time>2024-11-07T09:07:03.867Z</time>
      </trkpt>
      <trkpt lat="46.95026" lon="-1.08001">
        <ele>123</ele>
        <time>2024-11-07T09:07:09.104Z</time>
      </trkpt>
      <trkpt lat="46.95064" lon="-1.07988">
        <ele>123</ele>
        <time>2024-11-07T09:07:15.656Z</time>
      </trkpt>
      <trkpt lat="46.95113" lon="-1.07966">
        <ele>123</ele>
        <time>2024-11-07T09:07:24.262Z</time>
      </trkpt>
      <trkpt lat="46.95139" lon="-1.07942">
        <ele>123.1</ele>
        <time>2024-11-07T09:07:29.586Z</time>
      </trkpt>
      <trkpt lat="46.95142" lon="-1.07935">
        <ele>123.3</ele>
        <time>2024-11-07T09:07:30.969Z</time>
      </trkpt>
      <trkpt lat="46.95148" lon="-1.07928">
        <ele>123.4</ele>
        <time>2024-11-07T09:07:32.434Z</time>
      </trkpt>
      <trkpt lat="46.95154" lon="-1.07927">
        <ele>123.3</ele>
        <time>2024-11-07T09:07:33.308Z</time>
      </trkpt>
      <trkpt lat="46.95157" lon="-1.07927">
        <ele>123.2</ele>
        <time>2024-11-07T09:07:33.687Z</time>
      </trkpt>
      <trkpt lat="46.95162" lon="-1.07931">
        <ele>123.1</ele>
        <time>2024-11-07T09:07:34.504Z</time>
      </trkpt>
      <trkpt lat="46.95167" lon="-1.0794">
        <ele>123</ele>
        <time>2024-11-07T09:07:35.689Z</time>
      </trkpt>
      <trkpt lat="46.95168" lon="-1.07949">
        <ele>123</ele>
        <time>2024-11-07T09:07:36.735Z</time>
      </trkpt>
      <trkpt lat="46.95167" lon="-1.07958">
        <ele>123</ele>
        <time>2024-11-07T09:07:37.780Z</time>
      </trkpt>
      <trkpt lat="46.95168" lon="-1.07978">
        <ele>123</ele>
        <time>2024-11-07T09:07:40.078Z</time>
      </trkpt>
      <trkpt lat="46.95176" lon="-1.0801">
        <ele>122.4</ele>
        <time>2024-11-07T09:07:43.196Z</time>
      </trkpt>
      <trkpt lat="46.95222" lon="-1.08138">
        <ele>121</ele>
        <time>2024-11-07T09:07:57.774Z</time>
      </trkpt>
      <trkpt lat="46.95405" lon="-1.08655">
        <ele>124.7</ele>
        <time>2024-11-07T09:09:10.903Z</time>
      </trkpt>
      <trkpt lat="46.95423" lon="-1.08704">
        <ele>124.1</ele>
        <time>2024-11-07T09:09:16.433Z</time>
      </trkpt>
      <trkpt lat="46.95476" lon="-1.08855">
        <ele>123.2</ele>
        <time>2024-11-07T09:09:34.543Z</time>
      </trkpt>
      <trkpt lat="46.9551" lon="-1.0896">
        <ele>121.6</ele>
        <time>2024-11-07T09:09:45.673Z</time>
      </trkpt>
      <trkpt lat="46.9559" lon="-1.093">
        <ele>114</ele>
        <time>2024-11-07T09:10:17.261Z</time>
      </trkpt>
      <trkpt lat="46.95615" lon="-1.09414">
        <ele>113</ele>
        <time>2024-11-07T09:10:29.534Z</time>
      </trkpt>
      <trkpt lat="46.95672" lon="-1.09659">
        <ele>105.1</ele>
        <time>2024-11-07T09:10:50.075Z</time>
      </trkpt>
      <trkpt lat="46.95686" lon="-1.09723">
        <ele>103</ele>
        <time>2024-11-07T09:10:55.368Z</time>
      </trkpt>
      <trkpt lat="46.95729" lon="-1.09912">
        <ele>104</ele>
        <time>2024-11-07T09:11:19.897Z</time>
      </trkpt>
      <trkpt lat="46.95782" lon="-1.10149">
        <ele>102.1</ele>
        <time>2024-11-07T09:11:45.701Z</time>
      </trkpt>
      <trkpt lat="46.95924" lon="-1.10766">
        <ele>109</ele>
        <time>2024-11-07T09:13:12.861Z</time>
      </trkpt>
      <trkpt lat="46.95964" lon="-1.10949">
        <ele>111</ele>
        <time>2024-11-07T09:13:38.508Z</time>
      </trkpt>
      <trkpt lat="46.95971" lon="-1.10979">
        <ele>111</ele>
        <time>2024-11-07T09:13:42.142Z</time>
      </trkpt>
      <trkpt lat="46.95988" lon="-1.11056">
        <ele>111.4</ele>
        <time>2024-11-07T09:13:52.094Z</time>
      </trkpt>
      <trkpt lat="46.96008" lon="-1.11142">
        <ele>111</ele>
        <time>2024-11-07T09:14:01.900Z</time>
      </trkpt>
      <trkpt lat="46.9601" lon="-1.11154">
        <ele>111</ele>
        <time>2024-11-07T09:14:03.316Z</time>
      </trkpt>
      <trkpt lat="46.96012" lon="-1.11154">
        <ele>111</ele>
        <time>2024-11-07T09:14:03.651Z</time>
      </trkpt>
      <trkpt lat="46.96016" lon="-1.11159">
        <ele>111</ele>
        <time>2024-11-07T09:14:04.534Z</time>
      </trkpt>
      <trkpt lat="46.96016" lon="-1.11164">
        <ele>111</ele>
        <time>2024-11-07T09:14:05.107Z</time>
      </trkpt>
      <trkpt lat="46.96013" lon="-1.11168">
        <ele>111</ele>
        <time>2024-11-07T09:14:05.788Z</time>
      </trkpt>
      <trkpt lat="46.96016" lon="-1.1118">
        <ele>111</ele>
        <time>2024-11-07T09:14:07.253Z</time>
      </trkpt>
      <trkpt lat="46.96031" lon="-1.11237">
        <ele>111</ele>
        <time>2024-11-07T09:14:14.254Z</time>
      </trkpt>
      <trkpt lat="46.96062" lon="-1.11346">
        <ele>110.1</ele>
        <time>2024-11-07T09:14:26.471Z</time>
      </trkpt>
      <trkpt lat="46.96065" lon="-1.11353">
        <ele>110.1</ele>
        <time>2024-11-07T09:14:27.418Z</time>
      </trkpt>
      <trkpt lat="46.9607" lon="-1.11369">
        <ele>110</ele>
        <time>2024-11-07T09:14:29.285Z</time>
      </trkpt>
      <trkpt lat="46.96076" lon="-1.11387">
        <ele>110</ele>
        <time>2024-11-07T09:14:31.581Z</time>
      </trkpt>
      <trkpt lat="46.96097" lon="-1.11436">
        <ele>109.7</ele>
        <time>2024-11-07T09:14:37.761Z</time>
      </trkpt>
      <trkpt lat="46.96124" lon="-1.11491">
        <ele>109</ele>
        <time>2024-11-07T09:14:44.531Z</time>
      </trkpt>
      <trkpt lat="46.96143" lon="-1.11523">
        <ele>109</ele>
        <time>2024-11-07T09:14:49.392Z</time>
      </trkpt>
      <trkpt lat="46.96146" lon="-1.1152">
        <ele>109</ele>
        <time>2024-11-07T09:14:50.002Z</time>
      </trkpt>
      <trkpt lat="46.96151" lon="-1.11523">
        <ele>109</ele>
        <time>2024-11-07T09:14:50.909Z</time>
      </trkpt>
      <trkpt lat="46.96152" lon="-1.1153">
        <ele>109</ele>
        <time>2024-11-07T09:14:51.729Z</time>
      </trkpt>
      <trkpt lat="46.9615" lon="-1.11534">
        <ele>108.9</ele>
        <time>2024-11-07T09:14:52.169Z</time>
      </trkpt>
      <trkpt lat="46.96154" lon="-1.11544">
        <ele>108.7</ele>
        <time>2024-11-07T09:14:53.233Z</time>
      </trkpt>
      <trkpt lat="46.96212" lon="-1.11643">
        <ele>108</ele>
        <time>2024-11-07T09:15:07.135Z</time>
      </trkpt>
      <trkpt lat="46.96235" lon="-1.11682">
        <ele>107.4</ele>
        <time>2024-11-07T09:15:12.202Z</time>
      </trkpt>
      <trkpt lat="46.9625" lon="-1.11707">
        <ele>107</ele>
        <time>2024-11-07T09:15:15.459Z</time>
      </trkpt>
      <trkpt lat="46.96264" lon="-1.11732">
        <ele>107</ele>
        <time>2024-11-07T09:15:19.165Z</time>
      </trkpt>
      <trkpt lat="46.96279" lon="-1.11757">
        <ele>107</ele>
        <time>2024-11-07T09:15:22.980Z</time>
      </trkpt>
      <trkpt lat="46.96316" lon="-1.11819">
        <ele>107.4</ele>
        <time>2024-11-07T09:15:33.095Z</time>
      </trkpt>
      <trkpt lat="46.96341" lon="-1.11823">
        <ele>108.3</ele>
        <time>2024-11-07T09:15:39.281Z</time>
      </trkpt>
      <trkpt lat="46.96349" lon="-1.11825">
        <ele>108.6</ele>
        <time>2024-11-07T09:15:41.305Z</time>
      </trkpt>
      <trkpt lat="46.96355" lon="-1.11827">
        <ele>108.8</ele>
        <time>2024-11-07T09:15:42.761Z</time>
      </trkpt>
      <trkpt lat="46.9636" lon="-1.11833">
        <ele>109</ele>
        <time>2024-11-07T09:15:44.263Z</time>
      </trkpt>
      <trkpt lat="46.96364" lon="-1.11838">
        <ele>109.1</ele>
        <time>2024-11-07T09:15:45.333Z</time>
      </trkpt>
      <trkpt lat="46.96383" lon="-1.11847">
        <ele>109.8</ele>
        <time>2024-11-07T09:15:50.202Z</time>
      </trkpt>
      <trkpt lat="46.96395" lon="-1.11893">
        <ele>110.2</ele>
        <time>2024-11-07T09:15:56.550Z</time>
      </trkpt>
      <trkpt lat="46.96403" lon="-1.1194">
        <ele>110.1</ele>
        <time>2024-11-07T09:16:01.945Z</time>
      </trkpt>
      <trkpt lat="46.96444" lon="-1.11918">
        <ele>111</ele>
        <time>2024-11-07T09:16:10.986Z</time>
      </trkpt>
      <trkpt lat="46.9645" lon="-1.11914">
        <ele>111</ele>
        <time>2024-11-07T09:16:12.093Z</time>
      </trkpt>
      <trkpt lat="46.96492" lon="-1.11882">
        <ele>110.5</ele>
        <time>2024-11-07T09:16:19.307Z</time>
      </trkpt>
      <trkpt lat="46.96533" lon="-1.11937">
        <ele>110.1</ele>
        <time>2024-11-07T09:16:28.038Z</time>
      </trkpt>
      <trkpt lat="46.96574" lon="-1.11987">
        <ele>108</ele>
        <time>2024-11-07T09:16:34.481Z</time>
      </trkpt>
      <trkpt lat="46.96604" lon="-1.12025">
        <ele>106.3</ele>
        <time>2024-11-07T09:16:39.152Z</time>
      </trkpt>
      <trkpt lat="46.96611" lon="-1.12034">
        <ele>106</ele>
        <time>2024-11-07T09:16:40.339Z</time>
      </trkpt>
      <trkpt lat="46.96658" lon="-1.12092">
        <ele>105</ele>
        <time>2024-11-07T09:16:49.249Z</time>
      </trkpt>
      <trkpt lat="46.96677" lon="-1.12114">
        <ele>104.6</ele>
        <time>2024-11-07T09:16:52.753Z</time>
      </trkpt>
      <trkpt lat="46.96727" lon="-1.12178">
        <ele>103.5</ele>
        <time>2024-11-07T09:17:02.355Z</time>
      </trkpt>
      <trkpt lat="46.96746" lon="-1.12212">
        <ele>103</ele>
        <time>2024-11-07T09:17:06.689Z</time>
      </trkpt>
      <trkpt lat="46.96754" lon="-1.12223">
        <ele>103</ele>
        <time>2024-11-07T09:17:08.531Z</time>
      </trkpt>
      <trkpt lat="46.96769" lon="-1.1225">
        <ele>103</ele>
        <time>2024-11-07T09:17:12.521Z</time>
      </trkpt>
      <trkpt lat="46.96771" lon="-1.12246">
        <ele>103</ele>
        <time>2024-11-07T09:17:13.089Z</time>
      </trkpt>
      <trkpt lat="46.96776" lon="-1.12242">
        <ele>103</ele>
        <time>2024-11-07T09:17:14.045Z</time>
      </trkpt>
      <trkpt lat="46.96782" lon="-1.12244">
        <ele>103</ele>
        <time>2024-11-07T09:17:15.079Z</time>
      </trkpt>
      <trkpt lat="46.96787" lon="-1.12251">
        <ele>103</ele>
        <time>2024-11-07T09:17:16.240Z</time>
      </trkpt>
      <trkpt lat="46.96787" lon="-1.12261">
        <ele>102.6</ele>
        <time>2024-11-07T09:17:16.963Z</time>
      </trkpt>
      <trkpt lat="46.96785" lon="-1.12265">
        <ele>102.5</ele>
        <time>2024-11-07T09:17:17.403Z</time>
      </trkpt>
      <trkpt lat="46.96781" lon="-1.1227">
        <ele>102.3</ele>
        <time>2024-11-07T09:17:18.044Z</time>
      </trkpt>
      <trkpt lat="46.96773" lon="-1.12269">
        <ele>102.4</ele>
        <time>2024-11-07T09:17:19.570Z</time>
      </trkpt>
      <trkpt lat="46.96771" lon="-1.12283">
        <ele>102.2</ele>
        <time>2024-11-07T09:17:20.936Z</time>
      </trkpt>
      <trkpt lat="46.96777" lon="-1.12326">
        <ele>102</ele>
        <time>2024-11-07T09:17:25.662Z</time>
      </trkpt>
      <trkpt lat="46.96777" lon="-1.12343">
        <ele>101.7</ele>
        <time>2024-11-07T09:17:27.216Z</time>
      </trkpt>
      <trkpt lat="46.96771" lon="-1.12394">
        <ele>101</ele>
        <time>2024-11-07T09:17:32.186Z</time>
      </trkpt>
      <trkpt lat="46.96767" lon="-1.1243">
        <ele>101</ele>
        <time>2024-11-07T09:17:36.365Z</time>
      </trkpt>
      <trkpt lat="46.96766" lon="-1.12453">
        <ele>101</ele>
        <time>2024-11-07T09:17:39.006Z</time>
      </trkpt>
      <trkpt lat="46.96768" lon="-1.12474">
        <ele>101</ele>
        <time>2024-11-07T09:17:41.436Z</time>
      </trkpt>
      <trkpt lat="46.96792" lon="-1.12611">
        <ele>100</ele>
        <time>2024-11-07T09:17:56.171Z</time>
      </trkpt>
      <trkpt lat="46.96801" lon="-1.12664">
        <ele>99.9</ele>
        <time>2024-11-07T09:18:02.274Z</time>
      </trkpt>
      <trkpt lat="46.96835" lon="-1.12872">
        <ele>97.6</ele>
        <time>2024-11-07T09:18:23.531Z</time>
      </trkpt>
      <trkpt lat="46.96845" lon="-1.12916">
        <ele>98</ele>
        <time>2024-11-07T09:18:29.554Z</time>
      </trkpt>
      <trkpt lat="46.96849" lon="-1.1294">
        <ele>98</ele>
        <time>2024-11-07T09:18:32.385Z</time>
      </trkpt>
      <trkpt lat="46.96855" lon="-1.12961">
        <ele>97.5</ele>
        <time>2024-11-07T09:18:34.365Z</time>
      </trkpt>
      <trkpt lat="46.96876" lon="-1.13072">
        <ele>97</ele>
        <time>2024-11-07T09:18:46.805Z</time>
      </trkpt>
      <trkpt lat="46.96895" lon="-1.13201">
        <ele>97</ele>
        <time>2024-11-07T09:19:01.927Z</time>
      </trkpt>
      <trkpt lat="46.96897" lon="-1.13312">
        <ele>97</ele>
        <time>2024-11-07T09:19:14.651Z</time>
      </trkpt>
      <trkpt lat="46.969" lon="-1.13336">
        <ele>97.1</ele>
        <time>2024-11-07T09:19:17.615Z</time>
      </trkpt>
      <trkpt lat="46.96903" lon="-1.1335">
        <ele>97.3</ele>
        <time>2024-11-07T09:19:19.674Z</time>
      </trkpt>
      <trkpt lat="46.96908" lon="-1.13362">
        <ele>97.3</ele>
        <time>2024-11-07T09:19:21.285Z</time>
      </trkpt>
      <trkpt lat="46.96924" lon="-1.13398">
        <ele>97.5</ele>
        <time>2024-11-07T09:19:26.545Z</time>
      </trkpt>
      <trkpt lat="46.96956" lon="-1.13458">
        <ele>98</ele>
        <time>2024-11-07T09:19:36.135Z</time>
      </trkpt>
      <trkpt lat="46.96992" lon="-1.1352">
        <ele>98.7</ele>
        <time>2024-11-07T09:19:46.703Z</time>
      </trkpt>
      <trkpt lat="46.97002" lon="-1.13541">
        <ele>99</ele>
        <time>2024-11-07T09:19:50.190Z</time>
      </trkpt>
      <trkpt lat="46.97014" lon="-1.13574">
        <ele>99</ele>
        <time>2024-11-07T09:19:54.475Z</time>
      </trkpt>
      <trkpt lat="46.97029" lon="-1.13604">
        <ele>99</ele>
        <time>2024-11-07T09:19:58.737Z</time>
      </trkpt>
      <trkpt lat="46.97043" lon="-1.13637">
        <ele>99</ele>
        <time>2024-11-07T09:20:03.189Z</time>
      </trkpt>
      <trkpt lat="46.97061" lon="-1.13684">
        <ele>99</ele>
        <time>2024-11-07T09:20:09.365Z</time>
      </trkpt>
      <trkpt lat="46.97119" lon="-1.13844">
        <ele>98.8</ele>
        <time>2024-11-07T09:20:29.809Z</time>
      </trkpt>
      <trkpt lat="46.97126" lon="-1.13868">
        <ele>99</ele>
        <time>2024-11-07T09:20:33.150Z</time>
      </trkpt>
      <trkpt lat="46.97162" lon="-1.14024">
        <ele>98</ele>
        <time>2024-11-07T09:20:50.531Z</time>
      </trkpt>
      <trkpt lat="46.97169" lon="-1.14074">
        <ele>97.9</ele>
        <time>2024-11-07T09:20:56.223Z</time>
      </trkpt>
      <trkpt lat="46.97176" lon="-1.14802">
        <ele>95</ele>
        <time>2024-11-07T09:22:15.225Z</time>
      </trkpt>
      <trkpt lat="46.97179" lon="-1.14865">
        <ele>95.6</ele>
        <time>2024-11-07T09:22:23.536Z</time>
      </trkpt>
      <trkpt lat="46.97182" lon="-1.14886">
        <ele>95.4</ele>
        <time>2024-11-07T09:22:25.707Z</time>
      </trkpt>
      <trkpt lat="46.97192" lon="-1.14918">
        <ele>95</ele>
        <time>2024-11-07T09:22:29.179Z</time>
      </trkpt>
      <trkpt lat="46.97198" lon="-1.14927">
        <ele>95</ele>
        <time>2024-11-07T09:22:30.620Z</time>
      </trkpt>
      <trkpt lat="46.97203" lon="-1.14936">
        <ele>95</ele>
        <time>2024-11-07T09:22:31.950Z</time>
      </trkpt>
      <trkpt lat="46.97216" lon="-1.1495">
        <ele>95</ele>
        <time>2024-11-07T09:22:34.659Z</time>
      </trkpt>
      <trkpt lat="46.97257" lon="-1.14969">
        <ele>94</ele>
        <time>2024-11-07T09:22:40.541Z</time>
      </trkpt>
      <trkpt lat="46.97314" lon="-1.1499">
        <ele>94</ele>
        <time>2024-11-07T09:22:50.411Z</time>
      </trkpt>
      <trkpt lat="46.97571" lon="-1.15091">
        <ele>92</ele>
        <time>2024-11-07T09:23:32.081Z</time>
      </trkpt>
      <trkpt lat="46.97618" lon="-1.15112">
        <ele>91.7</ele>
        <time>2024-11-07T09:23:39.875Z</time>
      </trkpt>
      <trkpt lat="46.97641" lon="-1.15126">
        <ele>91</ele>
        <time>2024-11-07T09:23:43.152Z</time>
      </trkpt>
      <trkpt lat="46.97659" lon="-1.15139">
        <ele>91</ele>
        <time>2024-11-07T09:23:46.522Z</time>
      </trkpt>
      <trkpt lat="46.97725" lon="-1.15206">
        <ele>91.1</ele>
        <time>2024-11-07T09:24:00.165Z</time>
      </trkpt>
      <trkpt lat="46.97771" lon="-1.15264">
        <ele>92</ele>
        <time>2024-11-07T09:24:11.979Z</time>
      </trkpt>
      <trkpt lat="46.97785" lon="-1.1529">
        <ele>92</ele>
        <time>2024-11-07T09:24:15.774Z</time>
      </trkpt>
      <trkpt lat="46.978" lon="-1.15337">
        <ele>92</ele>
        <time>2024-11-07T09:24:21.718Z</time>
      </trkpt>
      <trkpt lat="46.9781" lon="-1.15383">
        <ele>92</ele>
        <time>2024-11-07T09:24:27.250Z</time>
      </trkpt>
      <trkpt lat="46.97828" lon="-1.1549">
        <ele>91.3</ele>
        <time>2024-11-07T09:24:38.836Z</time>
      </trkpt>
      <trkpt lat="46.97843" lon="-1.15562">
        <ele>91.1</ele>
        <time>2024-11-07T09:24:47.152Z</time>
      </trkpt>
      <trkpt lat="46.97874" lon="-1.15697">
        <ele>91.5</ele>
        <time>2024-11-07T09:25:04.131Z</time>
      </trkpt>
      <trkpt lat="46.97889" lon="-1.15764">
        <ele>92</ele>
        <time>2024-11-07T09:25:13.079Z</time>
      </trkpt>
      <trkpt lat="46.97908" lon="-1.1583">
        <ele>92.7</ele>
        <time>2024-11-07T09:25:22.545Z</time>
      </trkpt>
      <trkpt lat="46.97913" lon="-1.15851">
        <ele>92.9</ele>
        <time>2024-11-07T09:25:25.449Z</time>
      </trkpt>
      <trkpt lat="46.97916" lon="-1.15876">
        <ele>92.5</ele>
        <time>2024-11-07T09:25:27.821Z</time>
      </trkpt>
      <trkpt lat="46.97917" lon="-1.15903">
        <ele>92</ele>
        <time>2024-11-07T09:25:30.268Z</time>
      </trkpt>
      <trkpt lat="46.97914" lon="-1.1593">
        <ele>91.5</ele>
        <time>2024-11-07T09:25:32.749Z</time>
      </trkpt>
      <trkpt lat="46.97893" lon="-1.16057">
        <ele>91.1</ele>
        <time>2024-11-07T09:25:47.104Z</time>
      </trkpt>
      <trkpt lat="46.97879" lon="-1.16138">
        <ele>91.6</ele>
        <time>2024-11-07T09:25:57.535Z</time>
      </trkpt>
      <trkpt lat="46.97853" lon="-1.16269">
        <ele>90</ele>
        <time>2024-11-07T09:26:10.927Z</time>
      </trkpt>
      <trkpt lat="46.97851" lon="-1.16285">
        <ele>90.2</ele>
        <time>2024-11-07T09:26:13.162Z</time>
      </trkpt>
      <trkpt lat="46.97849" lon="-1.1632">
        <ele>90.6</ele>
        <time>2024-11-07T09:26:17.920Z</time>
      </trkpt>
      <trkpt lat="46.97851" lon="-1.16339">
        <ele>90.6</ele>
        <time>2024-11-07T09:26:20.122Z</time>
      </trkpt>
      <trkpt lat="46.97861" lon="-1.16363">
        <ele>91</ele>
        <time>2024-11-07T09:26:24.105Z</time>
      </trkpt>
      <trkpt lat="46.97885" lon="-1.16413">
        <ele>91</ele>
        <time>2024-11-07T09:26:31.109Z</time>
      </trkpt>
      <trkpt lat="46.97927" lon="-1.1649">
        <ele>90.8</ele>
        <time>2024-11-07T09:26:42.092Z</time>
      </trkpt>
      <trkpt lat="46.97942" lon="-1.16511">
        <ele>90.1</ele>
        <time>2024-11-07T09:26:44.704Z</time>
      </trkpt>
      <trkpt lat="46.98086" lon="-1.16677">
        <ele>88.3</ele>
        <time>2024-11-07T09:27:12.806Z</time>
      </trkpt>
      <trkpt lat="46.9811" lon="-1.16709">
        <ele>88</ele>
        <time>2024-11-07T09:27:17.809Z</time>
      </trkpt>
      <trkpt lat="46.98167" lon="-1.16799">
        <ele>87</ele>
        <time>2024-11-07T09:27:30.422Z</time>
      </trkpt>
      <trkpt lat="46.98245" lon="-1.16917">
        <ele>87</ele>
        <time>2024-11-07T09:27:49.245Z</time>
      </trkpt>
      <trkpt lat="46.98236" lon="-1.16948">
        <ele>87.5</ele>
        <time>2024-11-07T09:27:54.063Z</time>
      </trkpt>
      <trkpt lat="46.98212" lon="-1.17013">
        <ele>88</ele>
        <time>2024-11-07T09:28:03.396Z</time>
      </trkpt>
      <trkpt lat="46.98195" lon="-1.17057">
        <ele>88</ele>
        <time>2024-11-07T09:28:09.189Z</time>
      </trkpt>
      <trkpt lat="46.98161" lon="-1.17118">
        <ele>88.2</ele>
        <time>2024-11-07T09:28:18.542Z</time>
      </trkpt>
      <trkpt lat="46.98145" lon="-1.17145">
        <ele>88</ele>
        <time>2024-11-07T09:28:22.340Z</time>
      </trkpt>
      <trkpt lat="46.9813" lon="-1.17176">
        <ele>88</ele>
        <time>2024-11-07T09:28:26.694Z</time>
      </trkpt>
      <trkpt lat="46.98091" lon="-1.17257">
        <ele>86.2</ele>
        <time>2024-11-07T09:28:35.699Z</time>
      </trkpt>
      <trkpt lat="46.98076" lon="-1.17287">
        <ele>85.5</ele>
        <time>2024-11-07T09:28:39.052Z</time>
      </trkpt>
      <trkpt lat="46.98052" lon="-1.17337">
        <ele>83.9</ele>
        <time>2024-11-07T09:28:44.128Z</time>
      </trkpt>
      <trkpt lat="46.98038" lon="-1.17366">
        <ele>83.2</ele>
        <time>2024-11-07T09:28:47.298Z</time>
      </trkpt>
      <trkpt lat="46.98019" lon="-1.17398">
        <ele>81.7</ele>
        <time>2024-11-07T09:28:50.503Z</time>
      </trkpt>
      <trkpt lat="46.97997" lon="-1.17429">
        <ele>81</ele>
        <time>2024-11-07T09:28:54.688Z</time>
      </trkpt>
      <trkpt lat="46.97965" lon="-1.17453">
        <ele>80.8</ele>
        <time>2024-11-07T09:29:00.419Z</time>
      </trkpt>
      <trkpt lat="46.97956" lon="-1.17462">
        <ele>80.7</ele>
        <time>2024-11-07T09:29:02.100Z</time>
      </trkpt>
      <trkpt lat="46.97945" lon="-1.17476">
        <ele>81</ele>
        <time>2024-11-07T09:29:05.115Z</time>
      </trkpt>
      <trkpt lat="46.97911" lon="-1.17542">
        <ele>82.2</ele>
        <time>2024-11-07T09:29:16.882Z</time>
      </trkpt>
      <trkpt lat="46.97862" lon="-1.17631">
        <ele>84</ele>
        <time>2024-11-07T09:29:33.477Z</time>
      </trkpt>
      <trkpt lat="46.97748" lon="-1.17734">
        <ele>87.1</ele>
        <time>2024-11-07T09:30:01.985Z</time>
      </trkpt>
      <trkpt lat="46.97698" lon="-1.17785">
        <ele>88</ele>
        <time>2024-11-07T09:30:13.839Z</time>
      </trkpt>
      <trkpt lat="46.9767" lon="-1.17818">
        <ele>88</ele>
        <time>2024-11-07T09:30:19.872Z</time>
      </trkpt>
      <trkpt lat="46.97656" lon="-1.1784">
        <ele>87.9</ele>
        <time>2024-11-07T09:30:23.165Z</time>
      </trkpt>
      <trkpt lat="46.97649" lon="-1.17858">
        <ele>87.4</ele>
        <time>2024-11-07T09:30:24.924Z</time>
      </trkpt>
      <trkpt lat="46.97643" lon="-1.17883">
        <ele>87</ele>
        <time>2024-11-07T09:30:27.421Z</time>
      </trkpt>
      <trkpt lat="46.97631" lon="-1.17888">
        <ele>87.3</ele>
        <time>2024-11-07T09:30:30.103Z</time>
      </trkpt>
      <trkpt lat="46.97488" lon="-1.18034">
        <ele>86.5</ele>
        <time>2024-11-07T09:30:58.136Z</time>
      </trkpt>
      <trkpt lat="46.97293" lon="-1.18165">
        <ele>86</ele>
        <time>2024-11-07T09:31:33.373Z</time>
      </trkpt>
      <trkpt lat="46.97255" lon="-1.18195">
        <ele>85.2</ele>
        <time>2024-11-07T09:31:39.513Z</time>
      </trkpt>
      <trkpt lat="46.97228" lon="-1.18229">
        <ele>86</ele>
        <time>2024-11-07T09:31:47.035Z</time>
      </trkpt>
      <trkpt lat="46.97216" lon="-1.18244">
        <ele>86</ele>
        <time>2024-11-07T09:31:49.683Z</time>
      </trkpt>
      <trkpt lat="46.9714" lon="-1.18336">
        <ele>84</ele>
        <time>2024-11-07T09:32:03.501Z</time>
      </trkpt>
      <trkpt lat="46.97123" lon="-1.18356">
        <ele>84</ele>
        <time>2024-11-07T09:32:07.162Z</time>
      </trkpt>
      <trkpt lat="46.97061" lon="-1.18494">
        <ele>86.6</ele>
        <time>2024-11-07T09:32:31.139Z</time>
      </trkpt>
      <trkpt lat="46.96933" lon="-1.18645">
        <ele>87</ele>
        <time>2024-11-07T09:32:59.383Z</time>
      </trkpt>
      <trkpt lat="46.96869" lon="-1.18725">
        <ele>87</ele>
        <time>2024-11-07T09:33:13.509Z</time>
      </trkpt>
      <trkpt lat="46.9678" lon="-1.18898">
        <ele>87</ele>
        <time>2024-11-07T09:33:38.335Z</time>
      </trkpt>
      <trkpt lat="46.96762" lon="-1.18902">
        <ele>87</ele>
        <time>2024-11-07T09:33:41.392Z</time>
      </trkpt>
      <trkpt lat="46.96692" lon="-1.18865">
        <ele>87</ele>
        <time>2024-11-07T09:33:53.888Z</time>
      </trkpt>
      <trkpt lat="46.96676" lon="-1.18866">
        <ele>87</ele>
        <time>2024-11-07T09:33:56.577Z</time>
      </trkpt>
      <trkpt lat="46.96554" lon="-1.18904">
        <ele>86</ele>
        <time>2024-11-07T09:34:16.022Z</time>
      </trkpt>
      <trkpt lat="46.96525" lon="-1.1892">
        <ele>85.8</ele>
        <time>2024-11-07T09:34:20.922Z</time>
      </trkpt>
      <trkpt lat="46.96517" lon="-1.18925">
        <ele>85.4</ele>
        <time>2024-11-07T09:34:21.924Z</time>
      </trkpt>
      <trkpt lat="46.96489" lon="-1.18966">
        <ele>85</ele>
        <time>2024-11-07T09:34:27.981Z</time>
      </trkpt>
      <trkpt lat="46.96458" lon="-1.19058">
        <ele>84</ele>
        <time>2024-11-07T09:34:38.309Z</time>
      </trkpt>
      <trkpt lat="46.96442" lon="-1.1911">
        <ele>84.9</ele>
        <time>2024-11-07T09:34:46.593Z</time>
      </trkpt>
      <trkpt lat="46.96415" lon="-1.19148">
        <ele>84</ele>
        <time>2024-11-07T09:34:51.682Z</time>
      </trkpt>
      <trkpt lat="46.96357" lon="-1.192">
        <ele>81.7</ele>
        <time>2024-11-07T09:35:00.242Z</time>
      </trkpt>
      <trkpt lat="46.96353" lon="-1.19203">
        <ele>81.5</ele>
        <time>2024-11-07T09:35:00.765Z</time>
      </trkpt>
      <trkpt lat="46.96287" lon="-1.19238">
        <ele>81.7</ele>
        <time>2024-11-07T09:35:12.878Z</time>
      </trkpt>
      <trkpt lat="46.96258" lon="-1.19264">
        <ele>82.4</ele>
        <time>2024-11-07T09:35:19.916Z</time>
      </trkpt>
      <trkpt lat="46.96188" lon="-1.19305">
        <ele>82</ele>
        <time>2024-11-07T09:35:31.962Z</time>
      </trkpt>
      <trkpt lat="46.96104" lon="-1.19325">
        <ele>81.3</ele>
        <time>2024-11-07T09:35:45.205Z</time>
      </trkpt>
      <trkpt lat="46.96003" lon="-1.19324">
        <ele>83</ele>
        <time>2024-11-07T09:36:05.288Z</time>
      </trkpt>
      <trkpt lat="46.95902" lon="-1.19294">
        <ele>85</ele>
        <time>2024-11-07T09:36:26.351Z</time>
      </trkpt>
      <trkpt lat="46.95898" lon="-1.19293">
        <ele>85</ele>
        <time>2024-11-07T09:36:27.032Z</time>
      </trkpt>
      <trkpt lat="46.95857" lon="-1.19281">
        <ele>85</ele>
        <time>2024-11-07T09:36:34.053Z</time>
      </trkpt>
      <trkpt lat="46.95849" lon="-1.19283">
        <ele>85</ele>
        <time>2024-11-07T09:36:35.416Z</time>
      </trkpt>
      <trkpt lat="46.95846" lon="-1.19287">
        <ele>85</ele>
        <time>2024-11-07T09:36:36.097Z</time>
      </trkpt>
      <trkpt lat="46.95818" lon="-1.19253">
        <ele>86</ele>
        <time>2024-11-07T09:36:44.223Z</time>
      </trkpt>
      <trkpt lat="46.95792" lon="-1.19232">
        <ele>86</ele>
        <time>2024-11-07T09:36:49.209Z</time>
      </trkpt>
      <trkpt lat="46.95761" lon="-1.19209">
        <ele>86</ele>
        <time>2024-11-07T09:36:55.044Z</time>
      </trkpt>
      <trkpt lat="46.95714" lon="-1.19183">
        <ele>86</ele>
        <time>2024-11-07T09:37:03.480Z</time>
      </trkpt>
      <trkpt lat="46.95669" lon="-1.19166">
        <ele>86</ele>
        <time>2024-11-07T09:37:11.283Z</time>
      </trkpt>
      <trkpt lat="46.95639" lon="-1.19162">
        <ele>85</ele>
        <time>2024-11-07T09:37:15.094Z</time>
      </trkpt>
      <trkpt lat="46.95516" lon="-1.19185">
        <ele>83</ele>
        <time>2024-11-07T09:37:33.096Z</time>
      </trkpt>
      <trkpt lat="46.95471" lon="-1.1919">
        <ele>83</ele>
        <time>2024-11-07T09:37:40.674Z</time>
      </trkpt>
      <trkpt lat="46.95447" lon="-1.19193">
        <ele>83</ele>
        <time>2024-11-07T09:37:44.719Z</time>
      </trkpt>
      <trkpt lat="46.95399" lon="-1.19191">
        <ele>82.9</ele>
        <time>2024-11-07T09:37:52.625Z</time>
      </trkpt>
      <trkpt lat="46.95394" lon="-1.1919">
        <ele>82.8</ele>
        <time>2024-11-07T09:37:53.335Z</time>
      </trkpt>
      <trkpt lat="46.95323" lon="-1.19186">
        <ele>82.4</ele>
        <time>2024-11-07T09:38:04.655Z</time>
      </trkpt>
      <trkpt lat="46.95315" lon="-1.19184">
        <ele>82.7</ele>
        <time>2024-11-07T09:38:06.680Z</time>
      </trkpt>
      <trkpt lat="46.95292" lon="-1.19176">
        <ele>83</ele>
        <time>2024-11-07T09:38:11.181Z</time>
      </trkpt>
      <trkpt lat="46.95279" lon="-1.19178">
        <ele>83</ele>
        <time>2024-11-07T09:38:13.376Z</time>
      </trkpt>
      <trkpt lat="46.95268" lon="-1.19182">
        <ele>82.6</ele>
        <time>2024-11-07T09:38:14.787Z</time>
      </trkpt>
      <trkpt lat="46.95244" lon="-1.19193">
        <ele>82</ele>
        <time>2024-11-07T09:38:18.210Z</time>
      </trkpt>
      <trkpt lat="46.95177" lon="-1.19224">
        <ele>81</ele>
        <time>2024-11-07T09:38:28.579Z</time>
      </trkpt>
      <trkpt lat="46.95166" lon="-1.19226">
        <ele>81</ele>
        <time>2024-11-07T09:38:30.440Z</time>
      </trkpt>
      <trkpt lat="46.95153" lon="-1.19226">
        <ele>81</ele>
        <time>2024-11-07T09:38:32.623Z</time>
      </trkpt>
      <trkpt lat="46.95136" lon="-1.19222">
        <ele>81</ele>
        <time>2024-11-07T09:38:35.514Z</time>
      </trkpt>
      <trkpt lat="46.95128" lon="-1.19221">
        <ele>81</ele>
        <time>2024-11-07T09:38:36.862Z</time>
      </trkpt>
      <trkpt lat="46.95121" lon="-1.19219">
        <ele>80.9</ele>
        <time>2024-11-07T09:38:37.917Z</time>
      </trkpt>
      <trkpt lat="46.95108" lon="-1.19211">
        <ele>80.6</ele>
        <time>2024-11-07T09:38:39.877Z</time>
      </trkpt>
      <trkpt lat="46.95076" lon="-1.19182">
        <ele>80.1</ele>
        <time>2024-11-07T09:38:45.476Z</time>
      </trkpt>
      <trkpt lat="46.95075" lon="-1.19187">
        <ele>80.2</ele>
        <time>2024-11-07T09:38:46.276Z</time>
      </trkpt>
      <trkpt lat="46.95071" lon="-1.19193">
        <ele>80.4</ele>
        <time>2024-11-07T09:38:47.670Z</time>
      </trkpt>
      <trkpt lat="46.95028" lon="-1.1924">
        <ele>81</ele>
        <time>2024-11-07T09:38:57.729Z</time>
      </trkpt>
      <trkpt lat="46.94984" lon="-1.19276">
        <ele>80.4</ele>
        <time>2024-11-07T09:39:05.319Z</time>
      </trkpt>
      <trkpt lat="46.94901" lon="-1.19343">
        <ele>78.1</ele>
        <time>2024-11-07T09:39:18.176Z</time>
      </trkpt>
      <trkpt lat="46.94882" lon="-1.19354">
        <ele>76.9</ele>
        <time>2024-11-07T09:39:20.339Z</time>
      </trkpt>
      <trkpt lat="46.94817" lon="-1.19379">
        <ele>76.4</ele>
        <time>2024-11-07T09:39:30.871Z</time>
      </trkpt>
      <trkpt lat="46.94817" lon="-1.19392">
        <ele>76.6</ele>
        <time>2024-11-07T09:39:32.747Z</time>
      </trkpt>
      <trkpt lat="46.94812" lon="-1.19477">
        <ele>78.1</ele>
        <time>2024-11-07T09:39:45.509Z</time>
      </trkpt>
      <trkpt lat="46.94819" lon="-1.19482">
        <ele>78.2</ele>
        <time>2024-11-07T09:39:46.994Z</time>
      </trkpt>
      <trkpt lat="46.94821" lon="-1.19495">
        <ele>78.4</ele>
        <time>2024-11-07T09:39:48.906Z</time>
      </trkpt>
      <trkpt lat="46.94817" lon="-1.19502">
        <ele>78.6</ele>
        <time>2024-11-07T09:39:50.374Z</time>
      </trkpt>
      <trkpt lat="46.94812" lon="-1.19504">
        <ele>78.8</ele>
        <time>2024-11-07T09:39:51.692Z</time>
      </trkpt>
      <trkpt lat="46.94805" lon="-1.195">
        <ele>79</ele>
        <time>2024-11-07T09:39:53.355Z</time>
      </trkpt>
      <trkpt lat="46.94797" lon="-1.19516">
        <ele>79</ele>
        <time>2024-11-07T09:39:55.628Z</time>
      </trkpt>
      <trkpt lat="46.9477" lon="-1.19634">
        <ele>80</ele>
        <time>2024-11-07T09:40:11.654Z</time>
      </trkpt>
      <trkpt lat="46.94734" lon="-1.19797">
        <ele>80.8</ele>
        <time>2024-11-07T09:40:32.643Z</time>
      </trkpt>
      <trkpt lat="46.94731" lon="-1.19815">
        <ele>81</ele>
        <time>2024-11-07T09:40:35.131Z</time>
      </trkpt>
      <trkpt lat="46.94728" lon="-1.19834">
        <ele>81</ele>
        <time>2024-11-07T09:40:37.367Z</time>
      </trkpt>
      <trkpt lat="46.9472" lon="-1.19885">
        <ele>81.9</ele>
        <time>2024-11-07T09:40:45.145Z</time>
      </trkpt>
      <trkpt lat="46.94707" lon="-1.19938">
        <ele>81</ele>
        <time>2024-11-07T09:40:50.398Z</time>
      </trkpt>
      <trkpt lat="46.94695" lon="-1.19994">
        <ele>82</ele>
        <time>2024-11-07T09:40:59.100Z</time>
      </trkpt>
      <trkpt lat="46.94675" lon="-1.20065">
        <ele>81.3</ele>
        <time>2024-11-07T09:41:06.897Z</time>
      </trkpt>
      <trkpt lat="46.94658" lon="-1.20139">
        <ele>81</ele>
        <time>2024-11-07T09:41:15.390Z</time>
      </trkpt>
      <trkpt lat="46.94656" lon="-1.20151">
        <ele>81</ele>
        <time>2024-11-07T09:41:16.806Z</time>
      </trkpt>
      <trkpt lat="46.94652" lon="-1.20167">
        <ele>81</ele>
        <time>2024-11-07T09:41:18.759Z</time>
      </trkpt>
      <trkpt lat="46.94641" lon="-1.2021">
        <ele>81.4</ele>
        <time>2024-11-07T09:41:24.733Z</time>
      </trkpt>
      <trkpt lat="46.94635" lon="-1.2023">
        <ele>81</ele>
        <time>2024-11-07T09:41:26.715Z</time>
      </trkpt>
      <trkpt lat="46.94624" lon="-1.20252">
        <ele>81</ele>
        <time>2024-11-07T09:41:29.841Z</time>
      </trkpt>
      <trkpt lat="46.94611" lon="-1.20273">
        <ele>81</ele>
        <time>2024-11-07T09:41:33.091Z</time>
      </trkpt>
      <trkpt lat="46.94598" lon="-1.2029">
        <ele>81</ele>
        <time>2024-11-07T09:41:36.017Z</time>
      </trkpt>
      <trkpt lat="46.94561" lon="-1.20327">
        <ele>80.2</ele>
        <time>2024-11-07T09:41:42.427Z</time>
      </trkpt>
      <trkpt lat="46.94463" lon="-1.20423">
        <ele>79</ele>
        <time>2024-11-07T09:42:00.454Z</time>
      </trkpt>
      <trkpt lat="46.94444" lon="-1.20446">
        <ele>79</ele>
        <time>2024-11-07T09:42:04.593Z</time>
      </trkpt>
      <trkpt lat="46.94435" lon="-1.20462">
        <ele>78.8</ele>
        <time>2024-11-07T09:42:06.684Z</time>
      </trkpt>
      <trkpt lat="46.94414" lon="-1.20499">
        <ele>77.9</ele>
        <time>2024-11-07T09:42:11.030Z</time>
      </trkpt>
      <trkpt lat="46.94363" lon="-1.20591">
        <ele>76</ele>
        <time>2024-11-07T09:42:22.078Z</time>
      </trkpt>
      <trkpt lat="46.94314" lon="-1.20677">
        <ele>75.2</ele>
        <time>2024-11-07T09:42:33.742Z</time>
      </trkpt>
      <trkpt lat="46.94294" lon="-1.20713">
        <ele>75</ele>
        <time>2024-11-07T09:42:38.759Z</time>
      </trkpt>
      <trkpt lat="46.9429" lon="-1.2072">
        <ele>75</ele>
        <time>2024-11-07T09:42:39.806Z</time>
      </trkpt>
      <trkpt lat="46.94286" lon="-1.20727">
        <ele>74.9</ele>
        <time>2024-11-07T09:42:40.711Z</time>
      </trkpt>
      <trkpt lat="46.94239" lon="-1.20816">
        <ele>72.1</ele>
        <time>2024-11-07T09:42:50.193Z</time>
      </trkpt>
      <trkpt lat="46.94217" lon="-1.20849">
        <ele>71.5</ele>
        <time>2024-11-07T09:42:54.653Z</time>
      </trkpt>
      <trkpt lat="46.94127" lon="-1.20968">
        <ele>74.4</ele>
        <time>2024-11-07T09:43:20.684Z</time>
      </trkpt>
      <trkpt lat="46.93942" lon="-1.21205">
        <ele>69.4</ele>
        <time>2024-11-07T09:43:55.121Z</time>
      </trkpt>
      <trkpt lat="46.93904" lon="-1.21248">
        <ele>71</ele>
        <time>2024-11-07T09:44:06.594Z</time>
      </trkpt>
      <trkpt lat="46.9379" lon="-1.21371">
        <ele>73.2</ele>
        <time>2024-11-07T09:44:34.367Z</time>
      </trkpt>
      <trkpt lat="46.93677" lon="-1.21493">
        <ele>75.1</ele>
        <time>2024-11-07T09:45:01.334Z</time>
      </trkpt>
      <trkpt lat="46.93662" lon="-1.21507">
        <ele>75</ele>
        <time>2024-11-07T09:45:04.168Z</time>
      </trkpt>
      <trkpt lat="46.93648" lon="-1.21519">
        <ele>74.5</ele>
        <time>2024-11-07T09:45:06.258Z</time>
      </trkpt>
      <trkpt lat="46.93602" lon="-1.21549">
        <ele>73.7</ele>
        <time>2024-11-07T09:45:13.583Z</time>
      </trkpt>
      <trkpt lat="46.93576" lon="-1.21569">
        <ele>72.9</ele>
        <time>2024-11-07T09:45:17.474Z</time>
      </trkpt>
      <trkpt lat="46.93562" lon="-1.21583">
        <ele>72.2</ele>
        <time>2024-11-07T09:45:19.494Z</time>
      </trkpt>
      <trkpt lat="46.93546" lon="-1.21604">
        <ele>72</ele>
        <time>2024-11-07T09:45:22.805Z</time>
      </trkpt>
      <trkpt lat="46.93543" lon="-1.21609">
        <ele>72</ele>
        <time>2024-11-07T09:45:23.568Z</time>
      </trkpt>
      <trkpt lat="46.93517" lon="-1.2165">
        <ele>71.6</ele>
        <time>2024-11-07T09:45:29.395Z</time>
      </trkpt>
      <trkpt lat="46.93446" lon="-1.21747">
        <ele>69.2</ele>
        <time>2024-11-07T09:45:42.521Z</time>
      </trkpt>
      <trkpt lat="46.93406" lon="-1.21799">
        <ele>68.6</ele>
        <time>2024-11-07T09:45:50.625Z</time>
      </trkpt>
      <trkpt lat="46.93392" lon="-1.21821">
        <ele>67.6</ele>
        <time>2024-11-07T09:45:52.947Z</time>
      </trkpt>
      <trkpt lat="46.93352" lon="-1.21909">
        <ele>63.2</ele>
        <time>2024-11-07T09:46:00.482Z</time>
      </trkpt>
      <trkpt lat="46.93341" lon="-1.21925">
        <ele>62.4</ele>
        <time>2024-11-07T09:46:02.201Z</time>
      </trkpt>
      <trkpt lat="46.93328" lon="-1.21941">
        <ele>62.3</ele>
        <time>2024-11-07T09:46:04.901Z</time>
      </trkpt>
      <trkpt lat="46.9329" lon="-1.21973">
        <ele>63.5</ele>
        <time>2024-11-07T09:46:14.682Z</time>
      </trkpt>
      <trkpt lat="46.93261" lon="-1.21991">
        <ele>64.2</ele>
        <time>2024-11-07T09:46:21.319Z</time>
      </trkpt>
      <trkpt lat="46.93169" lon="-1.22039">
        <ele>65.9</ele>
        <time>2024-11-07T09:46:40.858Z</time>
      </trkpt>
      <trkpt lat="46.93153" lon="-1.22048">
        <ele>66</ele>
        <time>2024-11-07T09:46:43.903Z</time>
      </trkpt>
      <trkpt lat="46.93135" lon="-1.22059">
        <ele>65.7</ele>
        <time>2024-11-07T09:46:46.753Z</time>
      </trkpt>
      <trkpt lat="46.93117" lon="-1.22075">
        <ele>65.4</ele>
        <time>2024-11-07T09:46:49.860Z</time>
      </trkpt>
      <trkpt lat="46.93106" lon="-1.22089">
        <ele>65.4</ele>
        <time>2024-11-07T09:46:52.307Z</time>
      </trkpt>
      <trkpt lat="46.93097" lon="-1.22103">
        <ele>64.9</ele>
        <time>2024-11-07T09:46:53.909Z</time>
      </trkpt>
      <trkpt lat="46.93002" lon="-1.22274">
        <ele>63.7</ele>
        <time>2024-11-07T09:47:17.387Z</time>
      </trkpt>
      <trkpt lat="46.92985" lon="-1.22302">
        <ele>64.2</ele>
        <time>2024-11-07T09:47:22.624Z</time>
      </trkpt>
      <trkpt lat="46.9298" lon="-1.22315">
        <ele>64.4</ele>
        <time>2024-11-07T09:47:24.711Z</time>
      </trkpt>
      <trkpt lat="46.92972" lon="-1.22339">
        <ele>64</ele>
        <time>2024-11-07T09:47:27.233Z</time>
      </trkpt>
      <trkpt lat="46.92963" lon="-1.2237">
        <ele>63.9</ele>
        <time>2024-11-07T09:47:30.942Z</time>
      </trkpt>
      <trkpt lat="46.92953" lon="-1.22407">
        <ele>63.6</ele>
        <time>2024-11-07T09:47:35.065Z</time>
      </trkpt>
      <trkpt lat="46.92922" lon="-1.22521">
        <ele>59.6</ele>
        <time>2024-11-07T09:47:44.605Z</time>
      </trkpt>
      <trkpt lat="46.92912" lon="-1.22555">
        <ele>58.5</ele>
        <time>2024-11-07T09:47:47.570Z</time>
      </trkpt>
      <trkpt lat="46.92904" lon="-1.22566">
        <ele>58</ele>
        <time>2024-11-07T09:47:48.838Z</time>
      </trkpt>
      <trkpt lat="46.92871" lon="-1.22595">
        <ele>56</ele>
        <time>2024-11-07T09:47:53.096Z</time>
      </trkpt>
      <trkpt lat="46.92825" lon="-1.22614">
        <ele>52.8</ele>
        <time>2024-11-07T09:47:57.911Z</time>
      </trkpt>
      <trkpt lat="46.92805" lon="-1.2262">
        <ele>52</ele>
        <time>2024-11-07T09:48:00.381Z</time>
      </trkpt>
      <trkpt lat="46.92784" lon="-1.22622">
        <ele>52</ele>
        <time>2024-11-07T09:48:03.915Z</time>
      </trkpt>
      <trkpt lat="46.92773" lon="-1.22619">
        <ele>52</ele>
        <time>2024-11-07T09:48:05.793Z</time>
      </trkpt>
      <trkpt lat="46.92736" lon="-1.22599">
        <ele>52.2</ele>
        <time>2024-11-07T09:48:12.749Z</time>
      </trkpt>
      <trkpt lat="46.92717" lon="-1.22592">
        <ele>51.9</ele>
        <time>2024-11-07T09:48:15.613Z</time>
      </trkpt>
      <trkpt lat="46.92713" lon="-1.22595">
        <ele>51.9</ele>
        <time>2024-11-07T09:48:16.368Z</time>
      </trkpt>
      <trkpt lat="46.92704" lon="-1.22612">
        <ele>51.3</ele>
        <time>2024-11-07T09:48:18.124Z</time>
      </trkpt>
      <trkpt lat="46.92681" lon="-1.22661">
        <ele>46.4</ele>
        <time>2024-11-07T09:48:22.215Z</time>
      </trkpt>
      <trkpt lat="46.92674" lon="-1.22681">
        <ele>44.7</ele>
        <time>2024-11-07T09:48:23.761Z</time>
      </trkpt>
      <trkpt lat="46.92674" lon="-1.22691">
        <ele>44.2</ele>
        <time>2024-11-07T09:48:24.449Z</time>
      </trkpt>
      <trkpt lat="46.92676" lon="-1.227">
        <ele>43.3</ele>
        <time>2024-11-07T09:48:25.100Z</time>
      </trkpt>
      <trkpt lat="46.92681" lon="-1.22708">
        <ele>42.6</ele>
        <time>2024-11-07T09:48:25.847Z</time>
      </trkpt>
      <trkpt lat="46.92703" lon="-1.22729">
        <ele>40.7</ele>
        <time>2024-11-07T09:48:28.492Z</time>
      </trkpt>
      <trkpt lat="46.92711" lon="-1.22749">
        <ele>39.3</ele>
        <time>2024-11-07T09:48:30.087Z</time>
      </trkpt>
      <trkpt lat="46.92717" lon="-1.2279">
        <ele>39.7</ele>
        <time>2024-11-07T09:48:35.613Z</time>
      </trkpt>
      <trkpt lat="46.92718" lon="-1.22797">
        <ele>40.7</ele>
        <time>2024-11-07T09:48:39.128Z</time>
      </trkpt>
      <trkpt lat="46.92721" lon="-1.22826">
        <ele>42.7</ele>
        <time>2024-11-07T09:48:50.464Z</time>
      </trkpt>
      <trkpt lat="46.92716" lon="-1.22844">
        <ele>42.5</ele>
        <time>2024-11-07T09:48:52.408Z</time>
      </trkpt>
      <trkpt lat="46.92703" lon="-1.22868">
        <ele>43.4</ele>
        <time>2024-11-07T09:48:58.023Z</time>
      </trkpt>
      <trkpt lat="46.92636" lon="-1.22962">
        <ele>49.5</ele>
        <time>2024-11-07T09:49:31.447Z</time>
      </trkpt>
      <trkpt lat="46.92622" lon="-1.22975">
        <ele>50.4</ele>
        <time>2024-11-07T09:49:36.579Z</time>
      </trkpt>
      <trkpt lat="46.92602" lon="-1.22983">
        <ele>52.2</ele>
        <time>2024-11-07T09:49:46.518Z</time>
      </trkpt>
      <trkpt lat="46.92587" lon="-1.22982">
        <ele>53.1</ele>
        <time>2024-11-07T09:49:51.523Z</time>
      </trkpt>
      <trkpt lat="46.92539" lon="-1.22974">
        <ele>53.5</ele>
        <time>2024-11-07T09:50:00.319Z</time>
      </trkpt>
      <trkpt lat="46.92494" lon="-1.22963">
        <ele>56</ele>
        <time>2024-11-07T09:50:14.534Z</time>
      </trkpt>
      <trkpt lat="46.92478" lon="-1.22956">
        <ele>57.1</ele>
        <time>2024-11-07T09:50:20.560Z</time>
      </trkpt>
      <trkpt lat="46.92477" lon="-1.22956">
        <ele>57.2</ele>
        <time>2024-11-07T09:50:21.127Z</time>
      </trkpt>
      <trkpt lat="46.92462" lon="-1.22952">
        <ele>58.3</ele>
        <time>2024-11-07T09:50:27.117Z</time>
      </trkpt>
      <trkpt lat="46.92436" lon="-1.2295">
        <ele>59.9</ele>
        <time>2024-11-07T09:50:35.973Z</time>
      </trkpt>
      <trkpt lat="46.9232" lon="-1.22968">
        <ele>66.2</ele>
        <time>2024-11-07T09:51:11.948Z</time>
      </trkpt>
      <trkpt lat="46.92299" lon="-1.22974">
        <ele>67.1</ele>
        <time>2024-11-07T09:51:17.624Z</time>
      </trkpt>
      <trkpt lat="46.92282" lon="-1.22984">
        <ele>67.4</ele>
        <time>2024-11-07T09:51:21.249Z</time>
      </trkpt>
      <trkpt lat="46.92264" lon="-1.22997">
        <ele>67.6</ele>
        <time>2024-11-07T09:51:24.966Z</time>
      </trkpt>
      <trkpt lat="46.92246" lon="-1.23012">
        <ele>67.6</ele>
        <time>2024-11-07T09:51:28.444Z</time>
      </trkpt>
      <trkpt lat="46.92217" lon="-1.23046">
        <ele>67.5</ele>
        <time>2024-11-07T09:51:34.526Z</time>
      </trkpt>
      <trkpt lat="46.92186" lon="-1.23098">
        <ele>67.9</ele>
        <time>2024-11-07T09:51:43.127Z</time>
      </trkpt>
      <trkpt lat="46.92138" lon="-1.23191">
        <ele>69</ele>
        <time>2024-11-07T09:51:58.465Z</time>
      </trkpt>
      <trkpt lat="46.92076" lon="-1.23311">
        <ele>66.8</ele>
        <time>2024-11-07T09:52:12.738Z</time>
      </trkpt>
      <trkpt lat="46.92062" lon="-1.23345">
        <ele>66.1</ele>
        <time>2024-11-07T09:52:16.372Z</time>
      </trkpt>
      <trkpt lat="46.92013" lon="-1.2349">
        <ele>69</ele>
        <time>2024-11-07T09:52:40.717Z</time>
      </trkpt>
      <trkpt lat="46.91999" lon="-1.23519">
        <ele>69.7</ele>
        <time>2024-11-07T09:52:46.221Z</time>
      </trkpt>
      <trkpt lat="46.9198" lon="-1.23549">
        <ele>70.8</ele>
        <time>2024-11-07T09:52:53.394Z</time>
      </trkpt>
      <trkpt lat="46.91822" lon="-1.23774">
        <ele>74.4</ele>
        <time>2024-11-07T09:53:36.991Z</time>
      </trkpt>
      <trkpt lat="46.91825" lon="-1.23785">
        <ele>74.3</ele>
        <time>2024-11-07T09:53:38.205Z</time>
      </trkpt>
      <trkpt lat="46.91824" lon="-1.23798">
        <ele>74.3</ele>
        <time>2024-11-07T09:53:39.705Z</time>
      </trkpt>
      <trkpt lat="46.91821" lon="-1.23803">
        <ele>74.4</ele>
        <time>2024-11-07T09:53:40.661Z</time>
      </trkpt>
      <trkpt lat="46.91812" lon="-1.23809">
        <ele>74.8</ele>
        <time>2024-11-07T09:53:43.233Z</time>
      </trkpt>
      <trkpt lat="46.91807" lon="-1.23808">
        <ele>74.9</ele>
        <time>2024-11-07T09:53:44.269Z</time>
      </trkpt>
      <trkpt lat="46.91799" lon="-1.23801">
        <ele>75</ele>
        <time>2024-11-07T09:53:46.008Z</time>
      </trkpt>
      <trkpt lat="46.91687" lon="-1.23969">
        <ele>76.3</ele>
        <time>2024-11-07T09:54:15.152Z</time>
      </trkpt>
      <trkpt lat="46.91672" lon="-1.23987">
        <ele>76.8</ele>
        <time>2024-11-07T09:54:19.403Z</time>
      </trkpt>
      <trkpt lat="46.91658" lon="-1.23999">
        <ele>77</ele>
        <time>2024-11-07T09:54:22.481Z</time>
      </trkpt>
      <trkpt lat="46.91646" lon="-1.24009">
        <ele>77</ele>
        <time>2024-11-07T09:54:24.799Z</time>
      </trkpt>
      <trkpt lat="46.91633" lon="-1.24016">
        <ele>77.2</ele>
        <time>2024-11-07T09:54:27.485Z</time>
      </trkpt>
      <trkpt lat="46.91621" lon="-1.24022">
        <ele>77.6</ele>
        <time>2024-11-07T09:54:30.453Z</time>
      </trkpt>
      <trkpt lat="46.91601" lon="-1.24026">
        <ele>78</ele>
        <time>2024-11-07T09:54:34.597Z</time>
      </trkpt>
      <trkpt lat="46.91528" lon="-1.2403">
        <ele>78</ele>
        <time>2024-11-07T09:54:46.863Z</time>
      </trkpt>
      <trkpt lat="46.91517" lon="-1.24033">
        <ele>78</ele>
        <time>2024-11-07T09:54:48.742Z</time>
      </trkpt>
      <trkpt lat="46.91495" lon="-1.24043">
        <ele>78.2</ele>
        <time>2024-11-07T09:54:52.953Z</time>
      </trkpt>
      <trkpt lat="46.9148" lon="-1.24055">
        <ele>78.7</ele>
        <time>2024-11-07T09:54:56.850Z</time>
      </trkpt>
      <trkpt lat="46.91465" lon="-1.24072">
        <ele>79</ele>
        <time>2024-11-07T09:55:00.582Z</time>
      </trkpt>
      <trkpt lat="46.91441" lon="-1.24109">
        <ele>79</ele>
        <time>2024-11-07T09:55:06.434Z</time>
      </trkpt>
      <trkpt lat="46.9142" lon="-1.24157">
        <ele>80</ele>
        <time>2024-11-07T09:55:14.959Z</time>
      </trkpt>
      <trkpt lat="46.91421" lon="-1.24166">
        <ele>80</ele>
        <time>2024-11-07T09:55:16.005Z</time>
      </trkpt>
      <trkpt lat="46.91418" lon="-1.24178">
        <ele>79.6</ele>
        <time>2024-11-07T09:55:17.012Z</time>
      </trkpt>
      <trkpt lat="46.91415" lon="-1.24183">
        <ele>79.4</ele>
        <time>2024-11-07T09:55:17.543Z</time>
      </trkpt>
      <trkpt lat="46.91407" lon="-1.24187">
        <ele>79.2</ele>
        <time>2024-11-07T09:55:18.696Z</time>
      </trkpt>
      <trkpt lat="46.91402" lon="-1.24191">
        <ele>79.1</ele>
        <time>2024-11-07T09:55:19.513Z</time>
      </trkpt>
      <trkpt lat="46.91389" lon="-1.24213">
        <ele>79</ele>
        <time>2024-11-07T09:55:22.696Z</time>
      </trkpt>
      <trkpt lat="46.9138" lon="-1.24225">
        <ele>79</ele>
        <time>2024-11-07T09:55:24.741Z</time>
      </trkpt>
      <trkpt lat="46.91378" lon="-1.24229">
        <ele>79</ele>
        <time>2024-11-07T09:55:25.309Z</time>
      </trkpt>
      <trkpt lat="46.91326" lon="-1.24316">
        <ele>79</ele>
        <time>2024-11-07T09:55:38.569Z</time>
      </trkpt>
      <trkpt lat="46.91293" lon="-1.24368">
        <ele>78.3</ele>
        <time>2024-11-07T09:55:45.712Z</time>
      </trkpt>
      <trkpt lat="46.91268" lon="-1.24397">
        <ele>78</ele>
        <time>2024-11-07T09:55:50.623Z</time>
      </trkpt>
      <trkpt lat="46.91241" lon="-1.24428">
        <ele>77.9</ele>
        <time>2024-11-07T09:55:56.229Z</time>
      </trkpt>
      <trkpt lat="46.91208" lon="-1.24464">
        <ele>77</ele>
        <time>2024-11-07T09:56:01.923Z</time>
      </trkpt>
      <trkpt lat="46.91075" lon="-1.24606">
        <ele>74.8</ele>
        <time>2024-11-07T09:56:26.399Z</time>
      </trkpt>
      <trkpt lat="46.91063" lon="-1.24615">
        <ele>74.3</ele>
        <time>2024-11-07T09:56:28.056Z</time>
      </trkpt>
      <trkpt lat="46.90989" lon="-1.24645">
        <ele>70.5</ele>
        <time>2024-11-07T09:56:36.693Z</time>
      </trkpt>
      <trkpt lat="46.90974" lon="-1.24649">
        <ele>69.7</ele>
        <time>2024-11-07T09:56:38.374Z</time>
      </trkpt>
      <trkpt lat="46.90958" lon="-1.24649">
        <ele>68.6</ele>
        <time>2024-11-07T09:56:39.986Z</time>
      </trkpt>
      <trkpt lat="46.90948" lon="-1.24644">
        <ele>68.1</ele>
        <time>2024-11-07T09:56:41.193Z</time>
      </trkpt>
      <trkpt lat="46.90797" lon="-1.24563">
        <ele>58.7</ele>
        <time>2024-11-07T09:56:58.247Z</time>
      </trkpt>
      <trkpt lat="46.90774" lon="-1.24554">
        <ele>57.9</ele>
        <time>2024-11-07T09:57:01.249Z</time>
      </trkpt>
      <trkpt lat="46.90745" lon="-1.24546">
        <ele>56.9</ele>
        <time>2024-11-07T09:57:04.962Z</time>
      </trkpt>
      <trkpt lat="46.90647" lon="-1.24523">
        <ele>51.5</ele>
        <time>2024-11-07T09:57:15.766Z</time>
      </trkpt>
      <trkpt lat="46.90581" lon="-1.24507">
        <ele>47.7</ele>
        <time>2024-11-07T09:57:22.936Z</time>
      </trkpt>
      <trkpt lat="46.90578" lon="-1.24506">
        <ele>47.4</ele>
        <time>2024-11-07T09:57:23.246Z</time>
      </trkpt>
      <trkpt lat="46.90537" lon="-1.24496">
        <ele>43.9</ele>
        <time>2024-11-07T09:57:27.434Z</time>
      </trkpt>
      <trkpt lat="46.90527" lon="-1.24495">
        <ele>42.9</ele>
        <time>2024-11-07T09:57:28.444Z</time>
      </trkpt>
      <trkpt lat="46.90517" lon="-1.24499">
        <ele>42.2</ele>
        <time>2024-11-07T09:57:29.488Z</time>
      </trkpt>
      <trkpt lat="46.90507" lon="-1.24506">
        <ele>41.6</ele>
        <time>2024-11-07T09:57:30.697Z</time>
      </trkpt>
      <trkpt lat="46.90495" lon="-1.2452">
        <ele>42.4</ele>
        <time>2024-11-07T09:57:35.316Z</time>
      </trkpt>
      <trkpt lat="46.90484" lon="-1.24537">
        <ele>43.6</ele>
        <time>2024-11-07T09:57:41.852Z</time>
      </trkpt>
      <trkpt lat="46.90468" lon="-1.24572">
        <ele>45.6</ele>
        <time>2024-11-07T09:57:52.759Z</time>
      </trkpt>
      <trkpt lat="46.9045" lon="-1.24661">
        <ele>47.1</ele>
        <time>2024-11-07T09:58:06.333Z</time>
      </trkpt>
      <trkpt lat="46.90442" lon="-1.24678">
        <ele>47.2</ele>
        <time>2024-11-07T09:58:08.871Z</time>
      </trkpt>
      <trkpt lat="46.90426" lon="-1.24697">
        <ele>48.1</ele>
        <time>2024-11-07T09:58:14.446Z</time>
      </trkpt>
      <trkpt lat="46.90409" lon="-1.24708">
        <ele>49.9</ele>
        <time>2024-11-07T09:58:24.588Z</time>
      </trkpt>
      <trkpt lat="46.90398" lon="-1.24713">
        <ele>50.7</ele>
        <time>2024-11-07T09:58:28.951Z</time>
      </trkpt>
      <trkpt lat="46.90363" lon="-1.24718">
        <ele>52.2</ele>
        <time>2024-11-07T09:58:38.348Z</time>
      </trkpt>
      <trkpt lat="46.90333" lon="-1.24731">
        <ele>53.7</ele>
        <time>2024-11-07T09:58:47.277Z</time>
      </trkpt>
      <trkpt lat="46.9031" lon="-1.24749">
        <ele>54.7</ele>
        <time>2024-11-07T09:58:53.890Z</time>
      </trkpt>
      <trkpt lat="46.90279" lon="-1.2477">
        <ele>56.2</ele>
        <time>2024-11-07T09:59:03.160Z</time>
      </trkpt>
      <trkpt lat="46.90172" lon="-1.24808">
        <ele>60.6</ele>
        <time>2024-11-07T09:59:31.629Z</time>
      </trkpt>
      <trkpt lat="46.90119" lon="-1.24827">
        <ele>60.4</ele>
        <time>2024-11-07T09:59:40.482Z</time>
      </trkpt>
      <trkpt lat="46.90093" lon="-1.24836">
        <ele>60.6</ele>
        <time>2024-11-07T09:59:45.307Z</time>
      </trkpt>
      <trkpt lat="46.90072" lon="-1.24849">
        <ele>60.2</ele>
        <time>2024-11-07T09:59:48.578Z</time>
      </trkpt>
      <trkpt lat="46.89932" lon="-1.24967">
        <ele>50.7</ele>
        <time>2024-11-07T10:00:05.672Z</time>
      </trkpt>
      <trkpt lat="46.89923" lon="-1.24977">
        <ele>50</ele>
        <time>2024-11-07T10:00:06.844Z</time>
      </trkpt>
      <trkpt lat="46.89916" lon="-1.24983">
        <ele>49.6</ele>
        <time>2024-11-07T10:00:07.757Z</time>
      </trkpt>
      <trkpt lat="46.89909" lon="-1.24987">
        <ele>49.2</ele>
        <time>2024-11-07T10:00:08.582Z</time>
      </trkpt>
      <trkpt lat="46.89893" lon="-1.24987">
        <ele>48.6</ele>
        <time>2024-11-07T10:00:10.541Z</time>
      </trkpt>
      <trkpt lat="46.89873" lon="-1.24975">
        <ele>47.8</ele>
        <time>2024-11-07T10:00:13.198Z</time>
      </trkpt>
      <trkpt lat="46.89865" lon="-1.24968">
        <ele>47.6</ele>
        <time>2024-11-07T10:00:14.492Z</time>
      </trkpt>
      <trkpt lat="46.89841" lon="-1.24942">
        <ele>46.1</ele>
        <time>2024-11-07T10:00:17.834Z</time>
      </trkpt>
      <trkpt lat="46.89816" lon="-1.24915">
        <ele>43.8</ele>
        <time>2024-11-07T10:00:20.965Z</time>
      </trkpt>
      <trkpt lat="46.89785" lon="-1.24881">
        <ele>42.1</ele>
        <time>2024-11-07T10:00:25.495Z</time>
      </trkpt>
      <trkpt lat="46.89767" lon="-1.24862">
        <ele>40.8</ele>
        <time>2024-11-07T10:00:27.847Z</time>
      </trkpt>
      <trkpt lat="46.89745" lon="-1.24842">
        <ele>40.4</ele>
        <time>2024-11-07T10:00:31.629Z</time>
      </trkpt>
      <trkpt lat="46.89727" lon="-1.24829">
        <ele>40.8</ele>
        <time>2024-11-07T10:00:35.755Z</time>
      </trkpt>
      <trkpt lat="46.89717" lon="-1.24826">
        <ele>40.5</ele>
        <time>2024-11-07T10:00:37.084Z</time>
      </trkpt>
      <trkpt lat="46.89699" lon="-1.24827">
        <ele>39.9</ele>
        <time>2024-11-07T10:00:39.361Z</time>
      </trkpt>
      <trkpt lat="46.89668" lon="-1.24836">
        <ele>40.8</ele>
        <time>2024-11-07T10:00:46.502Z</time>
      </trkpt>
      <trkpt lat="46.89646" lon="-1.24846">
        <ele>40.4</ele>
        <time>2024-11-07T10:00:49.811Z</time>
      </trkpt>
      <trkpt lat="46.8963" lon="-1.24857">
        <ele>40.9</ele>
        <time>2024-11-07T10:00:53.797Z</time>
      </trkpt>
      <trkpt lat="46.89593" lon="-1.24887">
        <ele>42.3</ele>
        <time>2024-11-07T10:01:03.876Z</time>
      </trkpt>
      <trkpt lat="46.89549" lon="-1.24904">
        <ele>44.9</ele>
        <time>2024-11-07T10:01:18.495Z</time>
      </trkpt>
      <trkpt lat="46.89539" lon="-1.24911">
        <ele>45.5</ele>
        <time>2024-11-07T10:01:21.919Z</time>
      </trkpt>
      <trkpt lat="46.89535" lon="-1.24916">
        <ele>45.7</ele>
        <time>2024-11-07T10:01:23.248Z</time>
      </trkpt>
      <trkpt lat="46.8953" lon="-1.24927">
        <ele>46.2</ele>
        <time>2024-11-07T10:01:26.082Z</time>
      </trkpt>
      <trkpt lat="46.89526" lon="-1.24939">
        <ele>47.1</ele>
        <time>2024-11-07T10:01:31.172Z</time>
      </trkpt>
      <trkpt lat="46.89524" lon="-1.24954">
        <ele>48.1</ele>
        <time>2024-11-07T10:01:36.794Z</time>
      </trkpt>
      <trkpt lat="46.89524" lon="-1.24971">
        <ele>48.8</ele>
        <time>2024-11-07T10:01:40.682Z</time>
      </trkpt>
      <trkpt lat="46.89528" lon="-1.25034">
        <ele>51.2</ele>
        <time>2024-11-07T10:01:54.279Z</time>
      </trkpt>
      <trkpt lat="46.89528" lon="-1.25051">
        <ele>51.8</ele>
        <time>2024-11-07T10:01:57.755Z</time>
      </trkpt>
      <trkpt lat="46.89526" lon="-1.25069">
        <ele>52.3</ele>
        <time>2024-11-07T10:02:00.983Z</time>
      </trkpt>
      <trkpt lat="46.89522" lon="-1.25083">
        <ele>52.8</ele>
        <time>2024-11-07T10:02:03.953Z</time>
      </trkpt>
      <trkpt lat="46.89517" lon="-1.25096">
        <ele>53.2</ele>
        <time>2024-11-07T10:02:06.566Z</time>
      </trkpt>
      <trkpt lat="46.8951" lon="-1.25107">
        <ele>53.5</ele>
        <time>2024-11-07T10:02:08.906Z</time>
      </trkpt>
      <trkpt lat="46.89503" lon="-1.25116">
        <ele>53.8</ele>
        <time>2024-11-07T10:02:11.103Z</time>
      </trkpt>
      <trkpt lat="46.89484" lon="-1.25129">
        <ele>55.4</ele>
        <time>2024-11-07T10:02:19.822Z</time>
      </trkpt>
      <trkpt lat="46.89469" lon="-1.25135">
        <ele>56.4</ele>
        <time>2024-11-07T10:02:25.316Z</time>
      </trkpt>
      <trkpt lat="46.89464" lon="-1.25135">
        <ele>56.7</ele>
        <time>2024-11-07T10:02:26.984Z</time>
      </trkpt>
      <trkpt lat="46.89438" lon="-1.25121">
        <ele>59</ele>
        <time>2024-11-07T10:02:39.605Z</time>
      </trkpt>
      <trkpt lat="46.89413" lon="-1.25102">
        <ele>60.6</ele>
        <time>2024-11-07T10:02:48.615Z</time>
      </trkpt>
      <trkpt lat="46.89379" lon="-1.25072">
        <ele>63</ele>
        <time>2024-11-07T10:03:01.939Z</time>
      </trkpt>
      <trkpt lat="46.89372" lon="-1.25068">
        <ele>63.4</ele>
        <time>2024-11-07T10:03:04.233Z</time>
      </trkpt>
      <trkpt lat="46.89357" lon="-1.25064">
        <ele>64</ele>
        <time>2024-11-07T10:03:08.147Z</time>
      </trkpt>
      <trkpt lat="46.89341" lon="-1.25067">
        <ele>64</ele>
        <time>2024-11-07T10:03:10.855Z</time>
      </trkpt>
      <trkpt lat="46.89334" lon="-1.25077">
        <ele>64</ele>
        <time>2024-11-07T10:03:12.498Z</time>
      </trkpt>
      <trkpt lat="46.89324" lon="-1.25084">
        <ele>64</ele>
        <time>2024-11-07T10:03:14.359Z</time>
      </trkpt>
      <trkpt lat="46.89318" lon="-1.25084">
        <ele>64</ele>
        <time>2024-11-07T10:03:15.367Z</time>
      </trkpt>
      <trkpt lat="46.89301" lon="-1.25081">
        <ele>64</ele>
        <time>2024-11-07T10:03:18.242Z</time>
      </trkpt>
      <trkpt lat="46.89294" lon="-1.25083">
        <ele>64</ele>
        <time>2024-11-07T10:03:19.440Z</time>
      </trkpt>
      <trkpt lat="46.89289" lon="-1.25083">
        <ele>64</ele>
        <time>2024-11-07T10:03:20.280Z</time>
      </trkpt>
      <trkpt lat="46.8927" lon="-1.25085">
        <ele>63.8</ele>
        <time>2024-11-07T10:03:23.184Z</time>
      </trkpt>
      <trkpt lat="46.8921" lon="-1.25085">
        <ele>61.2</ele>
        <time>2024-11-07T10:03:30.228Z</time>
      </trkpt>
      <trkpt lat="46.89174" lon="-1.25093">
        <ele>59.6</ele>
        <time>2024-11-07T10:03:34.485Z</time>
      </trkpt>
      <trkpt lat="46.89138" lon="-1.25105">
        <ele>59</ele>
        <time>2024-11-07T10:03:39.840Z</time>
      </trkpt>
      <trkpt lat="46.89086" lon="-1.25138">
        <ele>60</ele>
        <time>2024-11-07T10:03:51.208Z</time>
      </trkpt>
      <trkpt lat="46.89066" lon="-1.25152">
        <ele>60.6</ele>
        <time>2024-11-07T10:03:56.138Z</time>
      </trkpt>
      <trkpt lat="46.89057" lon="-1.25158">
        <ele>60.7</ele>
        <time>2024-11-07T10:03:57.972Z</time>
      </trkpt>
      <trkpt lat="46.89045" lon="-1.25167">
        <ele>61</ele>
        <time>2024-11-07T10:04:00.814Z</time>
      </trkpt>
      <trkpt lat="46.89007" lon="-1.25194">
        <ele>61.2</ele>
        <time>2024-11-07T10:04:08.239Z</time>
      </trkpt>
      <trkpt lat="46.88979" lon="-1.25208">
        <ele>60.1</ele>
        <time>2024-11-07T10:04:11.872Z</time>
      </trkpt>
      <trkpt lat="46.88946" lon="-1.25221">
        <ele>58.1</ele>
        <time>2024-11-07T10:04:15.494Z</time>
      </trkpt>
      <trkpt lat="46.88928" lon="-1.25227">
        <ele>58.2</ele>
        <time>2024-11-07T10:04:18.761Z</time>
      </trkpt>
      <trkpt lat="46.88921" lon="-1.25228">
        <ele>58.2</ele>
        <time>2024-11-07T10:04:19.942Z</time>
      </trkpt>
      <trkpt lat="46.88907" lon="-1.2523">
        <ele>59.1</ele>
        <time>2024-11-07T10:04:24.891Z</time>
      </trkpt>
      <trkpt lat="46.88833" lon="-1.25235">
        <ele>63.9</ele>
        <time>2024-11-07T10:04:51.238Z</time>
      </trkpt>
      <trkpt lat="46.88793" lon="-1.25237">
        <ele>65.6</ele>
        <time>2024-11-07T10:05:01.909Z</time>
      </trkpt>
      <trkpt lat="46.88751" lon="-1.25239">
        <ele>67.5</ele>
        <time>2024-11-07T10:05:13.499Z</time>
      </trkpt>
      <trkpt lat="46.88742" lon="-1.25242">
        <ele>67.9</ele>
        <time>2024-11-07T10:05:15.986Z</time>
      </trkpt>
      <trkpt lat="46.88714" lon="-1.25248">
        <ele>68.9</ele>
        <time>2024-11-07T10:05:22.909Z</time>
      </trkpt>
      <trkpt lat="46.88681" lon="-1.25256">
        <ele>69.4</ele>
        <time>2024-11-07T10:05:29.429Z</time>
      </trkpt>
      <trkpt lat="46.88649" lon="-1.25263">
        <ele>69.6</ele>
        <time>2024-11-07T10:05:35.198Z</time>
      </trkpt>
      <trkpt lat="46.88641" lon="-1.25264">
        <ele>69.5</ele>
        <time>2024-11-07T10:05:36.402Z</time>
      </trkpt>
      <trkpt lat="46.88641" lon="-1.25268">
        <ele>69.7</ele>
        <time>2024-11-07T10:05:37.491Z</time>
      </trkpt>
      <trkpt lat="46.88639" lon="-1.25274">
        <ele>69.9</ele>
        <time>2024-11-07T10:05:38.728Z</time>
      </trkpt>
      <trkpt lat="46.88636" lon="-1.25277">
        <ele>70</ele>
        <time>2024-11-07T10:05:39.540Z</time>
      </trkpt>
      <trkpt lat="46.88631" lon="-1.25277">
        <ele>70</ele>
        <time>2024-11-07T10:05:40.379Z</time>
      </trkpt>
      <trkpt lat="46.88627" lon="-1.25271">
        <ele>69.7</ele>
        <time>2024-11-07T10:05:41.011Z</time>
      </trkpt>
      <trkpt lat="46.88621" lon="-1.25271">
        <ele>69.6</ele>
        <time>2024-11-07T10:05:41.879Z</time>
      </trkpt>
      <trkpt lat="46.88542" lon="-1.2528">
        <ele>65.2</ele>
        <time>2024-11-07T10:05:50.441Z</time>
      </trkpt>
      <trkpt lat="46.88519" lon="-1.25285">
        <ele>64.4</ele>
        <time>2024-11-07T10:05:53.355Z</time>
      </trkpt>
      <trkpt lat="46.8851" lon="-1.25288">
        <ele>64.3</ele>
        <time>2024-11-07T10:05:54.759Z</time>
      </trkpt>
      <trkpt lat="46.88482" lon="-1.25297">
        <ele>64.8</ele>
        <time>2024-11-07T10:06:00.496Z</time>
      </trkpt>
      <trkpt lat="46.88474" lon="-1.25296">
        <ele>65.3</ele>
        <time>2024-11-07T10:06:03.257Z</time>
      </trkpt>
      <trkpt lat="46.88422" lon="-1.25301">
        <ele>69.6</ele>
        <time>2024-11-07T10:06:26.835Z</time>
      </trkpt>
      <trkpt lat="46.88344" lon="-1.25291">
        <ele>73</ele>
        <time>2024-11-07T10:06:47.956Z</time>
      </trkpt>
      <trkpt lat="46.8833" lon="-1.25289">
        <ele>73.1</ele>
        <time>2024-11-07T10:06:50.487Z</time>
      </trkpt>
      <trkpt lat="46.88277" lon="-1.2528">
        <ele>74</ele>
        <time>2024-11-07T10:07:01.100Z</time>
      </trkpt>
      <trkpt lat="46.88244" lon="-1.25277">
        <ele>75</ele>
        <time>2024-11-07T10:07:08.723Z</time>
      </trkpt>
      <trkpt lat="46.88143" lon="-1.25287">
        <ele>75</ele>
        <time>2024-11-07T10:07:25.722Z</time>
      </trkpt>
      <trkpt lat="46.88115" lon="-1.25292">
        <ele>74.6</ele>
        <time>2024-11-07T10:07:29.886Z</time>
      </trkpt>
      <trkpt lat="46.88077" lon="-1.25303">
        <ele>74.9</ele>
        <time>2024-11-07T10:07:36.901Z</time>
      </trkpt>
      <trkpt lat="46.88032" lon="-1.25322">
        <ele>74.7</ele>
        <time>2024-11-07T10:07:44.457Z</time>
      </trkpt>
      <trkpt lat="46.88018" lon="-1.25329">
        <ele>74.9</ele>
        <time>2024-11-07T10:07:47.299Z</time>
      </trkpt>
      <trkpt lat="46.88008" lon="-1.25335">
        <ele>75</ele>
        <time>2024-11-07T10:07:49.286Z</time>
      </trkpt>
      <trkpt lat="46.88008" lon="-1.25344">
        <ele>75</ele>
        <time>2024-11-07T10:07:50.319Z</time>
      </trkpt>
      <trkpt lat="46.88002" lon="-1.25354">
        <ele>75</ele>
        <time>2024-11-07T10:07:51.846Z</time>
      </trkpt>
      <trkpt lat="46.87995" lon="-1.25354">
        <ele>75</ele>
        <time>2024-11-07T10:07:53.022Z</time>
      </trkpt>
      <trkpt lat="46.8799" lon="-1.25349">
        <ele>75</ele>
        <time>2024-11-07T10:07:54.039Z</time>
      </trkpt>
      <trkpt lat="46.87988" lon="-1.25345">
        <ele>75</ele>
        <time>2024-11-07T10:07:54.608Z</time>
      </trkpt>
      <trkpt lat="46.8798" lon="-1.2535">
        <ele>75</ele>
        <time>2024-11-07T10:07:56.068Z</time>
      </trkpt>
      <trkpt lat="46.8796" lon="-1.25366">
        <ele>75.2</ele>
        <time>2024-11-07T10:08:00.239Z</time>
      </trkpt>
      <trkpt lat="46.87862" lon="-1.25462">
        <ele>75</ele>
        <time>2024-11-07T10:08:19.729Z</time>
      </trkpt>
      <trkpt lat="46.87792" lon="-1.2553">
        <ele>74</ele>
        <time>2024-11-07T10:08:32.383Z</time>
      </trkpt>
      <trkpt lat="46.87656" lon="-1.25666">
        <ele>73</ele>
        <time>2024-11-07T10:08:58.524Z</time>
      </trkpt>
      <trkpt lat="46.87511" lon="-1.25842">
        <ele>74.8</ele>
        <time>2024-11-07T10:09:33.270Z</time>
      </trkpt>
      <trkpt lat="46.87487" lon="-1.25864">
        <ele>74.5</ele>
        <time>2024-11-07T10:09:37.585Z</time>
      </trkpt>
      <trkpt lat="46.87437" lon="-1.25898">
        <ele>73.9</ele>
        <time>2024-11-07T10:09:45.964Z</time>
      </trkpt>
      <trkpt lat="46.87343" lon="-1.25976">
        <ele>73</ele>
        <time>2024-11-07T10:10:02.765Z</time>
      </trkpt>
      <trkpt lat="46.87308" lon="-1.25996">
        <ele>72.1</ele>
        <time>2024-11-07T10:10:07.877Z</time>
      </trkpt>
      <trkpt lat="46.87262" lon="-1.26016">
        <ele>71.2</ele>
        <time>2024-11-07T10:10:14.690Z</time>
      </trkpt>
      <trkpt lat="46.87224" lon="-1.26041">
        <ele>71</ele>
        <time>2024-11-07T10:10:21.380Z</time>
      </trkpt>
      <trkpt lat="46.87207" lon="-1.26055">
        <ele>70.5</ele>
        <time>2024-11-07T10:10:23.998Z</time>
      </trkpt>
      <trkpt lat="46.87096" lon="-1.2616">
        <ele>67.3</ele>
        <time>2024-11-07T10:10:41.941Z</time>
      </trkpt>
      <trkpt lat="46.87072" lon="-1.26178">
        <ele>66.6</ele>
        <time>2024-11-07T10:10:45.551Z</time>
      </trkpt>
      <trkpt lat="46.86941" lon="-1.26261">
        <ele>64.9</ele>
        <time>2024-11-07T10:11:07.050Z</time>
      </trkpt>
      <trkpt lat="46.86853" lon="-1.26322">
        <ele>63.9</ele>
        <time>2024-11-07T10:11:21.929Z</time>
      </trkpt>
      <trkpt lat="46.86828" lon="-1.26341">
        <ele>63.8</ele>
        <time>2024-11-07T10:11:26.504Z</time>
      </trkpt>
      <trkpt lat="46.86822" lon="-1.26333">
        <ele>64</ele>
        <time>2024-11-07T10:11:28.261Z</time>
      </trkpt>
      <trkpt lat="46.86812" lon="-1.26324">
        <ele>63.7</ele>
        <time>2024-11-07T10:11:29.838Z</time>
      </trkpt>
      <trkpt lat="46.86654" lon="-1.26245">
        <ele>62.9</ele>
        <time>2024-11-07T10:11:56.647Z</time>
      </trkpt>
      <trkpt lat="46.86642" lon="-1.26241">
        <ele>63</ele>
        <time>2024-11-07T10:11:58.884Z</time>
      </trkpt>
      <trkpt lat="46.86631" lon="-1.26241">
        <ele>62.9</ele>
        <time>2024-11-07T10:12:00.583Z</time>
      </trkpt>
      <trkpt lat="46.86612" lon="-1.26251">
        <ele>63</ele>
        <time>2024-11-07T10:12:04.140Z</time>
      </trkpt>
      <trkpt lat="46.86559" lon="-1.26315">
        <ele>63.9</ele>
        <time>2024-11-07T10:12:17.282Z</time>
      </trkpt>
      <trkpt lat="46.86542" lon="-1.26329">
        <ele>64</ele>
        <time>2024-11-07T10:12:20.724Z</time>
      </trkpt>
      <trkpt lat="46.86521" lon="-1.26339">
        <ele>64</ele>
        <time>2024-11-07T10:12:24.433Z</time>
      </trkpt>
      <trkpt lat="46.865" lon="-1.26342">
        <ele>64</ele>
        <time>2024-11-07T10:12:27.976Z</time>
      </trkpt>
      <trkpt lat="46.86483" lon="-1.2634">
        <ele>63.5</ele>
        <time>2024-11-07T10:12:30.199Z</time>
      </trkpt>
      <trkpt lat="46.86467" lon="-1.26335">
        <ele>63</ele>
        <time>2024-11-07T10:12:32.311Z</time>
      </trkpt>
      <trkpt lat="46.86435" lon="-1.26318">
        <ele>62.3</ele>
        <time>2024-11-07T10:12:37.072Z</time>
      </trkpt>
      <trkpt lat="46.86359" lon="-1.26251">
        <ele>56.5</ele>
        <time>2024-11-07T10:12:46.087Z</time>
      </trkpt>
      <trkpt lat="46.86332" lon="-1.26233">
        <ele>53.7</ele>
        <time>2024-11-07T10:12:49.076Z</time>
      </trkpt>
      <trkpt lat="46.86307" lon="-1.2622">
        <ele>52</ele>
        <time>2024-11-07T10:12:51.793Z</time>
      </trkpt>
      <trkpt lat="46.86276" lon="-1.26204">
        <ele>55.1</ele>
        <time>2024-11-07T10:13:09.168Z</time>
      </trkpt>
      <trkpt lat="46.86258" lon="-1.26194">
        <ele>55.7</ele>
        <time>2024-11-07T10:13:13.654Z</time>
      </trkpt>
      <trkpt lat="46.86247" lon="-1.26184">
        <ele>56.1</ele>
        <time>2024-11-07T10:13:16.663Z</time>
      </trkpt>
      <trkpt lat="46.86242" lon="-1.26194">
        <ele>56.3</ele>
        <time>2024-11-07T10:13:18.475Z</time>
      </trkpt>
      <trkpt lat="46.86234" lon="-1.26205">
        <ele>57.3</ele>
        <time>2024-11-07T10:13:24.043Z</time>
      </trkpt>
      <trkpt lat="46.86223" lon="-1.26214">
        <ele>57.7</ele>
        <time>2024-11-07T10:13:26.999Z</time>
      </trkpt>
      <trkpt lat="46.86196" lon="-1.26231">
        <ele>59.9</ele>
        <time>2024-11-07T10:13:38.980Z</time>
      </trkpt>
      <trkpt lat="46.86185" lon="-1.26235">
        <ele>60.9</ele>
        <time>2024-11-07T10:13:44.517Z</time>
      </trkpt>
      <trkpt lat="46.86164" lon="-1.26238">
        <ele>62.6</ele>
        <time>2024-11-07T10:13:53.815Z</time>
      </trkpt>
      <trkpt lat="46.86097" lon="-1.26236">
        <ele>66</ele>
        <time>2024-11-07T10:14:13.630Z</time>
      </trkpt>
      <trkpt lat="46.86059" lon="-1.26238">
        <ele>66.9</ele>
        <time>2024-11-07T10:14:21.771Z</time>
      </trkpt>
      <trkpt lat="46.86051" lon="-1.26239">
        <ele>67.2</ele>
        <time>2024-11-07T10:14:23.783Z</time>
      </trkpt>
      <trkpt lat="46.85998" lon="-1.26244">
        <ele>69.3</ele>
        <time>2024-11-07T10:14:37.446Z</time>
      </trkpt>
      <trkpt lat="46.85907" lon="-1.26255">
        <ele>71</ele>
        <time>2024-11-07T10:14:55.951Z</time>
      </trkpt>
      <trkpt lat="46.85773" lon="-1.26272">
        <ele>70.9</ele>
        <time>2024-11-07T10:15:18.378Z</time>
      </trkpt>
      <trkpt lat="46.85764" lon="-1.26273">
        <ele>70.6</ele>
        <time>2024-11-07T10:15:19.519Z</time>
      </trkpt>
      <trkpt lat="46.85617" lon="-1.26288">
        <ele>67.5</ele>
        <time>2024-11-07T10:15:40.048Z</time>
      </trkpt>
      <trkpt lat="46.85567" lon="-1.26294">
        <ele>68.4</ele>
        <time>2024-11-07T10:15:50.141Z</time>
      </trkpt>
      <trkpt lat="46.85558" lon="-1.26299">
        <ele>68.9</ele>
        <time>2024-11-07T10:15:53.032Z</time>
      </trkpt>
      <trkpt lat="46.85531" lon="-1.26324">
        <ele>69.3</ele>
        <time>2024-11-07T10:15:59.107Z</time>
      </trkpt>
      <trkpt lat="46.85432" lon="-1.26444">
        <ele>70.6</ele>
        <time>2024-11-07T10:16:22.954Z</time>
      </trkpt>
      <trkpt lat="46.85358" lon="-1.26531">
        <ele>67.1</ele>
        <time>2024-11-07T10:16:34.639Z</time>
      </trkpt>
      <trkpt lat="46.8523" lon="-1.26685">
        <ele>69.5</ele>
        <time>2024-11-07T10:17:06.793Z</time>
      </trkpt>
      <trkpt lat="46.85186" lon="-1.26742">
        <ele>70.3</ele>
        <time>2024-11-07T10:17:18.094Z</time>
      </trkpt>
      <trkpt lat="46.85138" lon="-1.26798">
        <ele>72</ele>
        <time>2024-11-07T10:17:31.844Z</time>
      </trkpt>
      <trkpt lat="46.85113" lon="-1.26817">
        <ele>72</ele>
        <time>2024-11-07T10:17:36.575Z</time>
      </trkpt>
      <trkpt lat="46.85076" lon="-1.26837">
        <ele>72.4</ele>
        <time>2024-11-07T10:17:43.893Z</time>
      </trkpt>
      <trkpt lat="46.85034" lon="-1.26854">
        <ele>73</ele>
        <time>2024-11-07T10:17:52.285Z</time>
      </trkpt>
      <trkpt lat="46.84965" lon="-1.2688">
        <ele>73</ele>
        <time>2024-11-07T10:18:04.250Z</time>
      </trkpt>
      <trkpt lat="46.84913" lon="-1.26902">
        <ele>72.9</ele>
        <time>2024-11-07T10:18:13.183Z</time>
      </trkpt>
      <trkpt lat="46.84903" lon="-1.26907">
        <ele>72.8</ele>
        <time>2024-11-07T10:18:14.809Z</time>
      </trkpt>
      <trkpt lat="46.84861" lon="-1.26924">
        <ele>71.4</ele>
        <time>2024-11-07T10:18:20.367Z</time>
      </trkpt>
      <trkpt lat="46.84799" lon="-1.26949">
        <ele>70.8</ele>
        <time>2024-11-07T10:18:30.276Z</time>
      </trkpt>
      <trkpt lat="46.84746" lon="-1.26972">
        <ele>72</ele>
        <time>2024-11-07T10:18:41.860Z</time>
      </trkpt>
      <trkpt lat="46.84639" lon="-1.27014">
        <ele>72</ele>
        <time>2024-11-07T10:19:00.464Z</time>
      </trkpt>
      <trkpt lat="46.84472" lon="-1.27082">
        <ele>71</ele>
        <time>2024-11-07T10:19:28.048Z</time>
      </trkpt>
      <trkpt lat="46.84436" lon="-1.27095">
        <ele>71</ele>
        <time>2024-11-07T10:19:34.275Z</time>
      </trkpt>
      <trkpt lat="46.8427" lon="-1.27165">
        <ele>67.7</ele>
        <time>2024-11-07T10:19:58.735Z</time>
      </trkpt>
      <trkpt lat="46.84221" lon="-1.27182">
        <ele>66.6</ele>
        <time>2024-11-07T10:20:05.704Z</time>
      </trkpt>
      <trkpt lat="46.84214" lon="-1.27183">
        <ele>66.7</ele>
        <time>2024-11-07T10:20:07.065Z</time>
      </trkpt>
      <trkpt lat="46.84193" lon="-1.2718">
        <ele>67.1</ele>
        <time>2024-11-07T10:20:11.356Z</time>
      </trkpt>
      <trkpt lat="46.84097" lon="-1.27138">
        <ele>70</ele>
        <time>2024-11-07T10:20:34.117Z</time>
      </trkpt>
      <trkpt lat="46.84077" lon="-1.27133">
        <ele>70.4</ele>
        <time>2024-11-07T10:20:38.278Z</time>
      </trkpt>
      <trkpt lat="46.84051" lon="-1.27131">
        <ele>71</ele>
        <time>2024-11-07T10:20:43.814Z</time>
      </trkpt>
      <trkpt lat="46.84025" lon="-1.27133">
        <ele>71.1</ele>
        <time>2024-11-07T10:20:48.351Z</time>
      </trkpt>
      <trkpt lat="46.83984" lon="-1.27141">
        <ele>71.5</ele>
        <time>2024-11-07T10:20:55.988Z</time>
      </trkpt>
      <trkpt lat="46.83968" lon="-1.27142">
        <ele>71.1</ele>
        <time>2024-11-07T10:20:58.148Z</time>
      </trkpt>
      <trkpt lat="46.83944" lon="-1.2714">
        <ele>71</ele>
        <time>2024-11-07T10:21:02.030Z</time>
      </trkpt>
      <trkpt lat="46.83931" lon="-1.27134">
        <ele>71</ele>
        <time>2024-11-07T10:21:04.319Z</time>
      </trkpt>
      <trkpt lat="46.83907" lon="-1.27121">
        <ele>70.8</ele>
        <time>2024-11-07T10:21:08.317Z</time>
      </trkpt>
      <trkpt lat="46.83814" lon="-1.27058">
        <ele>67.7</ele>
        <time>2024-11-07T10:21:21.580Z</time>
      </trkpt>
      <trkpt lat="46.83801" lon="-1.27052">
        <ele>67.1</ele>
        <time>2024-11-07T10:21:23.173Z</time>
      </trkpt>
      <trkpt lat="46.83774" lon="-1.27047">
        <ele>66.3</ele>
        <time>2024-11-07T10:21:26.718Z</time>
      </trkpt>
      <trkpt lat="46.83716" lon="-1.27054">
        <ele>61.8</ele>
        <time>2024-11-07T10:21:32.582Z</time>
      </trkpt>
      <trkpt lat="46.83689" lon="-1.27054">
        <ele>61.1</ele>
        <time>2024-11-07T10:21:36.196Z</time>
      </trkpt>
      <trkpt lat="46.83625" lon="-1.27041">
        <ele>65</ele>
        <time>2024-11-07T10:21:57.855Z</time>
      </trkpt>
      <trkpt lat="46.83517" lon="-1.27034">
        <ele>70.1</ele>
        <time>2024-11-07T10:22:28.411Z</time>
      </trkpt>
      <trkpt lat="46.8341" lon="-1.27004">
        <ele>68.1</ele>
        <time>2024-11-07T10:22:43.932Z</time>
      </trkpt>
      <trkpt lat="46.83376" lon="-1.27006">
        <ele>67.6</ele>
        <time>2024-11-07T10:22:48.934Z</time>
      </trkpt>
      <trkpt lat="46.83365" lon="-1.27008">
        <ele>67.4</ele>
        <time>2024-11-07T10:22:50.517Z</time>
      </trkpt>
      <trkpt lat="46.83352" lon="-1.2701">
        <ele>67.4</ele>
        <time>2024-11-07T10:22:52.712Z</time>
      </trkpt>
      <trkpt lat="46.83301" lon="-1.27031">
        <ele>67</ele>
        <time>2024-11-07T10:23:01.007Z</time>
      </trkpt>
      <trkpt lat="46.83293" lon="-1.27036">
        <ele>66.9</ele>
        <time>2024-11-07T10:23:02.322Z</time>
      </trkpt>
      <trkpt lat="46.83267" lon="-1.27057">
        <ele>66.2</ele>
        <time>2024-11-07T10:23:06.376Z</time>
      </trkpt>
      <trkpt lat="46.83255" lon="-1.27065">
        <ele>67</ele>
        <time>2024-11-07T10:23:10.814Z</time>
      </trkpt>
      <trkpt lat="46.83243" lon="-1.27068">
        <ele>67.6</ele>
        <time>2024-11-07T10:23:14.348Z</time>
      </trkpt>
      <trkpt lat="46.83231" lon="-1.27069">
        <ele>68.1</ele>
        <time>2024-11-07T10:23:17.519Z</time>
      </trkpt>
      <trkpt lat="46.83162" lon="-1.27048">
        <ele>70.6</ele>
        <time>2024-11-07T10:23:34.788Z</time>
      </trkpt>
      <trkpt lat="46.83134" lon="-1.27033">
        <ele>69.8</ele>
        <time>2024-11-07T10:23:38.752Z</time>
      </trkpt>
      <trkpt lat="46.83107" lon="-1.27016">
        <ele>69.1</ele>
        <time>2024-11-07T10:23:42.756Z</time>
      </trkpt>
      <trkpt lat="46.83092" lon="-1.27011">
        <ele>67.6</ele>
        <time>2024-11-07T10:23:44.306Z</time>
      </trkpt>
      <trkpt lat="46.83081" lon="-1.27009">
        <ele>66.8</ele>
        <time>2024-11-07T10:23:45.422Z</time>
      </trkpt>
      <trkpt lat="46.83044" lon="-1.27011">
        <ele>64</ele>
        <time>2024-11-07T10:23:49.153Z</time>
      </trkpt>
      <trkpt lat="46.83009" lon="-1.27014">
        <ele>64</ele>
        <time>2024-11-07T10:23:55.040Z</time>
      </trkpt>
      <trkpt lat="46.83003" lon="-1.2701">
        <ele>64.2</ele>
        <time>2024-11-07T10:23:56.562Z</time>
      </trkpt>
      <trkpt lat="46.83" lon="-1.27013">
        <ele>64.5</ele>
        <time>2024-11-07T10:23:58.207Z</time>
      </trkpt>
      <trkpt lat="46.82997" lon="-1.27013">
        <ele>64.6</ele>
        <time>2024-11-07T10:23:58.924Z</time>
      </trkpt>
      <trkpt lat="46.82994" lon="-1.27011">
        <ele>64.6</ele>
        <time>2024-11-07T10:23:59.478Z</time>
      </trkpt>
      <trkpt lat="46.82993" lon="-1.27007">
        <ele>64.5</ele>
        <time>2024-11-07T10:23:59.843Z</time>
      </trkpt>
      <trkpt lat="46.82995" lon="-1.27">
        <ele>64.2</ele>
        <time>2024-11-07T10:24:00.396Z</time>
      </trkpt>
      <trkpt lat="46.83001" lon="-1.27">
        <ele>63.9</ele>
        <time>2024-11-07T10:24:01.068Z</time>
      </trkpt>
      <trkpt lat="46.83007" lon="-1.26989">
        <ele>62.8</ele>
        <time>2024-11-07T10:24:02.038Z</time>
      </trkpt>
      <trkpt lat="46.83023" lon="-1.26971">
        <ele>61.1</ele>
        <time>2024-11-07T10:24:04.072Z</time>
      </trkpt>
      <trkpt lat="46.83042" lon="-1.26946">
        <ele>59.1</ele>
        <time>2024-11-07T10:24:06.648Z</time>
      </trkpt>
      <trkpt lat="46.83062" lon="-1.26908">
        <ele>57.6</ele>
        <time>2024-11-07T10:24:10.434Z</time>
      </trkpt>
      <trkpt lat="46.83076" lon="-1.26878">
        <ele>56.2</ele>
        <time>2024-11-07T10:24:13.105Z</time>
      </trkpt>
      <trkpt lat="46.83099" lon="-1.26833">
        <ele>52.8</ele>
        <time>2024-11-07T10:24:16.977Z</time>
      </trkpt>
      <trkpt lat="46.83108" lon="-1.26814">
        <ele>54.3</ele>
        <time>2024-11-07T10:24:25.394Z</time>
      </trkpt>
      <trkpt lat="46.83118" lon="-1.2679">
        <ele>55</ele>
        <time>2024-11-07T10:24:30.158Z</time>
      </trkpt>
      <trkpt lat="46.83122" lon="-1.26775">
        <ele>54.8</ele>
        <time>2024-11-07T10:24:31.729Z</time>
      </trkpt>
      <trkpt lat="46.83125" lon="-1.26758">
        <ele>56.4</ele>
        <time>2024-11-07T10:24:40.372Z</time>
      </trkpt>
      <trkpt lat="46.83126" lon="-1.26735">
        <ele>58.2</ele>
        <time>2024-11-07T10:24:50.724Z</time>
      </trkpt>
      <trkpt lat="46.83124" lon="-1.26668">
        <ele>62.4</ele>
        <time>2024-11-07T10:25:14.131Z</time>
      </trkpt>
      <trkpt lat="46.83114" lon="-1.26392">
        <ele>66.9</ele>
        <time>2024-11-07T10:25:54.673Z</time>
      </trkpt>
      <trkpt lat="46.83114" lon="-1.26369">
        <ele>66.9</ele>
        <time>2024-11-07T10:25:57.315Z</time>
      </trkpt>
      <trkpt lat="46.83118" lon="-1.26338">
        <ele>66.5</ele>
        <time>2024-11-07T10:26:00.385Z</time>
      </trkpt>
      <trkpt lat="46.83124" lon="-1.2631">
        <ele>66.5</ele>
        <time>2024-11-07T10:26:03.756Z</time>
      </trkpt>
      <trkpt lat="46.83127" lon="-1.263">
        <ele>66.4</ele>
        <time>2024-11-07T10:26:04.867Z</time>
      </trkpt>
      <trkpt lat="46.83181" lon="-1.26163">
        <ele>67.1</ele>
        <time>2024-11-07T10:26:24.209Z</time>
      </trkpt>
      <trkpt lat="46.83223" lon="-1.2607">
        <ele>66</ele>
        <time>2024-11-07T10:26:35.440Z</time>
      </trkpt>
      <trkpt lat="46.8325" lon="-1.2604">
        <ele>65</ele>
        <time>2024-11-07T10:26:39.854Z</time>
      </trkpt>
      <trkpt lat="46.8338" lon="-1.25917">
        <ele>62.7</ele>
        <time>2024-11-07T10:27:02.584Z</time>
      </trkpt>
      <trkpt lat="46.83418" lon="-1.25866">
        <ele>63</ele>
        <time>2024-11-07T10:27:11.749Z</time>
      </trkpt>
      <trkpt lat="46.83556" lon="-1.25571">
        <ele>71.5</ele>
        <time>2024-11-07T10:28:11.159Z</time>
      </trkpt>
      <trkpt lat="46.83595" lon="-1.25479">
        <ele>74</ele>
        <time>2024-11-07T10:28:28.941Z</time>
      </trkpt>
      <trkpt lat="46.83635" lon="-1.25413">
        <ele>75.1</ele>
        <time>2024-11-07T10:28:41.115Z</time>
      </trkpt>
      <trkpt lat="46.83711" lon="-1.25326">
        <ele>76.7</ele>
        <time>2024-11-07T10:29:00.257Z</time>
      </trkpt>
      <trkpt lat="46.83753" lon="-1.25268">
        <ele>78</ele>
        <time>2024-11-07T10:29:12.470Z</time>
      </trkpt>
      <trkpt lat="46.83777" lon="-1.252">
        <ele>79.8</ele>
        <time>2024-11-07T10:29:25.132Z</time>
      </trkpt>
      <trkpt lat="46.83797" lon="-1.2511">
        <ele>80</ele>
        <time>2024-11-07T10:29:36.330Z</time>
      </trkpt>
      <trkpt lat="46.83827" lon="-1.24947">
        <ele>81.2</ele>
        <time>2024-11-07T10:29:57.806Z</time>
      </trkpt>
      <trkpt lat="46.83863" lon="-1.24762">
        <ele>81</ele>
        <time>2024-11-07T10:30:19.584Z</time>
      </trkpt>
      <trkpt lat="46.83904" lon="-1.2455">
        <ele>81</ele>
        <time>2024-11-07T10:30:44.890Z</time>
      </trkpt>
      <trkpt lat="46.8396" lon="-1.24256">
        <ele>77.1</ele>
        <time>2024-11-07T10:31:14.549Z</time>
      </trkpt>
      <trkpt lat="46.83979" lon="-1.24154">
        <ele>73.9</ele>
        <time>2024-11-07T10:31:22.984Z</time>
      </trkpt>
      <trkpt lat="46.83982" lon="-1.24097">
        <ele>72.2</ele>
        <time>2024-11-07T10:31:27.571Z</time>
      </trkpt>
      <trkpt lat="46.83979" lon="-1.24037">
        <ele>71.6</ele>
        <time>2024-11-07T10:31:33.625Z</time>
      </trkpt>
      <trkpt lat="46.83957" lon="-1.23931">
        <ele>73.7</ele>
        <time>2024-11-07T10:31:50.599Z</time>
      </trkpt>
      <trkpt lat="46.83943" lon="-1.23851">
        <ele>74.2</ele>
        <time>2024-11-07T10:32:00.942Z</time>
      </trkpt>
      <trkpt lat="46.83941" lon="-1.23807">
        <ele>75.3</ele>
        <time>2024-11-07T10:32:08.421Z</time>
      </trkpt>
      <trkpt lat="46.83943" lon="-1.23739">
        <ele>75.6</ele>
        <time>2024-11-07T10:32:16.744Z</time>
      </trkpt>
      <trkpt lat="46.83954" lon="-1.23631">
        <ele>81.2</ele>
        <time>2024-11-07T10:32:47.243Z</time>
      </trkpt>
      <trkpt lat="46.83966" lon="-1.23481">
        <ele>79</ele>
        <time>2024-11-07T10:33:01.604Z</time>
      </trkpt>
      <trkpt lat="46.83976" lon="-1.23351">
        <ele>79.9</ele>
        <time>2024-11-07T10:33:18.191Z</time>
      </trkpt>
      <trkpt lat="46.83984" lon="-1.23293">
        <ele>79.6</ele>
        <time>2024-11-07T10:33:24.535Z</time>
      </trkpt>
      <trkpt lat="46.84009" lon="-1.23206">
        <ele>78.7</ele>
        <time>2024-11-07T10:33:34.085Z</time>
      </trkpt>
      <trkpt lat="46.84063" lon="-1.23022">
        <ele>76.9</ele>
        <time>2024-11-07T10:33:54.488Z</time>
      </trkpt>
      <trkpt lat="46.84141" lon="-1.2276">
        <ele>76</ele>
        <time>2024-11-07T10:34:25.922Z</time>
      </trkpt>
      <trkpt lat="46.84165" lon="-1.22666">
        <ele>77</ele>
        <time>2024-11-07T10:34:39.249Z</time>
      </trkpt>
      <trkpt lat="46.84172" lon="-1.22616">
        <ele>77</ele>
        <time>2024-11-07T10:34:45.111Z</time>
      </trkpt>
      <trkpt lat="46.84174" lon="-1.22568">
        <ele>77</ele>
        <time>2024-11-07T10:34:50.634Z</time>
      </trkpt>
      <trkpt lat="46.84162" lon="-1.22432">
        <ele>78.2</ele>
        <time>2024-11-07T10:35:08.514Z</time>
      </trkpt>
      <trkpt lat="46.84154" lon="-1.22323">
        <ele>78.3</ele>
        <time>2024-11-07T10:35:21.267Z</time>
      </trkpt>
      <trkpt lat="46.84161" lon="-1.22144">
        <ele>78.9</ele>
        <time>2024-11-07T10:35:42.857Z</time>
      </trkpt>
      <trkpt lat="46.84168" lon="-1.2198">
        <ele>81</ele>
        <time>2024-11-07T10:36:05.652Z</time>
      </trkpt>
      <trkpt lat="46.84176" lon="-1.21904">
        <ele>80</ele>
        <time>2024-11-07T10:36:13.104Z</time>
      </trkpt>
      <trkpt lat="46.84186" lon="-1.21859">
        <ele>80</ele>
        <time>2024-11-07T10:36:18.538Z</time>
      </trkpt>
      <trkpt lat="46.84202" lon="-1.218">
        <ele>79.7</ele>
        <time>2024-11-07T10:36:25.375Z</time>
      </trkpt>
      <trkpt lat="46.84241" lon="-1.21722">
        <ele>79</ele>
        <time>2024-11-07T10:36:35.443Z</time>
      </trkpt>
      <trkpt lat="46.8432" lon="-1.21566">
        <ele>77</ele>
        <time>2024-11-07T10:36:54.895Z</time>
      </trkpt>
      <trkpt lat="46.84438" lon="-1.21336">
        <ele>73.7</ele>
        <time>2024-11-07T10:37:23.287Z</time>
      </trkpt>
      <trkpt lat="46.8446" lon="-1.21268">
        <ele>73.9</ele>
        <time>2024-11-07T10:37:32.256Z</time>
      </trkpt>
      <trkpt lat="46.84486" lon="-1.21134">
        <ele>76.1</ele>
        <time>2024-11-07T10:37:52.524Z</time>
      </trkpt>
      <trkpt lat="46.8453" lon="-1.20887">
        <ele>77</ele>
        <time>2024-11-07T10:38:23.338Z</time>
      </trkpt>
      <trkpt lat="46.84563" lon="-1.20718">
        <ele>74.6</ele>
        <time>2024-11-07T10:38:40.234Z</time>
      </trkpt>
      <trkpt lat="46.84612" lon="-1.2043">
        <ele>68</ele>
        <time>2024-11-07T10:39:06.044Z</time>
      </trkpt>
      <trkpt lat="46.84638" lon="-1.20282">
        <ele>65</ele>
        <time>2024-11-07T10:39:19.731Z</time>
      </trkpt>
      <trkpt lat="46.84652" lon="-1.20242">
        <ele>63.4</ele>
        <time>2024-11-07T10:39:23.129Z</time>
      </trkpt>
      <trkpt lat="46.84673" lon="-1.20213">
        <ele>62.6</ele>
        <time>2024-11-07T10:39:26.942Z</time>
      </trkpt>
      <trkpt lat="46.84743" lon="-1.2013">
        <ele>62.6</ele>
        <time>2024-11-07T10:39:42.076Z</time>
      </trkpt>
      <trkpt lat="46.84867" lon="-1.19971">
        <ele>61.5</ele>
        <time>2024-11-07T10:40:08.104Z</time>
      </trkpt>
      <trkpt lat="46.84941" lon="-1.19908">
        <ele>59.6</ele>
        <time>2024-11-07T10:40:19.921Z</time>
      </trkpt>
      <trkpt lat="46.84987" lon="-1.19863">
        <ele>60.2</ele>
        <time>2024-11-07T10:40:30.262Z</time>
      </trkpt>
      <trkpt lat="46.85011" lon="-1.19808">
        <ele>59.6</ele>
        <time>2024-11-07T10:40:36.891Z</time>
      </trkpt>
      <trkpt lat="46.85042" lon="-1.19718">
        <ele>56.2</ele>
        <time>2024-11-07T10:40:44.652Z</time>
      </trkpt>
      <trkpt lat="46.85057" lon="-1.19672">
        <ele>57.9</ele>
        <time>2024-11-07T10:40:54.704Z</time>
      </trkpt>
      <trkpt lat="46.85059" lon="-1.19645">
        <ele>57.8</ele>
        <time>2024-11-07T10:40:57.670Z</time>
      </trkpt>
      <trkpt lat="46.85055" lon="-1.19614">
        <ele>58.8</ele>
        <time>2024-11-07T10:41:03.705Z</time>
      </trkpt>
      <trkpt lat="46.85036" lon="-1.19544">
        <ele>60.2</ele>
        <time>2024-11-07T10:41:15.173Z</time>
      </trkpt>
      <trkpt lat="46.84991" lon="-1.19399">
        <ele>66.4</ele>
        <time>2024-11-07T10:41:50.064Z</time>
      </trkpt>
      <trkpt lat="46.84976" lon="-1.19352">
        <ele>66.8</ele>
        <time>2024-11-07T10:41:56.721Z</time>
      </trkpt>
      <trkpt lat="46.8498" lon="-1.19315">
        <ele>68.5</ele>
        <time>2024-11-07T10:42:06.026Z</time>
      </trkpt>
      <trkpt lat="46.84988" lon="-1.19284">
        <ele>69.8</ele>
        <time>2024-11-07T10:42:13.328Z</time>
      </trkpt>
      <trkpt lat="46.84982" lon="-1.19265">
        <ele>68.9</ele>
        <time>2024-11-07T10:42:14.804Z</time>
      </trkpt>
      <trkpt lat="46.84985" lon="-1.19246">
        <ele>69.5</ele>
        <time>2024-11-07T10:42:18.472Z</time>
      </trkpt>
      <trkpt lat="46.84997" lon="-1.19233">
        <ele>71.1</ele>
        <time>2024-11-07T10:42:27.645Z</time>
      </trkpt>
      <trkpt lat="46.85009" lon="-1.19221">
        <ele>71.6</ele>
        <time>2024-11-07T10:42:31.162Z</time>
      </trkpt>
      <trkpt lat="46.85027" lon="-1.19167">
        <ele>71.9</ele>
        <time>2024-11-07T10:42:38.569Z</time>
      </trkpt>
      <trkpt lat="46.85075" lon="-1.19019">
        <ele>71.7</ele>
        <time>2024-11-07T10:42:57.065Z</time>
      </trkpt>
      <trkpt lat="46.85092" lon="-1.18947">
        <ele>74.2</ele>
        <time>2024-11-07T10:43:11.941Z</time>
      </trkpt>
      <trkpt lat="46.85092" lon="-1.18887">
        <ele>75.4</ele>
        <time>2024-11-07T10:43:21.294Z</time>
      </trkpt>
      <trkpt lat="46.85082" lon="-1.18807">
        <ele>76.9</ele>
        <time>2024-11-07T10:43:33.648Z</time>
      </trkpt>
      <trkpt lat="46.85059" lon="-1.18653">
        <ele>76.1</ele>
        <time>2024-11-07T10:43:50.545Z</time>
      </trkpt>
      <trkpt lat="46.85034" lon="-1.18457">
        <ele>73.2</ele>
        <time>2024-11-07T10:44:09.505Z</time>
      </trkpt>
      <trkpt lat="46.84981" lon="-1.18092">
        <ele>77.1</ele>
        <time>2024-11-07T10:44:59.427Z</time>
      </trkpt>
      <trkpt lat="46.84963" lon="-1.17963">
        <ele>76</ele>
        <time>2024-11-07T10:45:12.950Z</time>
      </trkpt>
      <trkpt lat="46.84953" lon="-1.1795">
        <ele>76</ele>
        <time>2024-11-07T10:45:15.197Z</time>
      </trkpt>
      <trkpt lat="46.84944" lon="-1.17943">
        <ele>76</ele>
        <time>2024-11-07T10:45:16.908Z</time>
      </trkpt>
      <trkpt lat="46.84946" lon="-1.17926">
        <ele>76</ele>
        <time>2024-11-07T10:45:18.889Z</time>
      </trkpt>
      <trkpt lat="46.84955" lon="-1.1792">
        <ele>76</ele>
        <time>2024-11-07T10:45:20.550Z</time>
      </trkpt>
      <trkpt lat="46.84963" lon="-1.17896">
        <ele>75.8</ele>
        <time>2024-11-07T10:45:23.323Z</time>
      </trkpt>
      <trkpt lat="46.84974" lon="-1.17852">
        <ele>74.7</ele>
        <time>2024-11-07T10:45:27.341Z</time>
      </trkpt>
      <trkpt lat="46.84991" lon="-1.17794">
        <ele>73.6</ele>
        <time>2024-11-07T10:45:33.139Z</time>
      </trkpt>
      <trkpt lat="46.85005" lon="-1.17755">
        <ele>73.2</ele>
        <time>2024-11-07T10:45:37.622Z</time>
      </trkpt>
      <trkpt lat="46.85008" lon="-1.17734">
        <ele>72.9</ele>
        <time>2024-11-07T10:45:39.676Z</time>
      </trkpt>
      <trkpt lat="46.85007" lon="-1.1771">
        <ele>72.5</ele>
        <time>2024-11-07T10:45:41.906Z</time>
      </trkpt>
      <trkpt lat="46.85007" lon="-1.17677">
        <ele>72.5</ele>
        <time>2024-11-07T10:45:45.695Z</time>
      </trkpt>
      <trkpt lat="46.85011" lon="-1.17647">
        <ele>72.8</ele>
        <time>2024-11-07T10:45:49.745Z</time>
      </trkpt>
      <trkpt lat="46.85017" lon="-1.1762">
        <ele>73.2</ele>
        <time>2024-11-07T10:45:53.765Z</time>
      </trkpt>
      <trkpt lat="46.85021" lon="-1.17614">
        <ele>73.5</ele>
        <time>2024-11-07T10:45:55.495Z</time>
      </trkpt>
      <trkpt lat="46.85034" lon="-1.17617">
        <ele>74.2</ele>
        <time>2024-11-07T10:45:59.511Z</time>
      </trkpt>
      <trkpt lat="46.85058" lon="-1.1761">
        <ele>75.1</ele>
        <time>2024-11-07T10:46:05.601Z</time>
      </trkpt>
      <trkpt lat="46.85044" lon="-1.17555">
        <ele>75.2</ele>
        <time>2024-11-07T10:46:12.503Z</time>
      </trkpt>
      <trkpt lat="46.8503" lon="-1.17491">
        <ele>74.1</ele>
        <time>2024-11-07T10:46:18.755Z</time>
      </trkpt>
      <trkpt lat="46.85031" lon="-1.17458">
        <ele>74.1</ele>
        <time>2024-11-07T10:46:22.549Z</time>
      </trkpt>
      <trkpt lat="46.8503" lon="-1.17419">
        <ele>74</ele>
        <time>2024-11-07T10:46:26.876Z</time>
      </trkpt>
      <trkpt lat="46.85025" lon="-1.1738">
        <ele>74.4</ele>
        <time>2024-11-07T10:46:32.154Z</time>
      </trkpt>
      <trkpt lat="46.84997" lon="-1.17304">
        <ele>75.1</ele>
        <time>2024-11-07T10:46:43.300Z</time>
      </trkpt>
      <trkpt lat="46.84991" lon="-1.17303">
        <ele>75.3</ele>
        <time>2024-11-07T10:46:44.740Z</time>
      </trkpt>
      <trkpt lat="46.84994" lon="-1.17295">
        <ele>75.2</ele>
        <time>2024-11-07T10:46:45.646Z</time>
      </trkpt>
      <trkpt lat="46.84997" lon="-1.17286">
        <ele>75.1</ele>
        <time>2024-11-07T10:46:46.654Z</time>
      </trkpt>
      <trkpt lat="46.85003" lon="-1.17229">
        <ele>76.1</ele>
        <time>2024-11-07T10:46:55.258Z</time>
      </trkpt>
      <trkpt lat="46.8504" lon="-1.17083">
        <ele>80</ele>
        <time>2024-11-07T10:47:21.709Z</time>
      </trkpt>
      <trkpt lat="46.85067" lon="-1.16989">
        <ele>82.2</ele>
        <time>2024-11-07T10:47:38.029Z</time>
      </trkpt>
      <trkpt lat="46.85145" lon="-1.16811">
        <ele>86</ele>
        <time>2024-11-07T10:48:09.897Z</time>
      </trkpt>
      <trkpt lat="46.85164" lon="-1.16764">
        <ele>87.4</ele>
        <time>2024-11-07T10:48:19.269Z</time>
      </trkpt>
      <trkpt lat="46.85171" lon="-1.16731">
        <ele>88.1</ele>
        <time>2024-11-07T10:48:24.678Z</time>
      </trkpt>
      <trkpt lat="46.85173" lon="-1.16716">
        <ele>88.4</ele>
        <time>2024-11-07T10:48:27.045Z</time>
      </trkpt>
      <trkpt lat="46.85172" lon="-1.16703">
        <ele>88.8</ele>
        <time>2024-11-07T10:48:29.497Z</time>
      </trkpt>
      <trkpt lat="46.85168" lon="-1.16692">
        <ele>89</ele>
        <time>2024-11-07T10:48:31.318Z</time>
      </trkpt>
      <trkpt lat="46.85168" lon="-1.16678">
        <ele>89</ele>
        <time>2024-11-07T10:48:32.925Z</time>
      </trkpt>
      <trkpt lat="46.85175" lon="-1.16665">
        <ele>89</ele>
        <time>2024-11-07T10:48:34.826Z</time>
      </trkpt>
      <trkpt lat="46.85186" lon="-1.16656">
        <ele>89.3</ele>
        <time>2024-11-07T10:48:37.528Z</time>
      </trkpt>
      <trkpt lat="46.85193" lon="-1.16637">
        <ele>89.9</ele>
        <time>2024-11-07T10:48:41.377Z</time>
      </trkpt>
      <trkpt lat="46.85224" lon="-1.16502">
        <ele>92.9</ele>
        <time>2024-11-07T10:49:03.975Z</time>
      </trkpt>
      <trkpt lat="46.85296" lon="-1.16188">
        <ele>94.7</ele>
        <time>2024-11-07T10:49:45.073Z</time>
      </trkpt>
      <trkpt lat="46.85365" lon="-1.15887">
        <ele>97</ele>
        <time>2024-11-07T10:50:25.535Z</time>
      </trkpt>
      <trkpt lat="46.85465" lon="-1.15437">
        <ele>94</ele>
        <time>2024-11-07T10:51:15.416Z</time>
      </trkpt>
      <trkpt lat="46.85531" lon="-1.15135">
        <ele>95.9</ele>
        <time>2024-11-07T10:51:55.082Z</time>
      </trkpt>
      <trkpt lat="46.85616" lon="-1.14751">
        <ele>98</ele>
        <time>2024-11-07T10:52:44.997Z</time>
      </trkpt>
      <trkpt lat="46.85626" lon="-1.14689">
        <ele>97.6</ele>
        <time>2024-11-07T10:52:51.717Z</time>
      </trkpt>
      <trkpt lat="46.85638" lon="-1.14589">
        <ele>99.8</ele>
        <time>2024-11-07T10:53:07.992Z</time>
      </trkpt>
      <trkpt lat="46.85668" lon="-1.1435">
        <ele>105.5</ele>
        <time>2024-11-07T10:53:48.151Z</time>
      </trkpt>
      <trkpt lat="46.85682" lon="-1.14225">
        <ele>106.1</ele>
        <time>2024-11-07T10:54:03.709Z</time>
      </trkpt>
      <trkpt lat="46.85694" lon="-1.14168">
        <ele>107.9</ele>
        <time>2024-11-07T10:54:14.808Z</time>
      </trkpt>
      <trkpt lat="46.85711" lon="-1.14118">
        <ele>106.4</ele>
        <time>2024-11-07T10:54:19.423Z</time>
      </trkpt>
      <trkpt lat="46.85734" lon="-1.14075">
        <ele>105.5</ele>
        <time>2024-11-07T10:54:24.495Z</time>
      </trkpt>
      <trkpt lat="46.85765" lon="-1.14033">
        <ele>105.1</ele>
        <time>2024-11-07T10:54:30.998Z</time>
      </trkpt>
      <trkpt lat="46.85798" lon="-1.14004">
        <ele>105</ele>
        <time>2024-11-07T10:54:37.307Z</time>
      </trkpt>
      <trkpt lat="46.85858" lon="-1.13967">
        <ele>105.5</ele>
        <time>2024-11-07T10:54:49.091Z</time>
      </trkpt>
      <trkpt lat="46.859" lon="-1.13941">
        <ele>105.5</ele>
        <time>2024-11-07T10:54:56.749Z</time>
      </trkpt>
      <trkpt lat="46.85944" lon="-1.13898">
        <ele>105</ele>
        <time>2024-11-07T10:55:04.894Z</time>
      </trkpt>
      <trkpt lat="46.85984" lon="-1.13846">
        <ele>104.3</ele>
        <time>2024-11-07T10:55:12.872Z</time>
      </trkpt>
      <trkpt lat="46.86012" lon="-1.13795">
        <ele>104</ele>
        <time>2024-11-07T10:55:19.927Z</time>
      </trkpt>
      <trkpt lat="46.86051" lon="-1.13713">
        <ele>104.3</ele>
        <time>2024-11-07T10:55:31.892Z</time>
      </trkpt>
      <trkpt lat="46.86104" lon="-1.13608">
        <ele>105</ele>
        <time>2024-11-07T10:55:48.069Z</time>
      </trkpt>
      <trkpt lat="46.86183" lon="-1.13449">
        <ele>105</ele>
        <time>2024-11-07T10:56:10.636Z</time>
      </trkpt>
      <trkpt lat="46.86239" lon="-1.13337">
        <ele>105</ele>
        <time>2024-11-07T10:56:26.567Z</time>
      </trkpt>
      <trkpt lat="46.86306" lon="-1.13202">
        <ele>104</ele>
        <time>2024-11-07T10:56:44.229Z</time>
      </trkpt>
      <trkpt lat="46.86325" lon="-1.13164">
        <ele>103.9</ele>
        <time>2024-11-07T10:56:49.478Z</time>
      </trkpt>
      <trkpt lat="46.86351" lon="-1.13089">
        <ele>103</ele>
        <time>2024-11-07T10:56:57.859Z</time>
      </trkpt>
      <trkpt lat="46.86379" lon="-1.12983">
        <ele>101.1</ele>
        <time>2024-11-07T10:57:08.385Z</time>
      </trkpt>
      <trkpt lat="46.86406" lon="-1.12888">
        <ele>100.4</ele>
        <time>2024-11-07T10:57:19.163Z</time>
      </trkpt>
      <trkpt lat="46.8642" lon="-1.12832">
        <ele>100</ele>
        <time>2024-11-07T10:57:25.417Z</time>
      </trkpt>
      <trkpt lat="46.86439" lon="-1.12726">
        <ele>100</ele>
        <time>2024-11-07T10:57:37.999Z</time>
      </trkpt>
      <trkpt lat="46.86471" lon="-1.1252">
        <ele>99</ele>
        <time>2024-11-07T10:58:00.741Z</time>
      </trkpt>
      <trkpt lat="46.86509" lon="-1.12305">
        <ele>96</ele>
        <time>2024-11-07T10:58:22.118Z</time>
      </trkpt>
      <trkpt lat="46.86529" lon="-1.1222">
        <ele>94.9</ele>
        <time>2024-11-07T10:58:30.908Z</time>
      </trkpt>
      <trkpt lat="46.86583" lon="-1.12037">
        <ele>92.3</ele>
        <time>2024-11-07T10:58:50.205Z</time>
      </trkpt>
      <trkpt lat="46.86621" lon="-1.11916">
        <ele>90</ele>
        <time>2024-11-07T10:59:02.458Z</time>
      </trkpt>
      <trkpt lat="46.86629" lon="-1.11865">
        <ele>87.6</ele>
        <time>2024-11-07T10:59:06.062Z</time>
      </trkpt>
      <trkpt lat="46.86622" lon="-1.11821">
        <ele>86.2</ele>
        <time>2024-11-07T10:59:09.638Z</time>
      </trkpt>
      <trkpt lat="46.86602" lon="-1.11748">
        <ele>83.6</ele>
        <time>2024-11-07T10:59:15.733Z</time>
      </trkpt>
      <trkpt lat="46.86559" lon="-1.11594">
        <ele>86.5</ele>
        <time>2024-11-07T10:59:40.583Z</time>
      </trkpt>
      <trkpt lat="46.86492" lon="-1.11352">
        <ele>92.6</ele>
        <time>2024-11-07T11:00:23.659Z</time>
      </trkpt>
      <trkpt lat="46.86452" lon="-1.112">
        <ele>96</ele>
        <time>2024-11-07T11:00:49.418Z</time>
      </trkpt>
      <trkpt lat="46.86433" lon="-1.11098">
        <ele>97</ele>
        <time>2024-11-07T11:01:03.346Z</time>
      </trkpt>
      <trkpt lat="46.86395" lon="-1.10863">
        <ele>96.8</ele>
        <time>2024-11-07T11:01:30.755Z</time>
      </trkpt>
      <trkpt lat="46.86365" lon="-1.1069">
        <ele>95.6</ele>
        <time>2024-11-07T11:01:49.472Z</time>
      </trkpt>
      <trkpt lat="46.86345" lon="-1.1062">
        <ele>94.7</ele>
        <time>2024-11-07T11:01:56.925Z</time>
      </trkpt>
      <trkpt lat="46.8627" lon="-1.10414">
        <ele>94</ele>
        <time>2024-11-07T11:02:22.641Z</time>
      </trkpt>
      <trkpt lat="46.86188" lon="-1.10188">
        <ele>88.9</ele>
        <time>2024-11-07T11:02:45.471Z</time>
      </trkpt>
      <trkpt lat="46.86144" lon="-1.10074">
        <ele>86.5</ele>
        <time>2024-11-07T11:02:57.370Z</time>
      </trkpt>
      <trkpt lat="46.86098" lon="-1.10019">
        <ele>87</ele>
        <time>2024-11-07T11:03:08.203Z</time>
      </trkpt>
      <trkpt lat="46.86076" lon="-1.09993">
        <ele>87.7</ele>
        <time>2024-11-07T11:03:14.331Z</time>
      </trkpt>
      <trkpt lat="46.86049" lon="-1.09936">
        <ele>88.2</ele>
        <time>2024-11-07T11:03:23.164Z</time>
      </trkpt>
      <trkpt lat="46.86031" lon="-1.09897">
        <ele>88.9</ele>
        <time>2024-11-07T11:03:29.909Z</time>
      </trkpt>
      <trkpt lat="46.8601" lon="-1.0985">
        <ele>88.6</ele>
        <time>2024-11-07T11:03:35.905Z</time>
      </trkpt>
      <trkpt lat="46.86005" lon="-1.09847">
        <ele>88.5</ele>
        <time>2024-11-07T11:03:36.674Z</time>
      </trkpt>
      <trkpt lat="46.85986" lon="-1.09848">
        <ele>88.8</ele>
        <time>2024-11-07T11:03:40.413Z</time>
      </trkpt>
      <trkpt lat="46.85974" lon="-1.09847">
        <ele>89</ele>
        <time>2024-11-07T11:03:42.798Z</time>
      </trkpt>
      <trkpt lat="46.85969" lon="-1.09831">
        <ele>88.9</ele>
        <time>2024-11-07T11:03:44.668Z</time>
      </trkpt>
      <trkpt lat="46.85968" lon="-1.098">
        <ele>88.4</ele>
        <time>2024-11-07T11:03:47.564Z</time>
      </trkpt>
      <trkpt lat="46.85969" lon="-1.09785">
        <ele>88.9</ele>
        <time>2024-11-07T11:03:50.526Z</time>
      </trkpt>
      <trkpt lat="46.85975" lon="-1.09763">
        <ele>88.8</ele>
        <time>2024-11-07T11:03:53.094Z</time>
      </trkpt>
      <trkpt lat="46.85974" lon="-1.09752">
        <ele>88.9</ele>
        <time>2024-11-07T11:03:54.546Z</time>
      </trkpt>
      <trkpt lat="46.85963" lon="-1.09721">
        <ele>89.4</ele>
        <time>2024-11-07T11:03:59.508Z</time>
      </trkpt>
      <trkpt lat="46.85948" lon="-1.09672">
        <ele>90.7</ele>
        <time>2024-11-07T11:04:08.497Z</time>
      </trkpt>
      <trkpt lat="46.85943" lon="-1.0966">
        <ele>91.3</ele>
        <time>2024-11-07T11:04:11.809Z</time>
      </trkpt>
      <trkpt lat="46.85957" lon="-1.09645">
        <ele>91</ele>
        <time>2024-11-07T11:04:14.304Z</time>
      </trkpt>
      <trkpt lat="46.85976" lon="-1.0962">
        <ele>89.8</ele>
        <time>2024-11-07T11:04:17.229Z</time>
        <extensions>
          <visugpx:TrkExtension xmlns:visugpx="https://www.visugpx.com/editgpx/">
            <visugpx:node>1</visugpx:node>
            </visugpx:TrkExtension>
        </extensions>
      </trkpt>
      <trkpt lat="46.85977" lon="-1.09619">
        <ele>89.7</ele>
        <time>2024-11-07T11:04:17.351Z</time>
      </trkpt>
      <trkpt lat="46.85982" lon="-1.09609">
        <ele>89.3</ele>
        <time>2024-11-07T11:04:18.319Z</time>
      </trkpt>
      <trkpt lat="46.85984" lon="-1.09598">
        <ele>89.2</ele>
        <time>2024-11-07T11:04:19.482Z</time>
      </trkpt>
      <trkpt lat="46.85985" lon="-1.09585">
        <ele>89.2</ele>
        <time>2024-11-07T11:04:20.984Z</time>
      </trkpt>
      <trkpt lat="46.85984" lon="-1.09568">
        <ele>89.3</ele>
        <time>2024-11-07T11:04:23.114Z</time>
      </trkpt>
      <trkpt lat="46.85972" lon="-1.09502">
        <ele>90</ele>
        <time>2024-11-07T11:04:32.221Z</time>
      </trkpt>
      <trkpt lat="46.8595" lon="-1.09393">
        <ele>89.9</ele>
        <time>2024-11-07T11:04:45.113Z</time>
      </trkpt>
      <trkpt lat="46.85934" lon="-1.09347">
        <ele>88.9</ele>
        <time>2024-11-07T11:04:49.748Z</time>
      </trkpt>
      <trkpt lat="46.85887" lon="-1.09245">
        <ele>84.8</ele>
        <time>2024-11-07T11:04:59.257Z</time>
      </trkpt>
      <trkpt lat="46.85878" lon="-1.09223">
        <ele>84</ele>
        <time>2024-11-07T11:05:01.282Z</time>
      </trkpt>
      <trkpt lat="46.85872" lon="-1.09204">
        <ele>83.1</ele>
        <time>2024-11-07T11:05:02.758Z</time>
      </trkpt>
      <trkpt lat="46.85867" lon="-1.09178">
        <ele>81.7</ele>
        <time>2024-11-07T11:05:04.618Z</time>
      </trkpt>
      <trkpt lat="46.85863" lon="-1.09135">
        <ele>79</ele>
        <time>2024-11-07T11:05:07.608Z</time>
      </trkpt>
      <trkpt lat="46.85862" lon="-1.09035">
        <ele>79.9</ele>
        <time>2024-11-07T11:05:20.694Z</time>
      </trkpt>
      <trkpt lat="46.85862" lon="-1.09021">
        <ele>79.9</ele>
        <time>2024-11-07T11:05:22.301Z</time>
      </trkpt>
      <trkpt lat="46.8586" lon="-1.08993">
        <ele>79.9</ele>
        <time>2024-11-07T11:05:25.534Z</time>
      </trkpt>
      <trkpt lat="46.85858" lon="-1.08982">
        <ele>79.8</ele>
        <time>2024-11-07T11:05:26.696Z</time>
      </trkpt>
      <trkpt lat="46.85836" lon="-1.08923">
        <ele>78.9</ele>
        <time>2024-11-07T11:05:33.176Z</time>
      </trkpt>
      <trkpt lat="46.85818" lon="-1.08884">
        <ele>79.1</ele>
        <time>2024-11-07T11:05:38.914Z</time>
      </trkpt>
      <trkpt lat="46.85749" lon="-1.08786">
        <ele>82.3</ele>
        <time>2024-11-07T11:06:01.881Z</time>
      </trkpt>
      <trkpt lat="46.85745" lon="-1.08777">
        <ele>82.7</ele>
        <time>2024-11-07T11:06:04.159Z</time>
      </trkpt>
      <trkpt lat="46.85741" lon="-1.08761">
        <ele>83.2</ele>
        <time>2024-11-07T11:06:07.282Z</time>
      </trkpt>
      <trkpt lat="46.85742" lon="-1.0875">
        <ele>83.7</ele>
        <time>2024-11-07T11:06:10.021Z</time>
      </trkpt>
      <trkpt lat="46.85744" lon="-1.08741">
        <ele>84.1</ele>
        <time>2024-11-07T11:06:12.232Z</time>
      </trkpt>
      <trkpt lat="46.85772" lon="-1.08696">
        <ele>85.7</ele>
        <time>2024-11-07T11:06:22.796Z</time>
      </trkpt>
      <trkpt lat="46.8585" lon="-1.08536">
        <ele>90.7</ele>
        <time>2024-11-07T11:06:56.408Z</time>
      </trkpt>
      <trkpt lat="46.85834" lon="-1.0851">
        <ele>91</ele>
        <time>2024-11-07T11:07:00.955Z</time>
      </trkpt>
      <trkpt lat="46.85826" lon="-1.08495">
        <ele>91.1</ele>
        <time>2024-11-07T11:07:03.310Z</time>
      </trkpt>
      <trkpt lat="46.85815" lon="-1.08467">
        <ele>91.5</ele>
        <time>2024-11-07T11:07:07.761Z</time>
      </trkpt>
      <trkpt lat="46.85807" lon="-1.08443">
        <ele>92</ele>
        <time>2024-11-07T11:07:11.835Z</time>
      </trkpt>
      <trkpt lat="46.85806" lon="-1.08437">
        <ele>92</ele>
        <time>2024-11-07T11:07:12.544Z</time>
        <extensions>
          <visugpx:TrkExtension xmlns:visugpx="https://www.visugpx.com/editgpx/">
            <visugpx:node>2</visugpx:node>
            </visugpx:TrkExtension>
        </extensions>
      </trkpt>
      <trkpt lat="46.85749" lon="-1.08202">
        <ele>93</ele>
        <time>2024-11-07T11:07:42.850Z</time>
      </trkpt>
      <trkpt lat="46.85741" lon="-1.0815">
        <ele>93.6</ele>
        <time>2024-11-07T11:07:50.069Z</time>
      </trkpt>
      <trkpt lat="46.85731" lon="-1.08013">
        <ele>94.2</ele>
        <time>2024-11-07T11:08:06.899Z</time>
      </trkpt>
      <trkpt lat="46.85726" lon="-1.07932">
        <ele>94.4</ele>
        <time>2024-11-07T11:08:16.566Z</time>
      </trkpt>
      <trkpt lat="46.85725" lon="-1.07875">
        <ele>95</ele>
        <time>2024-11-07T11:08:24.202Z</time>
      </trkpt>
      <trkpt lat="46.85729" lon="-1.07741">
        <ele>95.8</ele>
        <time>2024-11-07T11:08:40.975Z</time>
      </trkpt>
      <trkpt lat="46.85724" lon="-1.07583">
        <ele>96.9</ele>
        <time>2024-11-07T11:09:01.047Z</time>
      </trkpt>
      <trkpt lat="46.85722" lon="-1.07539">
        <ele>97</ele>
        <time>2024-11-07T11:09:06.274Z</time>
      </trkpt>
      <trkpt lat="46.85688" lon="-1.07374">
        <ele>98.1</ele>
        <time>2024-11-07T11:09:27.958Z</time>
      </trkpt>
      <trkpt lat="46.85674" lon="-1.07307">
        <ele>98</ele>
        <time>2024-11-07T11:09:35.845Z</time>
      </trkpt>
      <trkpt lat="46.85671" lon="-1.07275">
        <ele>97.8</ele>
        <time>2024-11-07T11:09:39.257Z</time>
      </trkpt>
      <trkpt lat="46.85677" lon="-1.07191">
        <ele>98</ele>
        <time>2024-11-07T11:09:49.283Z</time>
      </trkpt>
      <trkpt lat="46.85685" lon="-1.07144">
        <ele>97.9</ele>
        <time>2024-11-07T11:09:54.689Z</time>
      </trkpt>
      <trkpt lat="46.85768" lon="-1.06678">
        <ele>101</ele>
        <time>2024-11-07T11:10:55.330Z</time>
      </trkpt>
      <trkpt lat="46.85806" lon="-1.06548">
        <ele>100</ele>
        <time>2024-11-07T11:11:10.091Z</time>
      </trkpt>
      <trkpt lat="46.85812" lon="-1.06514">
        <ele>100</ele>
        <time>2024-11-07T11:11:14.123Z</time>
      </trkpt>
      <trkpt lat="46.85814" lon="-1.06502">
        <ele>100</ele>
        <time>2024-11-07T11:11:15.542Z</time>
      </trkpt>
      <trkpt lat="46.85819" lon="-1.06243">
        <ele>98.4</ele>
        <time>2024-11-07T11:11:42.913Z</time>
      </trkpt>
      <trkpt lat="46.85836" lon="-1.06104">
        <ele>96.8</ele>
        <time>2024-11-07T11:11:56.879Z</time>
      </trkpt>
      <trkpt lat="46.85842" lon="-1.06021">
        <ele>95.8</ele>
        <time>2024-11-07T11:12:05.067Z</time>
      </trkpt>
      <trkpt lat="46.85833" lon="-1.05967">
        <ele>94</ele>
        <time>2024-11-07T11:12:09.405Z</time>
        <extensions>
          <visugpx:TrkExtension xmlns:visugpx="https://www.visugpx.com/editgpx/">
            <visugpx:node>3</visugpx:node>
            </visugpx:TrkExtension>
        </extensions>
      </trkpt>
      <trkpt lat="46.85831" lon="-1.05952">
        <ele>94</ele>
        <time>2024-11-07T11:12:11.160Z</time>
      </trkpt>
      <trkpt lat="46.85774" lon="-1.05756">
        <ele>91.3</ele>
        <time>2024-11-07T11:12:31.877Z</time>
      </trkpt>
      <trkpt lat="46.85765" lon="-1.05715">
        <ele>92.5</ele>
        <time>2024-11-07T11:12:39.564Z</time>
      </trkpt>
      <trkpt lat="46.85736" lon="-1.05596">
        <ele>94.7</ele>
        <time>2024-11-07T11:12:58.432Z</time>
      </trkpt>
      <trkpt lat="46.85704" lon="-1.05438">
        <ele>97.2</ele>
        <time>2024-11-07T11:13:22.167Z</time>
      </trkpt>
      <trkpt lat="46.85702" lon="-1.05385">
        <ele>98</ele>
        <time>2024-11-07T11:13:29.801Z</time>
      </trkpt>
      <trkpt lat="46.85705" lon="-1.05351">
        <ele>98.2</ele>
        <time>2024-11-07T11:13:34.080Z</time>
      </trkpt>
      <trkpt lat="46.85725" lon="-1.05259">
        <ele>98</ele>
        <time>2024-11-07T11:13:44.853Z</time>
      </trkpt>
      <trkpt lat="46.85741" lon="-1.05153">
        <ele>99.3</ele>
        <time>2024-11-07T11:13:59.720Z</time>
      </trkpt>
      <trkpt lat="46.85747" lon="-1.05001">
        <ele>101</ele>
        <time>2024-11-07T11:14:20.312Z</time>
      </trkpt>
      <trkpt lat="46.85741" lon="-1.04944">
        <ele>101</ele>
        <time>2024-11-07T11:14:26.935Z</time>
      </trkpt>
      <trkpt lat="46.85737" lon="-1.04911">
        <ele>101.6</ele>
        <time>2024-11-07T11:14:31.980Z</time>
      </trkpt>
      <trkpt lat="46.85723" lon="-1.04803">
        <ele>103</ele>
        <time>2024-11-07T11:14:47.215Z</time>
      </trkpt>
      <trkpt lat="46.85722" lon="-1.04782">
        <ele>103</ele>
        <time>2024-11-07T11:14:49.632Z</time>
      </trkpt>
      <trkpt lat="46.85723" lon="-1.0477">
        <ele>103</ele>
        <time>2024-11-07T11:14:51.020Z</time>
      </trkpt>
      <trkpt lat="46.85723" lon="-1.04767">
        <ele>103</ele>
        <time>2024-11-07T11:14:51.365Z</time>
      </trkpt>
      <trkpt lat="46.85727" lon="-1.04737">
        <ele>103</ele>
        <time>2024-11-07T11:14:54.874Z</time>
      </trkpt>
      <trkpt lat="46.85734" lon="-1.04684">
        <ele>103.6</ele>
        <time>2024-11-07T11:15:02.169Z</time>
      </trkpt>
      <trkpt lat="46.85738" lon="-1.04656">
        <ele>104</ele>
        <time>2024-11-07T11:15:06.212Z</time>
      </trkpt>
      <trkpt lat="46.85741" lon="-1.04618">
        <ele>104</ele>
        <time>2024-11-07T11:15:10.605Z</time>
      </trkpt>
      <trkpt lat="46.85742" lon="-1.04587">
        <ele>104</ele>
        <time>2024-11-07T11:15:14.168Z</time>
      </trkpt>
      <trkpt lat="46.8574" lon="-1.04541">
        <ele>104.6</ele>
        <time>2024-11-07T11:15:20.585Z</time>
      </trkpt>
      <trkpt lat="46.85733" lon="-1.045">
        <ele>104.4</ele>
        <time>2024-11-07T11:15:25.135Z</time>
      </trkpt>
      <trkpt lat="46.85727" lon="-1.04489">
        <ele>104.2</ele>
        <time>2024-11-07T11:15:26.478Z</time>
      </trkpt>
      <trkpt lat="46.85708" lon="-1.04479">
        <ele>104</ele>
        <time>2024-11-07T11:15:29.573Z</time>
      </trkpt>
      <trkpt lat="46.85699" lon="-1.04482">
        <ele>104</ele>
        <time>2024-11-07T11:15:31.123Z</time>
      </trkpt>
      <trkpt lat="46.85692" lon="-1.04479">
        <ele>103.8</ele>
        <time>2024-11-07T11:15:32.088Z</time>
      </trkpt>
      <trkpt lat="46.85687" lon="-1.04472">
        <ele>103.5</ele>
        <time>2024-11-07T11:15:32.901Z</time>
      </trkpt>
      <trkpt lat="46.85686" lon="-1.04468">
        <ele>103.4</ele>
        <time>2024-11-07T11:15:33.266Z</time>
      </trkpt>
      <trkpt lat="46.85684" lon="-1.04457">
        <ele>103.5</ele>
        <time>2024-11-07T11:15:34.751Z</time>
      </trkpt>
      <trkpt lat="46.85672" lon="-1.04435">
        <ele>103.1</ele>
        <time>2024-11-07T11:15:37.437Z</time>
      </trkpt>
      <trkpt lat="46.85665" lon="-1.04428">
        <ele>102.9</ele>
        <time>2024-11-07T11:15:38.594Z</time>
      </trkpt>
      <trkpt lat="46.8566" lon="-1.04424">
        <ele>102.8</ele>
        <time>2024-11-07T11:15:39.412Z</time>
      </trkpt>
      <trkpt lat="46.85653" lon="-1.04418">
        <ele>102.5</ele>
        <time>2024-11-07T11:15:40.409Z</time>
        <extensions>
          <visugpx:TrkExtension xmlns:visugpx="https://www.visugpx.com/editgpx/">
            <visugpx:node>4</visugpx:node>
            </visugpx:TrkExtension>
        </extensions>
      </trkpt>
      <trkpt lat="46.8565" lon="-1.04415">
        <ele>102.4</ele>
        <time>2024-11-07T11:15:40.890Z</time>
      </trkpt>
      <trkpt lat="46.85621" lon="-1.0439">
        <ele>101.4</ele>
        <time>2024-11-07T11:15:45.264Z</time>
      </trkpt>
      <trkpt lat="46.85597" lon="-1.0437">
        <ele>101</ele>
        <time>2024-11-07T11:15:49.332Z</time>
      </trkpt>
      <trkpt lat="46.85545" lon="-1.04324">
        <ele>100.8</ele>
        <time>2024-11-07T11:15:59.226Z</time>
      </trkpt>
      <trkpt lat="46.85465" lon="-1.04254">
        <ele>101</ele>
        <time>2024-11-07T11:16:15.206Z</time>
      </trkpt>
      <trkpt lat="46.85423" lon="-1.04217">
        <ele>101</ele>
        <time>2024-11-07T11:16:23.439Z</time>
      </trkpt>
      <trkpt lat="46.85426" lon="-1.04198">
        <ele>101</ele>
        <time>2024-11-07T11:16:25.678Z</time>
      </trkpt>
      <trkpt lat="46.85428" lon="-1.04191">
        <ele>101.1</ele>
        <time>2024-11-07T11:16:26.737Z</time>
      </trkpt>
      <trkpt lat="46.85442" lon="-1.04155">
        <ele>101.5</ele>
        <time>2024-11-07T11:16:32.211Z</time>
      </trkpt>
      <trkpt lat="46.85454" lon="-1.04127">
        <ele>101.3</ele>
        <time>2024-11-07T11:16:35.707Z</time>
      </trkpt>
      <trkpt lat="46.85467" lon="-1.04097">
        <ele>101.8</ele>
        <time>2024-11-07T11:16:40.735Z</time>
      </trkpt>
      <trkpt lat="46.85501" lon="-1.04018">
        <ele>102</ele>
        <time>2024-11-07T11:16:51.781Z</time>
      </trkpt>
      <trkpt lat="46.85519" lon="-1.03972">
        <ele>102.7</ele>
        <time>2024-11-07T11:16:59.181Z</time>
      </trkpt>
      <trkpt lat="46.85559" lon="-1.03877">
        <ele>104</ele>
        <time>2024-11-07T11:17:14.385Z</time>
      </trkpt>
      <trkpt lat="46.85585" lon="-1.03812">
        <ele>104.1</ele>
        <time>2024-11-07T11:17:23.194Z</time>
      </trkpt>
      <trkpt lat="46.85587" lon="-1.03794">
        <ele>104.1</ele>
        <time>2024-11-07T11:17:25.288Z</time>
      </trkpt>
      <trkpt lat="46.85578" lon="-1.03724">
        <ele>102.8</ele>
        <time>2024-11-07T11:17:31.769Z</time>
      </trkpt>
      <trkpt lat="46.85564" lon="-1.03695">
        <ele>102</ele>
        <time>2024-11-07T11:17:34.846Z</time>
      </trkpt>
      <trkpt lat="46.85554" lon="-1.03674">
        <ele>101.2</ele>
        <time>2024-11-07T11:17:36.866Z</time>
      </trkpt>
      <trkpt lat="46.85554" lon="-1.0367">
        <ele>101.1</ele>
        <time>2024-11-07T11:17:37.203Z</time>
      </trkpt>
      <trkpt lat="46.85593" lon="-1.03658">
        <ele>101.8</ele>
        <time>2024-11-07T11:17:45.190Z</time>
      </trkpt>
      <trkpt lat="46.85624" lon="-1.03649">
        <ele>102.5</ele>
        <time>2024-11-07T11:17:51.844Z</time>
      </trkpt>
      <trkpt lat="46.85652" lon="-1.03641">
        <ele>103</ele>
        <time>2024-11-07T11:17:57.559Z</time>
        <extensions>
          <visugpx:TrkExtension xmlns:visugpx="https://www.visugpx.com/editgpx/">
            <visugpx:node>5</visugpx:node>
            </visugpx:TrkExtension>
        </extensions>
      </trkpt>
      <trkpt lat="46.85704" lon="-1.03625">
        <ele>104.2</ele>
        <time>2024-11-07T11:18:08.801Z</time>
      </trkpt>
      <trkpt lat="46.85722" lon="-1.0362">
        <ele>104.3</ele>
        <time>2024-11-07T11:18:12.044Z</time>
      </trkpt>
      <trkpt lat="46.85747" lon="-1.03622">
        <ele>104.9</ele>
        <time>2024-11-07T11:18:17.422Z</time>
      </trkpt>
      <trkpt lat="46.85754" lon="-1.03625">
        <ele>105.1</ele>
        <time>2024-11-07T11:18:19.051Z</time>
      </trkpt>
      <trkpt lat="46.85822" lon="-1.03659">
        <ele>107.4</ele>
        <time>2024-11-07T11:18:35.959Z</time>
      </trkpt>
      <trkpt lat="46.85857" lon="-1.03677">
        <ele>108</ele>
        <time>2024-11-07T11:18:43.285Z</time>
      </trkpt>
      <trkpt lat="46.85858" lon="-1.03673">
        <ele>108</ele>
        <time>2024-11-07T11:18:43.775Z</time>
      </trkpt>
      <trkpt lat="46.85862" lon="-1.03628">
        <ele>107.6</ele>
        <time>2024-11-07T11:18:48.407Z</time>
      </trkpt>
      <trkpt lat="46.85865" lon="-1.036">
        <ele>107.1</ele>
        <time>2024-11-07T11:18:51.005Z</time>
      </trkpt>
      <trkpt lat="46.85871" lon="-1.03556">
        <ele>107</ele>
        <time>2024-11-07T11:18:56.001Z</time>
      </trkpt>
      <trkpt lat="46.85877" lon="-1.03544">
        <ele>106.8</ele>
        <time>2024-11-07T11:18:57.433Z</time>
      </trkpt>
      <trkpt lat="46.85904" lon="-1.03499">
        <ele>107</ele>
        <time>2024-11-07T11:19:04.639Z</time>
        <extensions>
          <visugpx:TrkExtension xmlns:visugpx="https://www.visugpx.com/editgpx/">
            <visugpx:node>6</visugpx:node>
            </visugpx:TrkExtension>
        </extensions>
      </trkpt>
      <trkpt lat="46.85975" lon="-1.03385">
        <ele>109.2</ele>
        <time>2024-11-07T11:19:26.532Z</time>
      </trkpt>
      <trkpt lat="46.8596" lon="-1.03364">
        <ele>108.6</ele>
        <time>2024-11-07T11:19:29.247Z</time>
      </trkpt>
      <trkpt lat="46.85908" lon="-1.03178">
        <ele>106.4</ele>
        <time>2024-11-07T11:19:49.216Z</time>
        <extensions>
          <visugpx:TrkExtension xmlns:visugpx="https://www.visugpx.com/editgpx/">
            <visugpx:node>7</visugpx:node>
            </visugpx:TrkExtension>
        </extensions>
      </trkpt>
      <trkpt lat="46.85902" lon="-1.03158">
        <ele>106.6</ele>
        <time>2024-11-07T11:19:52.080Z</time>
      </trkpt>
      <trkpt lat="46.85896" lon="-1.03128">
        <ele>107.1</ele>
        <time>2024-11-07T11:19:56.642Z</time>
      </trkpt>
      <trkpt lat="46.85894" lon="-1.03089">
        <ele>107.8</ele>
        <time>2024-11-07T11:20:02.530Z</time>
      </trkpt>
      <trkpt lat="46.85889" lon="-1.03049">
        <ele>108</ele>
        <time>2024-11-07T11:20:07.537Z</time>
      </trkpt>
      <trkpt lat="46.85883" lon="-1.03024">
        <ele>108.1</ele>
        <time>2024-11-07T11:20:10.747Z</time>
      </trkpt>
      <trkpt lat="46.8587" lon="-1.02975">
        <ele>108.3</ele>
        <time>2024-11-07T11:20:17.116Z</time>
      </trkpt>
      <trkpt lat="46.85861" lon="-1.02936">
        <ele>108</ele>
        <time>2024-11-07T11:20:21.401Z</time>
      </trkpt>
      <trkpt lat="46.85846" lon="-1.02837">
        <ele>107.5</ele>
        <time>2024-11-07T11:20:32.290Z</time>
      </trkpt>
      <trkpt lat="46.85843" lon="-1.02814">
        <ele>107.3</ele>
        <time>2024-11-07T11:20:34.689Z</time>
      </trkpt>
      <trkpt lat="46.85835" lon="-1.0276">
        <ele>107.1</ele>
        <time>2024-11-07T11:20:40.727Z</time>
      </trkpt>
      <trkpt lat="46.8583" lon="-1.02739">
        <ele>107</ele>
        <time>2024-11-07T11:20:43.129Z</time>
      </trkpt>
      <trkpt lat="46.85823" lon="-1.02723">
        <ele>106.6</ele>
        <time>2024-11-07T11:20:44.802Z</time>
      </trkpt>
      <trkpt lat="46.85804" lon="-1.027">
        <ele>106.8</ele>
        <time>2024-11-07T11:20:49.285Z</time>
      </trkpt>
      <trkpt lat="46.85797" lon="-1.02687">
        <ele>107.3</ele>
        <time>2024-11-07T11:20:52.367Z</time>
      </trkpt>
      <trkpt lat="46.85792" lon="-1.02664">
        <ele>108</ele>
        <time>2024-11-07T11:20:56.763Z</time>
      </trkpt>
      <trkpt lat="46.85782" lon="-1.0266">
        <ele>108</ele>
        <time>2024-11-07T11:20:58.504Z</time>
      </trkpt>
      <trkpt lat="46.85757" lon="-1.02627">
        <ele>108.4</ele>
        <time>2024-11-07T11:21:04.864Z</time>
      </trkpt>
      <trkpt lat="46.85705" lon="-1.02555">
        <ele>109</ele>
        <time>2024-11-07T11:21:17.914Z</time>
      </trkpt>
      <trkpt lat="46.85678" lon="-1.02522">
        <ele>108.9</ele>
        <time>2024-11-07T11:21:23.667Z</time>
      </trkpt>
      <trkpt lat="46.85672" lon="-1.02514">
        <ele>108.6</ele>
        <time>2024-11-07T11:21:24.666Z</time>
      </trkpt>
      <trkpt lat="46.85668" lon="-1.02502">
        <ele>108.1</ele>
        <time>2024-11-07T11:21:25.657Z</time>
      </trkpt>
      <trkpt lat="46.85677" lon="-1.02486">
        <ele>108.7</ele>
        <time>2024-11-07T11:21:29.428Z</time>
      </trkpt>
      <trkpt lat="46.85707" lon="-1.02413">
        <ele>109.1</ele>
        <time>2024-11-07T11:21:39.884Z</time>
        <extensions>
          <visugpx:TrkExtension xmlns:visugpx="https://www.visugpx.com/editgpx/">
            <visugpx:node>8</visugpx:node>
            </visugpx:TrkExtension>
        </extensions>
      </trkpt>
      <trkpt lat="46.85707" lon="-1.02412">
        <ele>109.1</ele>
        <time>2024-11-07T11:21:39.998Z</time>
      </trkpt>
      <trkpt lat="46.85762" lon="-1.02327">
        <ele>110</ele>
        <time>2024-11-07T11:21:55.012Z</time>
      </trkpt>
      <trkpt lat="46.85783" lon="-1.02301">
        <ele>109.9</ele>
        <time>2024-11-07T11:21:59.477Z</time>
      </trkpt>
      <trkpt lat="46.85801" lon="-1.02291">
        <ele>109.9</ele>
        <time>2024-11-07T11:22:02.710Z</time>
      </trkpt>
      <trkpt lat="46.85833" lon="-1.02272">
        <ele>110</ele>
        <time>2024-11-07T11:22:08.673Z</time>
      </trkpt>
      <trkpt lat="46.85832" lon="-1.02264">
        <ele>110</ele>
        <time>2024-11-07T11:22:09.607Z</time>
      </trkpt>
      <trkpt lat="46.85834" lon="-1.02259">
        <ele>110</ele>
        <time>2024-11-07T11:22:10.272Z</time>
      </trkpt>
      <trkpt lat="46.85838" lon="-1.02256">
        <ele>110</ele>
        <time>2024-11-07T11:22:11.027Z</time>
      </trkpt>
      <trkpt lat="46.85843" lon="-1.02259">
        <ele>110</ele>
        <time>2024-11-07T11:22:11.935Z</time>
      </trkpt>
      <trkpt lat="46.85855" lon="-1.02235">
        <ele>109.9</ele>
        <time>2024-11-07T11:22:15.195Z</time>
      </trkpt>
      <trkpt lat="46.85879" lon="-1.02193">
        <ele>110</ele>
        <time>2024-11-07T11:22:21.643Z</time>
        <extensions>
          <visugpx:TrkExtension xmlns:visugpx="https://www.visugpx.com/editgpx/">
            <visugpx:node>9</visugpx:node>
            </visugpx:TrkExtension>
        </extensions>
      </trkpt>
      <trkpt lat="46.85881" lon="-1.02189">
        <ele>109.9</ele>
        <time>2024-11-07T11:22:22.084Z</time>
      </trkpt>
      <trkpt lat="46.85895" lon="-1.02165">
        <ele>110.2</ele>
        <time>2024-11-07T11:22:26.244Z</time>
      </trkpt>
      <trkpt lat="46.859" lon="-1.02155">
        <ele>110.2</ele>
        <time>2024-11-07T11:22:27.666Z</time>
      </trkpt>
      <trkpt lat="46.85904" lon="-1.02142">
        <ele>110.1</ele>
        <time>2024-11-07T11:22:29.156Z</time>
      </trkpt>
      <trkpt lat="46.85904" lon="-1.02109">
        <ele>110.5</ele>
        <time>2024-11-07T11:22:33.685Z</time>
      </trkpt>
      <trkpt lat="46.85906" lon="-1.02097">
        <ele>110.6</ele>
        <time>2024-11-07T11:22:35.280Z</time>
      </trkpt>
      <trkpt lat="46.85911" lon="-1.02084">
        <ele>110.8</ele>
        <time>2024-11-07T11:22:37.369Z</time>
      </trkpt>
      <trkpt lat="46.85939" lon="-1.02033">
        <ele>111.2</ele>
        <time>2024-11-07T11:22:45.566Z</time>
      </trkpt>
      <trkpt lat="46.85944" lon="-1.02023">
        <ele>111</ele>
        <time>2024-11-07T11:22:46.721Z</time>
      </trkpt>
      <trkpt lat="46.85945" lon="-1.02019">
        <ele>111</ele>
        <time>2024-11-07T11:22:47.210Z</time>
      </trkpt>
      <trkpt lat="46.85942" lon="-1.02016">
        <ele>111</ele>
        <time>2024-11-07T11:22:47.820Z</time>
      </trkpt>
      <trkpt lat="46.8594" lon="-1.02012">
        <ele>111</ele>
        <time>2024-11-07T11:22:48.389Z</time>
      </trkpt>
      <trkpt lat="46.85941" lon="-1.02007">
        <ele>111</ele>
        <time>2024-11-07T11:22:48.988Z</time>
      </trkpt>
      <trkpt lat="46.85945" lon="-1.02002">
        <ele>111</ele>
        <time>2024-11-07T11:22:49.871Z</time>
      </trkpt>
      <trkpt lat="46.85949" lon="-1.02003">
        <ele>111.2</ele>
        <time>2024-11-07T11:22:51.049Z</time>
      </trkpt>
      <trkpt lat="46.85951" lon="-1.02007">
        <ele>111.2</ele>
        <time>2024-11-07T11:22:51.618Z</time>
      </trkpt>
      <trkpt lat="46.86018" lon="-1.01964">
        <ele>112.6</ele>
        <time>2024-11-07T11:23:06.529Z</time>
      </trkpt>
      <trkpt lat="46.86038" lon="-1.0195">
        <ele>112.5</ele>
        <time>2024-11-07T11:23:10.098Z</time>
      </trkpt>
      <trkpt lat="46.86046" lon="-1.01945">
        <ele>112.7</ele>
        <time>2024-11-07T11:23:11.947Z</time>
      </trkpt>
      <trkpt lat="46.8606" lon="-1.01933">
        <ele>113.2</ele>
        <time>2024-11-07T11:23:15.712Z</time>
      </trkpt>
      <trkpt lat="46.86063" lon="-1.01929">
        <ele>113.3</ele>
        <time>2024-11-07T11:23:16.591Z</time>
      </trkpt>
      <trkpt lat="46.86062" lon="-1.01918">
        <ele>113.2</ele>
        <time>2024-11-07T11:23:17.721Z</time>
      </trkpt>
      <trkpt lat="46.86066" lon="-1.01908">
        <ele>113.3</ele>
        <time>2024-11-07T11:23:19.228Z</time>
      </trkpt>
      <trkpt lat="46.86069" lon="-1.01904">
        <ele>113.3</ele>
        <time>2024-11-07T11:23:19.910Z</time>
      </trkpt>
      <trkpt lat="46.86078" lon="-1.01902">
        <ele>113.4</ele>
        <time>2024-11-07T11:23:21.613Z</time>
      </trkpt>
      <trkpt lat="46.86086" lon="-1.01908">
        <ele>113.7</ele>
        <time>2024-11-07T11:23:23.762Z</time>
      </trkpt>
      <trkpt lat="46.86096" lon="-1.01902">
        <ele>113.5</ele>
        <time>2024-11-07T11:23:25.300Z</time>
      </trkpt>
      <trkpt lat="46.86122" lon="-1.01868">
        <ele>113.8</ele>
        <time>2024-11-07T11:23:31.671Z</time>
      </trkpt>
      <trkpt lat="46.86126" lon="-1.01855">
        <ele>113.9</ele>
        <time>2024-11-07T11:23:33.482Z</time>
      </trkpt>
      <trkpt lat="46.86129" lon="-1.01836">
        <ele>113.7</ele>
        <time>2024-11-07T11:23:35.436Z</time>
      </trkpt>
      <trkpt lat="46.8613" lon="-1.0182">
        <ele>113.7</ele>
        <time>2024-11-07T11:23:37.281Z</time>
      </trkpt>
      <trkpt lat="46.86132" lon="-1.01795">
        <ele>113.8</ele>
        <time>2024-11-07T11:23:40.338Z</time>
      </trkpt>
      <trkpt lat="46.86137" lon="-1.01733">
        <ele>113.4</ele>
        <time>2024-11-07T11:23:46.913Z</time>
      </trkpt>
      <trkpt lat="46.86138" lon="-1.01717">
        <ele>113</ele>
        <time>2024-11-07T11:23:48.269Z</time>
      </trkpt>
      <trkpt lat="46.8614" lon="-1.01702">
        <ele>113</ele>
        <time>2024-11-07T11:23:50.024Z</time>
      </trkpt>
      <trkpt lat="46.8614" lon="-1.01701">
        <ele>113</ele>
        <time>2024-11-07T11:23:50.139Z</time>
        <extensions>
          <visugpx:TrkExtension xmlns:visugpx="https://www.visugpx.com/editgpx/">
            <visugpx:node>10</visugpx:node>
            </visugpx:TrkExtension>
        </extensions>
      </trkpt>
      <trkpt lat="46.8614" lon="-1.01694">
        <ele>113</ele>
        <time>2024-11-07T11:23:50.943Z</time>
      </trkpt>
      <trkpt lat="46.86143" lon="-1.01684">
        <ele>113.1</ele>
        <time>2024-11-07T11:23:52.375Z</time>
      </trkpt>
      <trkpt lat="46.86154" lon="-1.0167">
        <ele>113.5</ele>
        <time>2024-11-07T11:23:55.631Z</time>
      </trkpt>
      <trkpt lat="46.86213" lon="-1.01592">
        <ele>114.8</ele>
        <time>2024-11-07T11:24:11.364Z</time>
      </trkpt>
      <trkpt lat="46.86224" lon="-1.0158">
        <ele>115</ele>
        <time>2024-11-07T11:24:14.029Z</time>
      </trkpt>
      <trkpt lat="46.86231" lon="-1.01577">
        <ele>115</ele>
        <time>2024-11-07T11:24:15.254Z</time>
      </trkpt>
      <trkpt lat="46.86242" lon="-1.01579">
        <ele>115</ele>
        <time>2024-11-07T11:24:17.115Z</time>
      </trkpt>
      <trkpt lat="46.86266" lon="-1.0158">
        <ele>115.6</ele>
        <time>2024-11-07T11:24:22.331Z</time>
      </trkpt>
      <trkpt lat="46.86276" lon="-1.0158">
        <ele>115.9</ele>
        <time>2024-11-07T11:24:24.630Z</time>
      </trkpt>
      <trkpt lat="46.86279" lon="-1.01577">
        <ele>116</ele>
        <time>2024-11-07T11:24:25.443Z</time>
      </trkpt>
      <trkpt lat="46.86283" lon="-1.01561">
        <ele>116.2</ele>
        <time>2024-11-07T11:24:27.767Z</time>
      </trkpt>
      <trkpt lat="46.86289" lon="-1.01535">
        <ele>116.4</ele>
        <time>2024-11-07T11:24:31.266Z</time>
      </trkpt>
      <trkpt lat="46.86307" lon="-1.01407">
        <ele>117</ele>
        <time>2024-11-07T11:24:47.282Z</time>
      </trkpt>
      <trkpt lat="46.86324" lon="-1.01263">
        <ele>117.5</ele>
        <time>2024-11-07T11:25:04.891Z</time>
      </trkpt>
      <trkpt lat="46.8633" lon="-1.01249">
        <ele>118</ele>
        <time>2024-11-07T11:25:07.970Z</time>
      </trkpt>
      <trkpt lat="46.86327" lon="-1.01243">
        <ele>118</ele>
        <time>2024-11-07T11:25:08.824Z</time>
      </trkpt>
      <trkpt lat="46.86326" lon="-1.01236">
        <ele>118</ele>
        <time>2024-11-07T11:25:09.645Z</time>
      </trkpt>
      <trkpt lat="46.86305" lon="-1.01223">
        <ele>118</ele>
        <time>2024-11-07T11:25:13.474Z</time>
      </trkpt>
      <trkpt lat="46.86299" lon="-1.0122">
        <ele>117.5</ele>
        <time>2024-11-07T11:25:14.113Z</time>
      </trkpt>
      <trkpt lat="46.8626" lon="-1.01192">
        <ele>115.9</ele>
        <time>2024-11-07T11:25:19.460Z</time>
        <extensions>
          <visugpx:TrkExtension xmlns:visugpx="https://www.visugpx.com/editgpx/">
            <visugpx:node>11</visugpx:node>
            </visugpx:TrkExtension>
        </extensions>
      </trkpt>
      <trkpt lat="46.86229" lon="-1.01169">
        <ele>115</ele>
        <time>2024-11-07T11:25:24.115Z</time>
      </trkpt>
      <trkpt lat="46.86184" lon="-1.01141">
        <ele>115.9</ele>
        <time>2024-11-07T11:25:34.003Z</time>
      </trkpt>
      <trkpt lat="46.8618" lon="-1.01132">
        <ele>116</ele>
        <time>2024-11-07T11:25:35.415Z</time>
      </trkpt>
      <trkpt lat="46.86156" lon="-1.01111">
        <ele>115.6</ele>
        <time>2024-11-07T11:25:39.539Z</time>
      </trkpt>
      <trkpt lat="46.86177" lon="-1.01057">
        <ele>116.4</ele>
        <time>2024-11-07T11:25:48.167Z</time>
      </trkpt>
      <trkpt lat="46.86195" lon="-1.01007">
        <ele>117</ele>
        <time>2024-11-07T11:25:55.745Z</time>
      </trkpt>
      <trkpt lat="46.86207" lon="-1.00973">
        <ele>117.5</ele>
        <time>2024-11-07T11:26:01.076Z</time>
      </trkpt>
      <trkpt lat="46.86217" lon="-1.00945">
        <ele>117.8</ele>
        <time>2024-11-07T11:26:05.240Z</time>
      </trkpt>
      <trkpt lat="46.86239" lon="-1.00889">
        <ele>118.6</ele>
        <time>2024-11-07T11:26:14.141Z</time>
      </trkpt>
      <trkpt lat="46.86248" lon="-1.00863">
        <ele>119.8</ele>
        <time>2024-11-07T11:26:20.809Z</time>
      </trkpt>
      <trkpt lat="46.86249" lon="-1.00861">
        <ele>119.9</ele>
        <time>2024-11-07T11:26:21.367Z</time>
      </trkpt>
      <trkpt lat="46.86252" lon="-1.0085">
        <ele>120</ele>
        <time>2024-11-07T11:26:22.903Z</time>
      </trkpt>
      <trkpt lat="46.86256" lon="-1.00824">
        <ele>119.7</ele>
        <time>2024-11-07T11:26:25.541Z</time>
      </trkpt>
      <trkpt lat="46.86257" lon="-1.00807">
        <ele>119.3</ele>
        <time>2024-11-07T11:26:27.005Z</time>
      </trkpt>
      <trkpt lat="46.86256" lon="-1.00786">
        <ele>119.2</ele>
        <time>2024-11-07T11:26:29.270Z</time>
      </trkpt>
      <trkpt lat="46.86248" lon="-1.00733">
        <ele>117.4</ele>
        <time>2024-11-07T11:26:33.473Z</time>
      </trkpt>
      <trkpt lat="46.86236" lon="-1.0068">
        <ele>116.2</ele>
        <time>2024-11-07T11:26:38.368Z</time>
      </trkpt>
      <trkpt lat="46.86252" lon="-1.00672">
        <ele>116.3</ele>
        <time>2024-11-07T11:26:41.375Z</time>
        <extensions>
          <visugpx:TrkExtension xmlns:visugpx="https://www.visugpx.com/editgpx/">
            <visugpx:node>12</visugpx:node>
            </visugpx:TrkExtension>
        </extensions>
      </trkpt>
      <trkpt lat="46.86272" lon="-1.00663">
        <ele>117.5</ele>
        <time>2024-11-07T11:26:48.115Z</time>
      </trkpt>
      <trkpt lat="46.86324" lon="-1.00626">
        <ele>118.2</ele>
        <time>2024-11-07T11:26:59.061Z</time>
      </trkpt>
      <trkpt lat="46.86326" lon="-1.00624">
        <ele>118.2</ele>
        <time>2024-11-07T11:26:59.468Z</time>
      </trkpt>
      <trkpt lat="46.86344" lon="-1.00605">
        <ele>118.7</ele>
        <time>2024-11-07T11:27:04.161Z</time>
        <extensions>
          <visugpx:TrkExtension xmlns:visugpx="https://www.visugpx.com/editgpx/">
            <visugpx:node>13</visugpx:node>
            </visugpx:TrkExtension>
        </extensions>
      </trkpt>
      <trkpt lat="46.86351" lon="-1.00599">
        <ele>119</ele>
        <time>2024-11-07T11:27:06.185Z</time>
        <extensions>
          <visugpx:TrkExtension xmlns:visugpx="https://www.visugpx.com/editgpx/">
            <visugpx:node>14</visugpx:node>
            </visugpx:TrkExtension>
        </extensions>
      </trkpt>
    </trkseg>
  </trk>
</gpx>